<?xml version="1.0" encoding="UTF-8" standalone="no" ?>
<gpx xmlns="http://www.topografix.com/GPX/1/1" xmlns:gpxtpx="http://www.garmin.com/xmlschemas/TrackPointExtension/v1" creator="OruxMaps v.7.4.22" version="1.1" xmlns:xsi="http://www.w3.org/2001/XMLSchema-instance" xsi:schemaLocation="http://www.topografix.com/GPX/1/1 http://www.topografix.com/GPX/1/1/gpx.xsd">
<metadata>
<name><![CDATA[2021-09-02 11:18]]></name>
<link href="https://www.oruxmaps.com">
<text>OruxMaps</text>
</link>
<time>2021-09-02T09:18:40Z</time><bounds maxlat="46.5685016" maxlon="6.2528816" minlat="46.4839505" minlon="6.1582747"/>
</metadata>
<wpt lat="46.5594571" lon="6.2482738">
<ele>1319.48</ele>
<time>2021-09-02T09:18:41Z</time>
<name><![CDATA[0000176]]></name>
<sym>Waypoint</sym>
<type>Point de départ</type>
<extensions>
<om:oruxmapsextensions xmlns:om="http://www.oruxmaps.com/oruxmapsextensions/1/0">
<om:ext type="ICON" subtype="0">38</om:ext>
</om:oruxmapsextensions>
</extensions>
</wpt>
<wpt lat="46.5595058" lon="6.2482984">
<ele>1339.92</ele>
<time>2021-09-02T14:59:35Z</time>
<name><![CDATA[0000177]]></name>
<desc><![CDATA[<p><br /><h3>Nom: Segment: 1</h3><br />Heure de départ: 11:18 2 sept. 2021<br/>Heure d'arrivée: 16:59 2 sept. 2021<br/>Distance: 35,1km (05:40)<br/>Temps déplacement: 03:27<br/>Vitesse moyenne: 6,18 km/h<br/>Vitesse moyenne mouv.: 10,13 km/h<br/>Vitesse Max.: 43,98 km/h<br/>Altitude minimale: 1139 m<br/>Altitude maximale: 1494 m<br/>Vitesse de montée: 453,6 m/h<br/>Vitesse de descente: -459,4 m/h<br/>Gain d'altitude: 1299 m<br/>Perte d'altitude: -1277 m<br/>Temps de montée: 02:51<br/>Temps de descente: 02:46<br/></p>]]></desc>
<sym>Waypoint</sym>
<type>Point d'arrivée</type>
<extensions>
<om:oruxmapsextensions xmlns:om="http://www.oruxmaps.com/oruxmapsextensions/1/0">
<om:ext type="ICON" subtype="0">15</om:ext>
</om:oruxmapsextensions>
</extensions>
</wpt>
<trk>
<name><![CDATA[2021-09-02 11:18]]></name>
<desc><![CDATA[<p>Heure de départ: 11:18 2 sept. 2021<br/>Heure d'arrivée: 16:59 2 sept. 2021<br/>Distance: 35,1 km (05:40)<br/>Temps déplacement: 03:27<br/>Vitesse moyenne: 6,18 km/h<br/>Vitesse moyenne mouv.: 10,14 km/h<br/>Vitesse Max.: 43,98 km/h<br/>Altitude minimale: 1139 m<br/>Altitude maximale: 1494 m<br/>Vitesse de montée: 400,2 m/h<br/>Vitesse de descente: -443,7 m/h<br/>Gain d'altitude: 1187 m<br/>Perte d'altitude: -1180 m<br/>Temps de montée: 02:57<br/>Temps de descente: 02:39<br/></p><hr align="center" width="480" style="height: 2px; width: 517px"/>]]></desc>
<type>Indéfini</type>
<extensions>
<om:oruxmapsextensions xmlns:om="http://www.oruxmaps.com/oruxmapsextensions/1/0">
<om:ext type="TYPE" subtype="0">0</om:ext>
<om:ext type="DIFFICULTY">0</om:ext>
</om:oruxmapsextensions>
</extensions>
<trkseg>
<trkpt lat="46.5594571" lon="6.2482738">
<ele>1319.48</ele>
<time>2021-09-02T09:18:41Z</time>
</trkpt>
<trkpt lat="46.5596094" lon="6.2484218">
<ele>1347.83</ele>
<time>2021-09-02T09:22:18Z</time>
</trkpt>
<trkpt lat="46.5595555" lon="6.2486827">
<ele>1342.31</ele>
<time>2021-09-02T09:25:56Z</time>
</trkpt>
<trkpt lat="46.5594850" lon="6.2489693">
<ele>1342.99</ele>
<time>2021-09-02T09:26:03Z</time>
</trkpt>
<trkpt lat="46.5594202" lon="6.2492323">
<ele>1343.87</ele>
<time>2021-09-02T09:26:09Z</time>
</trkpt>
<trkpt lat="46.5593768" lon="6.2495128">
<ele>1345.76</ele>
<time>2021-09-02T09:26:16Z</time>
</trkpt>
<trkpt lat="46.5594317" lon="6.2497996">
<ele>1347.44</ele>
<time>2021-09-02T09:26:23Z</time>
</trkpt>
<trkpt lat="46.5594385" lon="6.2500723">
<ele>1348.76</ele>
<time>2021-09-02T09:26:29Z</time>
</trkpt>
<trkpt lat="46.5594216" lon="6.2503428">
<ele>1349.52</ele>
<time>2021-09-02T09:26:35Z</time>
</trkpt>
<trkpt lat="46.5593554" lon="6.2506171">
<ele>1352.41</ele>
<time>2021-09-02T09:26:42Z</time>
</trkpt>
<trkpt lat="46.5593234" lon="6.2509051">
<ele>1354.35</ele>
<time>2021-09-02T09:26:49Z</time>
</trkpt>
<trkpt lat="46.5592989" lon="6.2511906">
<ele>1356.32</ele>
<time>2021-09-02T09:26:56Z</time>
</trkpt>
<trkpt lat="46.5592911" lon="6.2514808">
<ele>1357.41</ele>
<time>2021-09-02T09:27:04Z</time>
</trkpt>
<trkpt lat="46.5592601" lon="6.2517608">
<ele>1358.21</ele>
<time>2021-09-02T09:27:12Z</time>
</trkpt>
<trkpt lat="46.5592068" lon="6.2520109">
<ele>1358.89</ele>
<time>2021-09-02T09:27:19Z</time>
</trkpt>
<trkpt lat="46.5590208" lon="6.2519938">
<ele>1358.66</ele>
<time>2021-09-02T09:27:27Z</time>
</trkpt>
<trkpt lat="46.5589335" lon="6.2522473">
<ele>1361.16</ele>
<time>2021-09-02T09:27:34Z</time>
</trkpt>
<trkpt lat="46.5589553" lon="6.2525357">
<ele>1362.59</ele>
<time>2021-09-02T09:27:41Z</time>
</trkpt>
<trkpt lat="46.5588063" lon="6.2527277">
<ele>1365.47</ele>
<time>2021-09-02T09:27:51Z</time>
</trkpt>
<trkpt lat="46.5586140" lon="6.2528124">
<ele>1367.27</ele>
<time>2021-09-02T09:28:01Z</time>
</trkpt>
<trkpt lat="46.5584214" lon="6.2528479">
<ele>1369.25</ele>
<time>2021-09-02T09:28:12Z</time>
</trkpt>
<trkpt lat="46.5582363" lon="6.2528663">
<ele>1373.12</ele>
<time>2021-09-02T09:28:24Z</time>
</trkpt>
<trkpt lat="46.5580498" lon="6.2528816">
<ele>1375.56</ele>
<time>2021-09-02T09:28:36Z</time>
</trkpt>
<trkpt lat="46.5578739" lon="6.2527464">
<ele>1379.48</ele>
<time>2021-09-02T09:28:48Z</time>
</trkpt>
<trkpt lat="46.5577234" lon="6.2526027">
<ele>1382.45</ele>
<time>2021-09-02T09:28:59Z</time>
</trkpt>
<trkpt lat="46.5575697" lon="6.2524310">
<ele>1387.99</ele>
<time>2021-09-02T09:29:11Z</time>
</trkpt>
<trkpt lat="46.5574150" lon="6.2522907">
<ele>1389.39</ele>
<time>2021-09-02T09:29:21Z</time>
</trkpt>
<trkpt lat="46.5572613" lon="6.2521492">
<ele>1391.25</ele>
<time>2021-09-02T09:29:32Z</time>
</trkpt>
<trkpt lat="46.5570870" lon="6.2520401">
<ele>1396.24</ele>
<time>2021-09-02T09:29:44Z</time>
</trkpt>
<trkpt lat="46.5568996" lon="6.2519986">
<ele>1393.57</ele>
<time>2021-09-02T09:29:54Z</time>
</trkpt>
<trkpt lat="46.5567289" lon="6.2519043">
<ele>1397.65</ele>
<time>2021-09-02T09:30:05Z</time>
</trkpt>
<trkpt lat="46.5565465" lon="6.2518281">
<ele>1403.78</ele>
<time>2021-09-02T09:30:16Z</time>
</trkpt>
<trkpt lat="46.5563633" lon="6.2517933">
<ele>1406.85</ele>
<time>2021-09-02T09:30:27Z</time>
</trkpt>
<trkpt lat="46.5561702" lon="6.2518457">
<ele>1411.82</ele>
<time>2021-09-02T09:30:37Z</time>
</trkpt>
<trkpt lat="46.5560492" lon="6.2520545">
<ele>1410.50</ele>
<time>2021-09-02T09:30:48Z</time>
</trkpt>
<trkpt lat="46.5558852" lon="6.2519226">
<ele>1414.03</ele>
<time>2021-09-02T09:30:59Z</time>
</trkpt>
<trkpt lat="46.5557061" lon="6.2518473">
<ele>1415.65</ele>
<time>2021-09-02T09:31:12Z</time>
</trkpt>
<trkpt lat="46.5555324" lon="6.2517561">
<ele>1417.38</ele>
<time>2021-09-02T09:31:24Z</time>
</trkpt>
<trkpt lat="46.5553761" lon="6.2516114">
<ele>1421.61</ele>
<time>2021-09-02T09:31:35Z</time>
</trkpt>
<trkpt lat="46.5551982" lon="6.2514944">
<ele>1423.38</ele>
<time>2021-09-02T09:31:46Z</time>
</trkpt>
<trkpt lat="46.5550281" lon="6.2513774">
<ele>1423.84</ele>
<time>2021-09-02T09:31:56Z</time>
</trkpt>
<trkpt lat="46.5548701" lon="6.2512132">
<ele>1427.32</ele>
<time>2021-09-02T09:32:06Z</time>
</trkpt>
<trkpt lat="46.5547067" lon="6.2510630">
<ele>1427.80</ele>
<time>2021-09-02T09:32:17Z</time>
</trkpt>
<trkpt lat="46.5545613" lon="6.2509046">
<ele>1433.66</ele>
<time>2021-09-02T09:32:28Z</time>
</trkpt>
<trkpt lat="46.5544149" lon="6.2507269">
<ele>1435.53</ele>
<time>2021-09-02T09:32:40Z</time>
</trkpt>
<trkpt lat="46.5542500" lon="6.2505824">
<ele>1437.70</ele>
<time>2021-09-02T09:32:52Z</time>
</trkpt>
<trkpt lat="46.5540684" lon="6.2505129">
<ele>1439.04</ele>
<time>2021-09-02T09:33:04Z</time>
</trkpt>
<trkpt lat="46.5538962" lon="6.2504226">
<ele>1441.20</ele>
<time>2021-09-02T09:33:14Z</time>
</trkpt>
<trkpt lat="46.5537246" lon="6.2503275">
<ele>1442.90</ele>
<time>2021-09-02T09:33:25Z</time>
</trkpt>
<trkpt lat="46.5535551" lon="6.2502334">
<ele>1442.70</ele>
<time>2021-09-02T09:33:35Z</time>
</trkpt>
<trkpt lat="46.5533784" lon="6.2501742">
<ele>1439.79</ele>
<time>2021-09-02T09:33:44Z</time>
</trkpt>
<trkpt lat="46.5531854" lon="6.2501612">
<ele>1439.12</ele>
<time>2021-09-02T09:33:53Z</time>
</trkpt>
<trkpt lat="46.5530028" lon="6.2502039">
<ele>1439.72</ele>
<time>2021-09-02T09:34:00Z</time>
</trkpt>
<trkpt lat="46.5528230" lon="6.2502278">
<ele>1441.67</ele>
<time>2021-09-02T09:34:06Z</time>
</trkpt>
<trkpt lat="46.5526450" lon="6.2503214">
<ele>1443.38</ele>
<time>2021-09-02T09:34:12Z</time>
</trkpt>
<trkpt lat="46.5525101" lon="6.2505240">
<ele>1442.13</ele>
<time>2021-09-02T09:34:17Z</time>
</trkpt>
<trkpt lat="46.5524175" lon="6.2507783">
<ele>1441.02</ele>
<time>2021-09-02T09:34:24Z</time>
</trkpt>
<trkpt lat="46.5524016" lon="6.2510974">
<ele>1439.06</ele>
<time>2021-09-02T09:34:29Z</time>
</trkpt>
<trkpt lat="46.5523868" lon="6.2513852">
<ele>1437.86</ele>
<time>2021-09-02T09:34:34Z</time>
</trkpt>
<trkpt lat="46.5522048" lon="6.2511895">
<ele>1436.91</ele>
<time>2021-09-02T09:34:44Z</time>
</trkpt>
<trkpt lat="46.5520588" lon="6.2509926">
<ele>1436.92</ele>
<time>2021-09-02T09:34:48Z</time>
</trkpt>
<trkpt lat="46.5518712" lon="6.2508499">
<ele>1436.95</ele>
<time>2021-09-02T09:34:53Z</time>
</trkpt>
<trkpt lat="46.5516761" lon="6.2507678">
<ele>1436.09</ele>
<time>2021-09-02T09:35:01Z</time>
</trkpt>
<trkpt lat="46.5515509" lon="6.2505596">
<ele>1441.58</ele>
<time>2021-09-02T09:37:02Z</time>
</trkpt>
<trkpt lat="46.5514033" lon="6.2504062">
<ele>1444.00</ele>
<time>2021-09-02T09:37:10Z</time>
</trkpt>
<trkpt lat="46.5512448" lon="6.2502525">
<ele>1445.42</ele>
<time>2021-09-02T09:37:17Z</time>
</trkpt>
<trkpt lat="46.5510842" lon="6.2501073">
<ele>1444.44</ele>
<time>2021-09-02T09:37:21Z</time>
</trkpt>
<trkpt lat="46.5509280" lon="6.2499424">
<ele>1446.77</ele>
<time>2021-09-02T09:37:26Z</time>
</trkpt>
<trkpt lat="46.5507502" lon="6.2498223">
<ele>1451.42</ele>
<time>2021-09-02T09:37:35Z</time>
</trkpt>
<trkpt lat="46.5505590" lon="6.2498351">
<ele>1454.06</ele>
<time>2021-09-02T09:37:42Z</time>
</trkpt>
<trkpt lat="46.5504095" lon="6.2496404">
<ele>1457.73</ele>
<time>2021-09-02T09:37:49Z</time>
</trkpt>
<trkpt lat="46.5502408" lon="6.2495222">
<ele>1456.47</ele>
<time>2021-09-02T09:38:06Z</time>
</trkpt>
<trkpt lat="46.5501299" lon="6.2493119">
<ele>1453.61</ele>
<time>2021-09-02T09:38:15Z</time>
</trkpt>
<trkpt lat="46.5499598" lon="6.2490796">
<ele>1453.09</ele>
<time>2021-09-02T09:38:22Z</time>
</trkpt>
<trkpt lat="46.5498024" lon="6.2489456">
<ele>1454.08</ele>
<time>2021-09-02T09:38:30Z</time>
</trkpt>
<trkpt lat="46.5496328" lon="6.2488242">
<ele>1455.72</ele>
<time>2021-09-02T09:38:37Z</time>
</trkpt>
<trkpt lat="46.5494872" lon="6.2486528">
<ele>1461.78</ele>
<time>2021-09-02T09:38:47Z</time>
</trkpt>
<trkpt lat="46.5493841" lon="6.2484113">
<ele>1461.52</ele>
<time>2021-09-02T09:39:15Z</time>
</trkpt>
<trkpt lat="46.5492429" lon="6.2482246">
<ele>1464.01</ele>
<time>2021-09-02T09:39:23Z</time>
</trkpt>
<trkpt lat="46.5492246" lon="6.2479599">
<ele>1465.18</ele>
<time>2021-09-02T09:39:46Z</time>
</trkpt>
<trkpt lat="46.5492465" lon="6.2476844">
<ele>1465.42</ele>
<time>2021-09-02T09:39:52Z</time>
</trkpt>
<trkpt lat="46.5491737" lon="6.2473901">
<ele>1464.26</ele>
<time>2021-09-02T09:39:57Z</time>
</trkpt>
<trkpt lat="46.5491174" lon="6.2471364">
<ele>1462.30</ele>
<time>2021-09-02T09:40:01Z</time>
</trkpt>
<trkpt lat="46.5490339" lon="6.2468701">
<ele>1460.79</ele>
<time>2021-09-02T09:40:05Z</time>
</trkpt>
<trkpt lat="46.5489423" lon="6.2466066">
<ele>1458.92</ele>
<time>2021-09-02T09:40:10Z</time>
</trkpt>
<trkpt lat="46.5487719" lon="6.2464881">
<ele>1456.45</ele>
<time>2021-09-02T09:40:16Z</time>
</trkpt>
<trkpt lat="46.5486792" lon="6.2462336">
<ele>1450.00</ele>
<time>2021-09-02T09:40:25Z</time>
</trkpt>
<trkpt lat="46.5485028" lon="6.2461356">
<ele>1451.20</ele>
<time>2021-09-02T09:40:30Z</time>
</trkpt>
<trkpt lat="46.5483325" lon="6.2460219">
<ele>1450.89</ele>
<time>2021-09-02T09:40:36Z</time>
</trkpt>
<trkpt lat="46.5481616" lon="6.2459308">
<ele>1448.11</ele>
<time>2021-09-02T09:40:44Z</time>
</trkpt>
<trkpt lat="46.5479684" lon="6.2458133">
<ele>1449.06</ele>
<time>2021-09-02T09:40:49Z</time>
</trkpt>
<trkpt lat="46.5477921" lon="6.2457126">
<ele>1449.48</ele>
<time>2021-09-02T09:40:55Z</time>
</trkpt>
<trkpt lat="46.5476943" lon="6.2454865">
<ele>1450.66</ele>
<time>2021-09-02T09:41:04Z</time>
</trkpt>
<trkpt lat="46.5476307" lon="6.2452269">
<ele>1447.10</ele>
<time>2021-09-02T09:41:14Z</time>
</trkpt>
<trkpt lat="46.5475281" lon="6.2449915">
<ele>1446.16</ele>
<time>2021-09-02T09:41:20Z</time>
</trkpt>
<trkpt lat="46.5474184" lon="6.2447622">
<ele>1446.63</ele>
<time>2021-09-02T09:41:25Z</time>
</trkpt>
<trkpt lat="46.5474450" lon="6.2444698">
<ele>1441.91</ele>
<time>2021-09-02T09:41:31Z</time>
</trkpt>
<trkpt lat="46.5474314" lon="6.2441891">
<ele>1440.63</ele>
<time>2021-09-02T09:41:38Z</time>
</trkpt>
<trkpt lat="46.5472789" lon="6.2440333">
<ele>1441.05</ele>
<time>2021-09-02T09:41:44Z</time>
</trkpt>
<trkpt lat="46.5471243" lon="6.2438460">
<ele>1438.40</ele>
<time>2021-09-02T09:41:52Z</time>
</trkpt>
<trkpt lat="46.5469907" lon="6.2436164">
<ele>1437.12</ele>
<time>2021-09-02T09:41:58Z</time>
</trkpt>
<trkpt lat="46.5468717" lon="6.2434040">
<ele>1434.59</ele>
<time>2021-09-02T09:42:05Z</time>
</trkpt>
<trkpt lat="46.5466721" lon="6.2433637">
<ele>1432.76</ele>
<time>2021-09-02T09:42:12Z</time>
</trkpt>
<trkpt lat="46.5464129" lon="6.2434608">
<ele>1430.22</ele>
<time>2021-09-02T09:42:15Z</time>
</trkpt>
<trkpt lat="46.5462330" lon="6.2434723">
<ele>1427.68</ele>
<time>2021-09-02T09:42:19Z</time>
</trkpt>
<trkpt lat="46.5460326" lon="6.2438038">
<ele>1424.90</ele>
<time>2021-09-02T09:42:26Z</time>
</trkpt>
<trkpt lat="46.5459322" lon="6.2440329">
<ele>1425.66</ele>
<time>2021-09-02T09:42:30Z</time>
</trkpt>
<trkpt lat="46.5456568" lon="6.2439544">
<ele>1423.12</ele>
<time>2021-09-02T09:42:35Z</time>
</trkpt>
<trkpt lat="46.5454471" lon="6.2438287">
<ele>1422.31</ele>
<time>2021-09-02T09:42:40Z</time>
</trkpt>
<trkpt lat="46.5452855" lon="6.2439531">
<ele>1423.32</ele>
<time>2021-09-02T09:42:46Z</time>
</trkpt>
<trkpt lat="46.5450898" lon="6.2438443">
<ele>1418.19</ele>
<time>2021-09-02T09:42:51Z</time>
</trkpt>
<trkpt lat="46.5449237" lon="6.2437003">
<ele>1415.05</ele>
<time>2021-09-02T09:42:56Z</time>
</trkpt>
<trkpt lat="46.5447290" lon="6.2436497">
<ele>1409.14</ele>
<time>2021-09-02T09:43:08Z</time>
</trkpt>
<trkpt lat="46.5445677" lon="6.2438131">
<ele>1407.45</ele>
<time>2021-09-02T09:43:12Z</time>
</trkpt>
<trkpt lat="46.5444118" lon="6.2439815">
<ele>1407.24</ele>
<time>2021-09-02T09:43:15Z</time>
</trkpt>
<trkpt lat="46.5443144" lon="6.2442344">
<ele>1410.46</ele>
<time>2021-09-02T09:43:25Z</time>
</trkpt>
<trkpt lat="46.5441732" lon="6.2444567">
<ele>1428.06</ele>
<time>2021-09-02T09:43:31Z</time>
</trkpt>
<trkpt lat="46.5439561" lon="6.2446567">
<ele>1417.76</ele>
<time>2021-09-02T09:43:34Z</time>
</trkpt>
<trkpt lat="46.5437586" lon="6.2446223">
<ele>1425.66</ele>
<time>2021-09-02T09:43:42Z</time>
</trkpt>
<trkpt lat="46.5436594" lon="6.2448685">
<ele>1419.05</ele>
<time>2021-09-02T09:43:52Z</time>
</trkpt>
<trkpt lat="46.5437228" lon="6.2451230">
<ele>1420.46</ele>
<time>2021-09-02T09:43:58Z</time>
</trkpt>
<trkpt lat="46.5437658" lon="6.2454418">
<ele>1418.05</ele>
<time>2021-09-02T09:44:03Z</time>
</trkpt>
<trkpt lat="46.5438918" lon="6.2456765">
<ele>1410.15</ele>
<time>2021-09-02T09:44:09Z</time>
</trkpt>
<trkpt lat="46.5439933" lon="6.2459727">
<ele>1390.61</ele>
<time>2021-09-02T09:44:13Z</time>
</trkpt>
<trkpt lat="46.5441449" lon="6.2461388">
<ele>1417.45</ele>
<time>2021-09-02T09:44:19Z</time>
</trkpt>
<trkpt lat="46.5442565" lon="6.2463955">
<ele>1413.51</ele>
<time>2021-09-02T09:44:37Z</time>
</trkpt>
<trkpt lat="46.5442979" lon="6.2466706">
<ele>1414.43</ele>
<time>2021-09-02T09:44:39Z</time>
</trkpt>
<trkpt lat="46.5441970" lon="6.2468885">
<ele>1411.22</ele>
<time>2021-09-02T09:44:42Z</time>
</trkpt>
<trkpt lat="46.5439843" lon="6.2469807">
<ele>1419.87</ele>
<time>2021-09-02T09:44:46Z</time>
</trkpt>
<trkpt lat="46.5438015" lon="6.2468924">
<ele>1415.83</ele>
<time>2021-09-02T09:44:52Z</time>
</trkpt>
<trkpt lat="46.5436216" lon="6.2469072">
<ele>1413.71</ele>
<time>2021-09-02T09:44:57Z</time>
</trkpt>
<trkpt lat="46.5434872" lon="6.2471254">
<ele>1412.78</ele>
<time>2021-09-02T09:45:02Z</time>
</trkpt>
<trkpt lat="46.5435054" lon="6.2474175">
<ele>1417.07</ele>
<time>2021-09-02T09:45:06Z</time>
</trkpt>
<trkpt lat="46.5435244" lon="6.2477265">
<ele>1423.83</ele>
<time>2021-09-02T09:45:09Z</time>
</trkpt>
<trkpt lat="46.5433991" lon="6.2474966">
<ele>1360.82</ele>
<time>2021-09-02T09:47:30Z</time>
</trkpt>
<trkpt lat="46.5432813" lon="6.2472807">
<ele>1359.69</ele>
<time>2021-09-02T09:47:35Z</time>
</trkpt>
<trkpt lat="46.5431326" lon="6.2471188">
<ele>1359.59</ele>
<time>2021-09-02T09:47:39Z</time>
</trkpt>
<trkpt lat="46.5429814" lon="6.2469248">
<ele>1359.12</ele>
<time>2021-09-02T09:47:43Z</time>
</trkpt>
<trkpt lat="46.5428196" lon="6.2467379">
<ele>1358.91</ele>
<time>2021-09-02T09:47:47Z</time>
</trkpt>
<trkpt lat="46.5426656" lon="6.2465174">
<ele>1357.60</ele>
<time>2021-09-02T09:47:52Z</time>
</trkpt>
<trkpt lat="46.5425516" lon="6.2462222">
<ele>1355.00</ele>
<time>2021-09-02T09:47:56Z</time>
</trkpt>
<trkpt lat="46.5424428" lon="6.2459379">
<ele>1352.94</ele>
<time>2021-09-02T09:47:59Z</time>
</trkpt>
<trkpt lat="46.5423235" lon="6.2456066">
<ele>1351.11</ele>
<time>2021-09-02T09:48:02Z</time>
</trkpt>
<trkpt lat="46.5421396" lon="6.2453391">
<ele>1350.28</ele>
<time>2021-09-02T09:48:05Z</time>
</trkpt>
<trkpt lat="46.5419405" lon="6.2451172">
<ele>1348.19</ele>
<time>2021-09-02T09:48:08Z</time>
</trkpt>
<trkpt lat="46.5417225" lon="6.2448971">
<ele>1346.82</ele>
<time>2021-09-02T09:48:11Z</time>
</trkpt>
<trkpt lat="46.5415713" lon="6.2447530">
<ele>1345.95</ele>
<time>2021-09-02T09:48:13Z</time>
</trkpt>
<trkpt lat="46.5414200" lon="6.2446069">
<ele>1345.65</ele>
<time>2021-09-02T09:48:15Z</time>
</trkpt>
<trkpt lat="46.5412642" lon="6.2444720">
<ele>1344.60</ele>
<time>2021-09-02T09:48:17Z</time>
</trkpt>
<trkpt lat="46.5410991" lon="6.2443523">
<ele>1343.89</ele>
<time>2021-09-02T09:48:19Z</time>
</trkpt>
<trkpt lat="46.5408693" lon="6.2441994">
<ele>1344.17</ele>
<time>2021-09-02T09:48:22Z</time>
</trkpt>
<trkpt lat="46.5407121" lon="6.2439758">
<ele>1342.88</ele>
<time>2021-09-02T09:48:25Z</time>
</trkpt>
<trkpt lat="46.5406269" lon="6.2436668">
<ele>1340.46</ele>
<time>2021-09-02T09:48:28Z</time>
</trkpt>
<trkpt lat="46.5405509" lon="6.2432933">
<ele>1337.36</ele>
<time>2021-09-02T09:48:31Z</time>
</trkpt>
<trkpt lat="46.5404953" lon="6.2430440">
<ele>1336.01</ele>
<time>2021-09-02T09:48:33Z</time>
</trkpt>
<trkpt lat="46.5404116" lon="6.2427197">
<ele>1334.24</ele>
<time>2021-09-02T09:48:36Z</time>
</trkpt>
<trkpt lat="46.5403162" lon="6.2424033">
<ele>1333.83</ele>
<time>2021-09-02T09:48:39Z</time>
</trkpt>
<trkpt lat="46.5401832" lon="6.2421070">
<ele>1332.23</ele>
<time>2021-09-02T09:48:42Z</time>
</trkpt>
<trkpt lat="46.5399891" lon="6.2418833">
<ele>1330.40</ele>
<time>2021-09-02T09:48:45Z</time>
</trkpt>
<trkpt lat="46.5397539" lon="6.2417208">
<ele>1327.82</ele>
<time>2021-09-02T09:48:48Z</time>
</trkpt>
<trkpt lat="46.5395885" lon="6.2416128">
<ele>1326.78</ele>
<time>2021-09-02T09:48:50Z</time>
</trkpt>
<trkpt lat="46.5394253" lon="6.2414660">
<ele>1325.25</ele>
<time>2021-09-02T09:48:52Z</time>
</trkpt>
<trkpt lat="46.5392786" lon="6.2413038">
<ele>1324.41</ele>
<time>2021-09-02T09:48:54Z</time>
</trkpt>
<trkpt lat="46.5390927" lon="6.2410615">
<ele>1322.68</ele>
<time>2021-09-02T09:48:57Z</time>
</trkpt>
<trkpt lat="46.5389462" lon="6.2408059">
<ele>1320.76</ele>
<time>2021-09-02T09:49:01Z</time>
</trkpt>
<trkpt lat="46.5387797" lon="6.2406962">
<ele>1317.13</ele>
<time>2021-09-02T09:49:43Z</time>
</trkpt>
<trkpt lat="46.5386006" lon="6.2405331">
<ele>1316.35</ele>
<time>2021-09-02T09:49:48Z</time>
</trkpt>
<trkpt lat="46.5383934" lon="6.2403464">
<ele>1314.40</ele>
<time>2021-09-02T09:49:52Z</time>
</trkpt>
<trkpt lat="46.5382480" lon="6.2401869">
<ele>1311.94</ele>
<time>2021-09-02T09:49:55Z</time>
</trkpt>
<trkpt lat="46.5380818" lon="6.2400810">
<ele>1308.88</ele>
<time>2021-09-02T09:50:00Z</time>
</trkpt>
<trkpt lat="46.5379279" lon="6.2399344">
<ele>1315.22</ele>
<time>2021-09-02T09:50:12Z</time>
</trkpt>
<trkpt lat="46.5377392" lon="6.2399013">
<ele>1308.18</ele>
<time>2021-09-02T09:50:18Z</time>
</trkpt>
<trkpt lat="46.5375625" lon="6.2399736">
<ele>1305.25</ele>
<time>2021-09-02T09:50:22Z</time>
</trkpt>
<trkpt lat="46.5373849" lon="6.2400778">
<ele>1303.50</ele>
<time>2021-09-02T09:52:38Z</time>
</trkpt>
<trkpt lat="46.5372034" lon="6.2401150">
<ele>1302.27</ele>
<time>2021-09-02T09:52:44Z</time>
</trkpt>
<trkpt lat="46.5370231" lon="6.2400958">
<ele>1301.39</ele>
<time>2021-09-02T09:52:49Z</time>
</trkpt>
<trkpt lat="46.5368380" lon="6.2399962">
<ele>1300.98</ele>
<time>2021-09-02T09:52:54Z</time>
</trkpt>
<trkpt lat="46.5366492" lon="6.2398947">
<ele>1336.79</ele>
<time>2021-09-02T09:52:59Z</time>
</trkpt>
<trkpt lat="46.5364579" lon="6.2397974">
<ele>1307.63</ele>
<time>2021-09-02T09:53:04Z</time>
</trkpt>
<trkpt lat="46.5362864" lon="6.2397017">
<ele>1304.61</ele>
<time>2021-09-02T09:53:09Z</time>
</trkpt>
<trkpt lat="46.5361099" lon="6.2395980">
<ele>1303.11</ele>
<time>2021-09-02T09:53:14Z</time>
</trkpt>
<trkpt lat="46.5359229" lon="6.2395037">
<ele>1302.68</ele>
<time>2021-09-02T09:53:19Z</time>
</trkpt>
<trkpt lat="46.5357453" lon="6.2394162">
<ele>1301.53</ele>
<time>2021-09-02T09:53:24Z</time>
</trkpt>
<trkpt lat="46.5355675" lon="6.2393140">
<ele>1301.21</ele>
<time>2021-09-02T09:53:29Z</time>
</trkpt>
<trkpt lat="46.5353630" lon="6.2392221">
<ele>1300.07</ele>
<time>2021-09-02T09:53:35Z</time>
</trkpt>
<trkpt lat="46.5351535" lon="6.2392461">
<ele>1301.59</ele>
<time>2021-09-02T09:53:41Z</time>
</trkpt>
<trkpt lat="46.5349952" lon="6.2393734">
<ele>1300.16</ele>
<time>2021-09-02T09:53:47Z</time>
</trkpt>
<trkpt lat="46.5351729" lon="6.2392307">
<ele>1298.60</ele>
<time>2021-09-02T09:54:03Z</time>
</trkpt>
<trkpt lat="46.5353612" lon="6.2392280">
<ele>1300.79</ele>
<time>2021-09-02T09:54:13Z</time>
</trkpt>
<trkpt lat="46.5351669" lon="6.2391998">
<ele>1301.88</ele>
<time>2021-09-02T09:54:22Z</time>
</trkpt>
<trkpt lat="46.5351433" lon="6.2389173">
<ele>1300.74</ele>
<time>2021-09-02T09:54:29Z</time>
</trkpt>
<trkpt lat="46.5352498" lon="6.2386642">
<ele>1298.36</ele>
<time>2021-09-02T09:54:48Z</time>
</trkpt>
<trkpt lat="46.5353347" lon="6.2383915">
<ele>1297.20</ele>
<time>2021-09-02T09:54:54Z</time>
</trkpt>
<trkpt lat="46.5354423" lon="6.2381447">
<ele>1294.42</ele>
<time>2021-09-02T09:55:00Z</time>
</trkpt>
<trkpt lat="46.5354634" lon="6.2378164">
<ele>1293.38</ele>
<time>2021-09-02T09:55:03Z</time>
</trkpt>
<trkpt lat="46.5354531" lon="6.2375257">
<ele>1290.76</ele>
<time>2021-09-02T09:55:07Z</time>
</trkpt>
<trkpt lat="46.5355746" lon="6.2373300">
<ele>1288.26</ele>
<time>2021-09-02T09:55:12Z</time>
</trkpt>
<trkpt lat="46.5353943" lon="6.2372521">
<ele>1283.46</ele>
<time>2021-09-02T09:57:11Z</time>
</trkpt>
<trkpt lat="46.5352354" lon="6.2371211">
<ele>1284.09</ele>
<time>2021-09-02T09:57:19Z</time>
</trkpt>
<trkpt lat="46.5350650" lon="6.2369696">
<ele>1288.36</ele>
<time>2021-09-02T09:57:25Z</time>
</trkpt>
<trkpt lat="46.5348975" lon="6.2368631">
<ele>1286.67</ele>
<time>2021-09-02T09:57:32Z</time>
</trkpt>
<trkpt lat="46.5347118" lon="6.2367381">
<ele>1286.34</ele>
<time>2021-09-02T09:57:38Z</time>
</trkpt>
<trkpt lat="46.5345317" lon="6.2366656">
<ele>1284.90</ele>
<time>2021-09-02T09:57:43Z</time>
</trkpt>
<trkpt lat="46.5343304" lon="6.2365856">
<ele>1283.18</ele>
<time>2021-09-02T09:57:49Z</time>
</trkpt>
<trkpt lat="46.5341531" lon="6.2365011">
<ele>1282.40</ele>
<time>2021-09-02T09:57:55Z</time>
</trkpt>
<trkpt lat="46.5339588" lon="6.2364405">
<ele>1282.90</ele>
<time>2021-09-02T09:58:03Z</time>
</trkpt>
<trkpt lat="46.5337895" lon="6.2363334">
<ele>1282.31</ele>
<time>2021-09-02T09:58:10Z</time>
</trkpt>
<trkpt lat="46.5336297" lon="6.2361633">
<ele>1283.15</ele>
<time>2021-09-02T09:58:17Z</time>
</trkpt>
<trkpt lat="46.5334744" lon="6.2360221">
<ele>1283.85</ele>
<time>2021-09-02T09:58:24Z</time>
</trkpt>
<trkpt lat="46.5333201" lon="6.2358631">
<ele>1287.81</ele>
<time>2021-09-02T09:58:39Z</time>
</trkpt>
<trkpt lat="46.5331617" lon="6.2357163">
<ele>1291.92</ele>
<time>2021-09-02T09:58:51Z</time>
</trkpt>
<trkpt lat="46.5329774" lon="6.2355922">
<ele>1294.85</ele>
<time>2021-09-02T09:58:57Z</time>
</trkpt>
<trkpt lat="46.5328008" lon="6.2355117">
<ele>1296.88</ele>
<time>2021-09-02T09:59:02Z</time>
</trkpt>
<trkpt lat="46.5326256" lon="6.2353217">
<ele>1302.27</ele>
<time>2021-09-02T09:59:16Z</time>
</trkpt>
<trkpt lat="46.5324702" lon="6.2351595">
<ele>1299.26</ele>
<time>2021-09-02T09:59:22Z</time>
</trkpt>
<trkpt lat="46.5322986" lon="6.2350505">
<ele>1302.71</ele>
<time>2021-09-02T09:59:31Z</time>
</trkpt>
<trkpt lat="46.5321205" lon="6.2349472">
<ele>1302.57</ele>
<time>2021-09-02T09:59:40Z</time>
</trkpt>
<trkpt lat="46.5319279" lon="6.2348383">
<ele>1301.89</ele>
<time>2021-09-02T09:59:48Z</time>
</trkpt>
<trkpt lat="46.5317562" lon="6.2347332">
<ele>1301.39</ele>
<time>2021-09-02T10:00:00Z</time>
</trkpt>
<trkpt lat="46.5315766" lon="6.2346207">
<ele>1300.55</ele>
<time>2021-09-02T10:00:11Z</time>
</trkpt>
<trkpt lat="46.5313136" lon="6.2342686">
<ele>1300.50</ele>
<time>2021-09-02T10:00:15Z</time>
</trkpt>
<trkpt lat="46.5311870" lon="6.2340813">
<ele>1299.68</ele>
<time>2021-09-02T10:00:21Z</time>
</trkpt>
<trkpt lat="46.5310491" lon="6.2339067">
<ele>1299.78</ele>
<time>2021-09-02T10:00:27Z</time>
</trkpt>
<trkpt lat="46.5309007" lon="6.2337148">
<ele>1301.72</ele>
<time>2021-09-02T10:00:35Z</time>
</trkpt>
<trkpt lat="46.5307589" lon="6.2335210">
<ele>1299.98</ele>
<time>2021-09-02T10:00:41Z</time>
</trkpt>
<trkpt lat="46.5306483" lon="6.2332858">
<ele>1343.17</ele>
<time>2021-09-02T10:01:01Z</time>
</trkpt>
<trkpt lat="46.5304528" lon="6.2332778">
<ele>1305.45</ele>
<time>2021-09-02T10:03:24Z</time>
</trkpt>
<trkpt lat="46.5302843" lon="6.2330767">
<ele>1303.35</ele>
<time>2021-09-02T10:03:33Z</time>
</trkpt>
<trkpt lat="46.5301398" lon="6.2328768">
<ele>1302.00</ele>
<time>2021-09-02T10:03:37Z</time>
</trkpt>
<trkpt lat="46.5300091" lon="6.2326891">
<ele>1304.32</ele>
<time>2021-09-02T10:03:48Z</time>
</trkpt>
<trkpt lat="46.5298858" lon="6.2324895">
<ele>1305.87</ele>
<time>2021-09-02T10:04:04Z</time>
</trkpt>
<trkpt lat="46.5297613" lon="6.2322887">
<ele>1336.59</ele>
<time>2021-09-02T10:05:15Z</time>
</trkpt>
<trkpt lat="46.5295827" lon="6.2321876">
<ele>1322.81</ele>
<time>2021-09-02T10:05:27Z</time>
</trkpt>
<trkpt lat="46.5294244" lon="6.2320558">
<ele>1322.31</ele>
<time>2021-09-02T10:05:48Z</time>
</trkpt>
<trkpt lat="46.5293089" lon="6.2318529">
<ele>1331.52</ele>
<time>2021-09-02T10:06:36Z</time>
</trkpt>
<trkpt lat="46.5292560" lon="6.2315854">
<ele>1333.26</ele>
<time>2021-09-02T10:07:40Z</time>
</trkpt>
<trkpt lat="46.5291087" lon="6.2314274">
<ele>1335.35</ele>
<time>2021-09-02T10:07:56Z</time>
</trkpt>
<trkpt lat="46.5289883" lon="6.2312102">
<ele>1336.37</ele>
<time>2021-09-02T10:08:02Z</time>
</trkpt>
<trkpt lat="46.5288207" lon="6.2310619">
<ele>1337.38</ele>
<time>2021-09-02T10:08:11Z</time>
</trkpt>
<trkpt lat="46.5286330" lon="6.2310158">
<ele>1337.36</ele>
<time>2021-09-02T10:08:20Z</time>
</trkpt>
<trkpt lat="46.5284358" lon="6.2310116">
<ele>1337.93</ele>
<time>2021-09-02T10:08:30Z</time>
</trkpt>
<trkpt lat="46.5282600" lon="6.2309405">
<ele>1337.47</ele>
<time>2021-09-02T10:08:41Z</time>
</trkpt>
<trkpt lat="46.5280822" lon="6.2308636">
<ele>1340.22</ele>
<time>2021-09-02T10:08:51Z</time>
</trkpt>
<trkpt lat="46.5279117" lon="6.2307332">
<ele>1339.16</ele>
<time>2021-09-02T10:09:01Z</time>
</trkpt>
<trkpt lat="46.5277492" lon="6.2306199">
<ele>1340.07</ele>
<time>2021-09-02T10:09:13Z</time>
</trkpt>
<trkpt lat="46.5275784" lon="6.2305032">
<ele>1341.69</ele>
<time>2021-09-02T10:09:28Z</time>
</trkpt>
<trkpt lat="46.5274294" lon="6.2303439">
<ele>1342.17</ele>
<time>2021-09-02T10:09:36Z</time>
</trkpt>
<trkpt lat="46.5272793" lon="6.2301922">
<ele>1343.12</ele>
<time>2021-09-02T10:09:43Z</time>
</trkpt>
<trkpt lat="46.5270881" lon="6.2301400">
<ele>1344.18</ele>
<time>2021-09-02T10:09:55Z</time>
</trkpt>
<trkpt lat="46.5269163" lon="6.2300348">
<ele>1343.08</ele>
<time>2021-09-02T10:10:06Z</time>
</trkpt>
<trkpt lat="46.5267682" lon="6.2298775">
<ele>1348.82</ele>
<time>2021-09-02T10:10:20Z</time>
</trkpt>
<trkpt lat="46.5266044" lon="6.2297241">
<ele>1349.93</ele>
<time>2021-09-02T10:10:28Z</time>
</trkpt>
<trkpt lat="46.5263853" lon="6.2295597">
<ele>1349.12</ele>
<time>2021-09-02T10:10:30Z</time>
</trkpt>
<trkpt lat="46.5262383" lon="6.2293651">
<ele>1347.31</ele>
<time>2021-09-02T10:10:34Z</time>
</trkpt>
<trkpt lat="46.5260793" lon="6.2291995">
<ele>1343.73</ele>
<time>2021-09-02T10:10:40Z</time>
</trkpt>
<trkpt lat="46.5258905" lon="6.2291009">
<ele>1343.65</ele>
<time>2021-09-02T10:10:50Z</time>
</trkpt>
<trkpt lat="46.5257028" lon="6.2290084">
<ele>1346.24</ele>
<time>2021-09-02T10:10:58Z</time>
</trkpt>
<trkpt lat="46.5255418" lon="6.2288754">
<ele>1345.46</ele>
<time>2021-09-02T10:11:06Z</time>
</trkpt>
<trkpt lat="46.5253788" lon="6.2287335">
<ele>1349.45</ele>
<time>2021-09-02T10:11:17Z</time>
</trkpt>
<trkpt lat="46.5251890" lon="6.2287080">
<ele>1352.06</ele>
<time>2021-09-02T10:11:26Z</time>
</trkpt>
<trkpt lat="46.5250089" lon="6.2285829">
<ele>1349.28</ele>
<time>2021-09-02T10:11:36Z</time>
</trkpt>
<trkpt lat="46.5248253" lon="6.2285299">
<ele>1349.92</ele>
<time>2021-09-02T10:11:43Z</time>
</trkpt>
<trkpt lat="46.5246460" lon="6.2284286">
<ele>1356.76</ele>
<time>2021-09-02T10:11:54Z</time>
</trkpt>
<trkpt lat="46.5244621" lon="6.2284068">
<ele>1353.16</ele>
<time>2021-09-02T10:12:14Z</time>
</trkpt>
<trkpt lat="46.5242916" lon="6.2283122">
<ele>1374.86</ele>
<time>2021-09-02T10:13:26Z</time>
</trkpt>
<trkpt lat="46.5241104" lon="6.2283566">
<ele>1366.72</ele>
<time>2021-09-02T10:13:38Z</time>
</trkpt>
<trkpt lat="46.5239222" lon="6.2283534">
<ele>1364.91</ele>
<time>2021-09-02T10:13:50Z</time>
</trkpt>
<trkpt lat="46.5237045" lon="6.2284054">
<ele>1367.02</ele>
<time>2021-09-02T10:14:03Z</time>
</trkpt>
<trkpt lat="46.5235260" lon="6.2284792">
<ele>1368.75</ele>
<time>2021-09-02T10:14:14Z</time>
</trkpt>
<trkpt lat="46.5233424" lon="6.2285457">
<ele>1369.32</ele>
<time>2021-09-02T10:14:26Z</time>
</trkpt>
<trkpt lat="46.5231563" lon="6.2285254">
<ele>1368.71</ele>
<time>2021-09-02T10:14:37Z</time>
</trkpt>
<trkpt lat="46.5229686" lon="6.2284929">
<ele>1369.27</ele>
<time>2021-09-02T10:14:47Z</time>
</trkpt>
<trkpt lat="46.5227884" lon="6.2284828">
<ele>1375.23</ele>
<time>2021-09-02T10:14:56Z</time>
</trkpt>
<trkpt lat="46.5228274" lon="6.2282236">
<ele>1375.82</ele>
<time>2021-09-02T10:15:13Z</time>
</trkpt>
<trkpt lat="46.5229288" lon="6.2279900">
<ele>1376.22</ele>
<time>2021-09-02T10:15:24Z</time>
</trkpt>
<trkpt lat="46.5230308" lon="6.2277677">
<ele>1376.82</ele>
<time>2021-09-02T10:15:35Z</time>
</trkpt>
<trkpt lat="46.5229717" lon="6.2275078">
<ele>1379.52</ele>
<time>2021-09-02T10:15:47Z</time>
</trkpt>
<trkpt lat="46.5228224" lon="6.2273441">
<ele>1380.62</ele>
<time>2021-09-02T10:15:56Z</time>
</trkpt>
<trkpt lat="46.5226583" lon="6.2272128">
<ele>1381.15</ele>
<time>2021-09-02T10:16:03Z</time>
</trkpt>
<trkpt lat="46.5224833" lon="6.2270582">
<ele>1383.90</ele>
<time>2021-09-02T10:16:10Z</time>
</trkpt>
<trkpt lat="46.5223270" lon="6.2269226">
<ele>1381.02</ele>
<time>2021-09-02T10:16:16Z</time>
</trkpt>
<trkpt lat="46.5221742" lon="6.2267642">
<ele>1381.26</ele>
<time>2021-09-02T10:16:22Z</time>
</trkpt>
<trkpt lat="46.5220704" lon="6.2265372">
<ele>1382.81</ele>
<time>2021-09-02T10:16:28Z</time>
</trkpt>
<trkpt lat="46.5220032" lon="6.2262636">
<ele>1384.32</ele>
<time>2021-09-02T10:16:35Z</time>
</trkpt>
<trkpt lat="46.5219816" lon="6.2259913">
<ele>1386.27</ele>
<time>2021-09-02T10:16:43Z</time>
</trkpt>
<trkpt lat="46.5220649" lon="6.2257592">
<ele>1387.08</ele>
<time>2021-09-02T10:16:50Z</time>
</trkpt>
<trkpt lat="46.5222156" lon="6.2255670">
<ele>1387.87</ele>
<time>2021-09-02T10:16:58Z</time>
</trkpt>
<trkpt lat="46.5224038" lon="6.2255854">
<ele>1389.30</ele>
<time>2021-09-02T10:17:09Z</time>
</trkpt>
<trkpt lat="46.5225865" lon="6.2256668">
<ele>1393.22</ele>
<time>2021-09-02T10:17:21Z</time>
</trkpt>
<trkpt lat="46.5227628" lon="6.2257495">
<ele>1389.17</ele>
<time>2021-09-02T10:17:33Z</time>
</trkpt>
<trkpt lat="46.5229248" lon="6.2258653">
<ele>1390.85</ele>
<time>2021-09-02T10:17:44Z</time>
</trkpt>
<trkpt lat="46.5231110" lon="6.2259047">
<ele>1390.97</ele>
<time>2021-09-02T10:17:56Z</time>
</trkpt>
<trkpt lat="46.5232748" lon="6.2257793">
<ele>1406.92</ele>
<time>2021-09-02T10:18:09Z</time>
</trkpt>
<trkpt lat="46.5234576" lon="6.2256849">
<ele>1404.78</ele>
<time>2021-09-02T10:18:20Z</time>
</trkpt>
<trkpt lat="46.5236492" lon="6.2256996">
<ele>1409.51</ele>
<time>2021-09-02T10:18:35Z</time>
</trkpt>
<trkpt lat="46.5238474" lon="6.2257307">
<ele>1406.76</ele>
<time>2021-09-02T10:18:47Z</time>
</trkpt>
<trkpt lat="46.5240334" lon="6.2257506">
<ele>1412.25</ele>
<time>2021-09-02T10:18:58Z</time>
</trkpt>
<trkpt lat="46.5242147" lon="6.2258496">
<ele>1410.81</ele>
<time>2021-09-02T10:19:11Z</time>
</trkpt>
<trkpt lat="46.5244105" lon="6.2258444">
<ele>1408.35</ele>
<time>2021-09-02T10:19:22Z</time>
</trkpt>
<trkpt lat="46.5245999" lon="6.2258156">
<ele>1415.94</ele>
<time>2021-09-02T10:19:33Z</time>
</trkpt>
<trkpt lat="46.5247786" lon="6.2257385">
<ele>1419.38</ele>
<time>2021-09-02T10:19:44Z</time>
</trkpt>
<trkpt lat="46.5249284" lon="6.2255680">
<ele>1419.91</ele>
<time>2021-09-02T10:19:55Z</time>
</trkpt>
<trkpt lat="46.5250667" lon="6.2253758">
<ele>1420.93</ele>
<time>2021-09-02T10:20:08Z</time>
</trkpt>
<trkpt lat="46.5250933" lon="6.2251125">
<ele>1423.39</ele>
<time>2021-09-02T10:20:19Z</time>
</trkpt>
<trkpt lat="46.5249994" lon="6.2248766">
<ele>1426.97</ele>
<time>2021-09-02T10:20:31Z</time>
</trkpt>
<trkpt lat="46.5248813" lon="6.2246790">
<ele>1428.55</ele>
<time>2021-09-02T10:20:41Z</time>
</trkpt>
<trkpt lat="46.5247754" lon="6.2244532">
<ele>1430.66</ele>
<time>2021-09-02T10:20:51Z</time>
</trkpt>
<trkpt lat="46.5246691" lon="6.2242211">
<ele>1423.81</ele>
<time>2021-09-02T10:21:01Z</time>
</trkpt>
<trkpt lat="46.5245531" lon="6.2239867">
<ele>1417.29</ele>
<time>2021-09-02T10:21:11Z</time>
</trkpt>
<trkpt lat="46.5244966" lon="6.2237221">
<ele>1425.07</ele>
<time>2021-09-02T10:21:22Z</time>
</trkpt>
<trkpt lat="46.5245736" lon="6.2234705">
<ele>1418.94</ele>
<time>2021-09-02T10:22:43Z</time>
</trkpt>
<trkpt lat="46.5246869" lon="6.2232441">
<ele>1418.85</ele>
<time>2021-09-02T10:22:55Z</time>
</trkpt>
<trkpt lat="46.5247855" lon="6.2230187">
<ele>1419.55</ele>
<time>2021-09-02T10:23:03Z</time>
</trkpt>
<trkpt lat="46.5249493" lon="6.2228445">
<ele>1420.51</ele>
<time>2021-09-02T10:23:09Z</time>
</trkpt>
<trkpt lat="46.5251223" lon="6.2227001">
<ele>1421.34</ele>
<time>2021-09-02T10:23:14Z</time>
</trkpt>
<trkpt lat="46.5252670" lon="6.2224968">
<ele>1419.70</ele>
<time>2021-09-02T10:23:18Z</time>
</trkpt>
<trkpt lat="46.5254032" lon="6.2222717">
<ele>1413.66</ele>
<time>2021-09-02T10:23:22Z</time>
</trkpt>
<trkpt lat="46.5254685" lon="6.2219690">
<ele>1407.77</ele>
<time>2021-09-02T10:23:26Z</time>
</trkpt>
<trkpt lat="46.5255402" lon="6.2216565">
<ele>1411.05</ele>
<time>2021-09-02T10:23:30Z</time>
</trkpt>
<trkpt lat="46.5256297" lon="6.2214100">
<ele>1418.30</ele>
<time>2021-09-02T10:23:35Z</time>
</trkpt>
<trkpt lat="46.5257394" lon="6.2211934">
<ele>1417.29</ele>
<time>2021-09-02T10:23:41Z</time>
</trkpt>
<trkpt lat="46.5258534" lon="6.2209541">
<ele>1416.19</ele>
<time>2021-09-02T10:23:46Z</time>
</trkpt>
<trkpt lat="46.5259248" lon="6.2207057">
<ele>1415.32</ele>
<time>2021-09-02T10:23:50Z</time>
</trkpt>
<trkpt lat="46.5260069" lon="6.2204352">
<ele>1417.11</ele>
<time>2021-09-02T10:23:55Z</time>
</trkpt>
<trkpt lat="46.5259361" lon="6.2201814">
<ele>1416.92</ele>
<time>2021-09-02T10:24:03Z</time>
</trkpt>
<trkpt lat="46.5257979" lon="6.2199988">
<ele>1419.71</ele>
<time>2021-09-02T10:24:20Z</time>
</trkpt>
<trkpt lat="46.5256646" lon="6.2198078">
<ele>1422.26</ele>
<time>2021-09-02T10:24:29Z</time>
</trkpt>
<trkpt lat="46.5255153" lon="6.2196122">
<ele>1421.68</ele>
<time>2021-09-02T10:24:36Z</time>
</trkpt>
<trkpt lat="46.5253600" lon="6.2194137">
<ele>1420.57</ele>
<time>2021-09-02T10:24:42Z</time>
</trkpt>
<trkpt lat="46.5252316" lon="6.2191834">
<ele>1421.75</ele>
<time>2021-09-02T10:24:48Z</time>
</trkpt>
<trkpt lat="46.5252849" lon="6.2189204">
<ele>1419.73</ele>
<time>2021-09-02T10:24:57Z</time>
</trkpt>
<trkpt lat="46.5254026" lon="6.2186815">
<ele>1418.58</ele>
<time>2021-09-02T10:25:04Z</time>
</trkpt>
<trkpt lat="46.5252947" lon="6.2189089">
<ele>1449.20</ele>
<time>2021-09-02T10:25:29Z</time>
</trkpt>
<trkpt lat="46.5252404" lon="6.2191663">
<ele>1451.19</ele>
<time>2021-09-02T10:25:38Z</time>
</trkpt>
<trkpt lat="46.5253579" lon="6.2193863">
<ele>1450.83</ele>
<time>2021-09-02T10:25:48Z</time>
</trkpt>
<trkpt lat="46.5251705" lon="6.2193863">
<ele>1455.92</ele>
<time>2021-09-02T10:27:04Z</time>
</trkpt>
<trkpt lat="46.5250388" lon="6.2195654">
<ele>1461.44</ele>
<time>2021-09-02T10:27:22Z</time>
</trkpt>
<trkpt lat="46.5250038" lon="6.2198322">
<ele>1461.57</ele>
<time>2021-09-02T10:28:36Z</time>
</trkpt>
<trkpt lat="46.5249323" lon="6.2201371">
<ele>1460.79</ele>
<time>2021-09-02T10:28:42Z</time>
</trkpt>
<trkpt lat="46.5248015" lon="6.2203496">
<ele>1463.14</ele>
<time>2021-09-02T10:28:50Z</time>
</trkpt>
<trkpt lat="46.5247212" lon="6.2206067">
<ele>1465.39</ele>
<time>2021-09-02T10:29:00Z</time>
</trkpt>
<trkpt lat="46.5245579" lon="6.2207346">
<ele>1470.23</ele>
<time>2021-09-02T10:29:12Z</time>
</trkpt>
<trkpt lat="46.5244575" lon="6.2209678">
<ele>1476.02</ele>
<time>2021-09-02T10:29:23Z</time>
</trkpt>
<trkpt lat="46.5244024" lon="6.2212371">
<ele>1454.97</ele>
<time>2021-09-02T10:29:35Z</time>
</trkpt>
<trkpt lat="46.5242606" lon="6.2214114">
<ele>1457.74</ele>
<time>2021-09-02T10:29:50Z</time>
</trkpt>
<trkpt lat="46.5241367" lon="6.2216024">
<ele>1458.51</ele>
<time>2021-09-02T10:30:01Z</time>
</trkpt>
<trkpt lat="46.5240351" lon="6.2218338">
<ele>1442.68</ele>
<time>2021-09-02T10:31:01Z</time>
</trkpt>
<trkpt lat="46.5238775" lon="6.2219941">
<ele>1442.78</ele>
<time>2021-09-02T10:31:09Z</time>
</trkpt>
<trkpt lat="46.5237037" lon="6.2219262">
<ele>1444.48</ele>
<time>2021-09-02T10:31:34Z</time>
</trkpt>
<trkpt lat="46.5235255" lon="6.2219854">
<ele>1446.99</ele>
<time>2021-09-02T10:31:46Z</time>
</trkpt>
<trkpt lat="46.5233339" lon="6.2219258">
<ele>1449.90</ele>
<time>2021-09-02T10:32:00Z</time>
</trkpt>
<trkpt lat="46.5231638" lon="6.2218373">
<ele>1494.02</ele>
<time>2021-09-02T10:35:51Z</time>
</trkpt>
<trkpt lat="46.5231845" lon="6.2215560">
<ele>1490.77</ele>
<time>2021-09-02T10:39:44Z</time>
</trkpt>
<trkpt lat="46.5231137" lon="6.2212739">
<ele>1488.33</ele>
<time>2021-09-02T10:39:51Z</time>
</trkpt>
<trkpt lat="46.5229398" lon="6.2211086">
<ele>1488.74</ele>
<time>2021-09-02T10:39:58Z</time>
</trkpt>
<trkpt lat="46.5227986" lon="6.2209382">
<ele>1488.43</ele>
<time>2021-09-02T10:40:05Z</time>
</trkpt>
<trkpt lat="46.5227042" lon="6.2206938">
<ele>1484.13</ele>
<time>2021-09-02T10:40:13Z</time>
</trkpt>
<trkpt lat="46.5226395" lon="6.2204396">
<ele>1442.41</ele>
<time>2021-09-02T10:40:30Z</time>
</trkpt>
<trkpt lat="46.5224665" lon="6.2205139">
<ele>1443.24</ele>
<time>2021-09-02T10:40:55Z</time>
</trkpt>
<trkpt lat="46.5222539" lon="6.2205728">
<ele>1442.85</ele>
<time>2021-09-02T10:41:00Z</time>
</trkpt>
<trkpt lat="46.5220803" lon="6.2204612">
<ele>1441.41</ele>
<time>2021-09-02T10:41:06Z</time>
</trkpt>
<trkpt lat="46.5219469" lon="6.2202648">
<ele>1440.45</ele>
<time>2021-09-02T10:41:12Z</time>
</trkpt>
<trkpt lat="46.5218014" lon="6.2200597">
<ele>1438.97</ele>
<time>2021-09-02T10:41:18Z</time>
</trkpt>
<trkpt lat="46.5216423" lon="6.2199304">
<ele>1473.11</ele>
<time>2021-09-02T10:41:22Z</time>
</trkpt>
<trkpt lat="46.5214788" lon="6.2197915">
<ele>1438.39</ele>
<time>2021-09-02T10:41:27Z</time>
</trkpt>
<trkpt lat="46.5213199" lon="6.2196589">
<ele>1465.00</ele>
<time>2021-09-02T10:41:32Z</time>
</trkpt>
<trkpt lat="46.5211502" lon="6.2195568">
<ele>1437.17</ele>
<time>2021-09-02T10:41:40Z</time>
</trkpt>
<trkpt lat="46.5209817" lon="6.2194438">
<ele>1436.90</ele>
<time>2021-09-02T10:41:48Z</time>
</trkpt>
<trkpt lat="46.5208064" lon="6.2193169">
<ele>1439.37</ele>
<time>2021-09-02T10:41:57Z</time>
</trkpt>
<trkpt lat="46.5206220" lon="6.2192614">
<ele>1441.60</ele>
<time>2021-09-02T10:42:07Z</time>
</trkpt>
<trkpt lat="46.5204460" lon="6.2191789">
<ele>1442.44</ele>
<time>2021-09-02T10:42:17Z</time>
</trkpt>
<trkpt lat="46.5202809" lon="6.2190742">
<ele>1485.29</ele>
<time>2021-09-02T10:44:02Z</time>
</trkpt>
<trkpt lat="46.5201233" lon="6.2189167">
<ele>1485.42</ele>
<time>2021-09-02T10:44:14Z</time>
</trkpt>
<trkpt lat="46.5200004" lon="6.2186689">
<ele>1482.25</ele>
<time>2021-09-02T10:44:20Z</time>
</trkpt>
<trkpt lat="46.5199197" lon="6.2184222">
<ele>1479.19</ele>
<time>2021-09-02T10:44:25Z</time>
</trkpt>
<trkpt lat="46.5200025" lon="6.2181728">
<ele>1477.33</ele>
<time>2021-09-02T10:44:48Z</time>
</trkpt>
<trkpt lat="46.5199821" lon="6.2178743">
<ele>1470.64</ele>
<time>2021-09-02T10:44:56Z</time>
</trkpt>
<trkpt lat="46.5199583" lon="6.2175845">
<ele>1466.10</ele>
<time>2021-09-02T10:45:00Z</time>
</trkpt>
<trkpt lat="46.5198809" lon="6.2173243">
<ele>1463.47</ele>
<time>2021-09-02T10:45:03Z</time>
</trkpt>
<trkpt lat="46.5197841" lon="6.2170921">
<ele>1459.01</ele>
<time>2021-09-02T10:45:06Z</time>
</trkpt>
<trkpt lat="46.5196457" lon="6.2168307">
<ele>1455.20</ele>
<time>2021-09-02T10:45:09Z</time>
</trkpt>
<trkpt lat="46.5195189" lon="6.2166221">
<ele>1451.30</ele>
<time>2021-09-02T10:45:21Z</time>
</trkpt>
<trkpt lat="46.5193925" lon="6.2164322">
<ele>1449.15</ele>
<time>2021-09-02T10:45:26Z</time>
</trkpt>
<trkpt lat="46.5192590" lon="6.2162203">
<ele>1445.90</ele>
<time>2021-09-02T10:45:30Z</time>
</trkpt>
<trkpt lat="46.5191420" lon="6.2160151">
<ele>1443.17</ele>
<time>2021-09-02T10:45:35Z</time>
</trkpt>
<trkpt lat="46.5190260" lon="6.2158109">
<ele>1443.46</ele>
<time>2021-09-02T10:45:45Z</time>
</trkpt>
<trkpt lat="46.5188976" lon="6.2155178">
<ele>1442.34</ele>
<time>2021-09-02T10:45:50Z</time>
</trkpt>
<trkpt lat="46.5187792" lon="6.2152818">
<ele>1440.62</ele>
<time>2021-09-02T10:45:53Z</time>
</trkpt>
<trkpt lat="46.5186331" lon="6.2150678">
<ele>1437.72</ele>
<time>2021-09-02T10:45:57Z</time>
</trkpt>
<trkpt lat="46.5184923" lon="6.2148830">
<ele>1432.53</ele>
<time>2021-09-02T10:46:03Z</time>
</trkpt>
<trkpt lat="46.5183321" lon="6.2147501">
<ele>1431.67</ele>
<time>2021-09-02T10:46:42Z</time>
</trkpt>
<trkpt lat="46.5181998" lon="6.2145309">
<ele>1431.77</ele>
<time>2021-09-02T10:46:51Z</time>
</trkpt>
<trkpt lat="46.5180824" lon="6.2143202">
<ele>1431.66</ele>
<time>2021-09-02T10:46:59Z</time>
</trkpt>
<trkpt lat="46.5179144" lon="6.2141928">
<ele>1430.80</ele>
<time>2021-09-02T10:47:06Z</time>
</trkpt>
<trkpt lat="46.5177299" lon="6.2140831">
<ele>1429.40</ele>
<time>2021-09-02T10:47:13Z</time>
</trkpt>
<trkpt lat="46.5175473" lon="6.2139647">
<ele>1426.67</ele>
<time>2021-09-02T10:47:51Z</time>
</trkpt>
<trkpt lat="46.5173698" lon="6.2138445">
<ele>1427.39</ele>
<time>2021-09-02T10:47:57Z</time>
</trkpt>
<trkpt lat="46.5171824" lon="6.2137625">
<ele>1425.71</ele>
<time>2021-09-02T10:48:03Z</time>
</trkpt>
<trkpt lat="46.5169872" lon="6.2136800">
<ele>1427.22</ele>
<time>2021-09-02T10:48:10Z</time>
</trkpt>
<trkpt lat="46.5167930" lon="6.2136278">
<ele>1428.56</ele>
<time>2021-09-02T10:48:17Z</time>
</trkpt>
<trkpt lat="46.5166095" lon="6.2135209">
<ele>1428.97</ele>
<time>2021-09-02T10:48:25Z</time>
</trkpt>
<trkpt lat="46.5164312" lon="6.2134327">
<ele>1429.80</ele>
<time>2021-09-02T10:48:34Z</time>
</trkpt>
<trkpt lat="46.5162467" lon="6.2133830">
<ele>1430.32</ele>
<time>2021-09-02T10:48:43Z</time>
</trkpt>
<trkpt lat="46.5160899" lon="6.2132452">
<ele>1430.43</ele>
<time>2021-09-02T10:48:53Z</time>
</trkpt>
<trkpt lat="46.5159157" lon="6.2131538">
<ele>1433.92</ele>
<time>2021-09-02T10:49:42Z</time>
</trkpt>
<trkpt lat="46.5157208" lon="6.2130997">
<ele>1436.68</ele>
<time>2021-09-02T10:49:57Z</time>
</trkpt>
<trkpt lat="46.5155473" lon="6.2130016">
<ele>1434.79</ele>
<time>2021-09-02T10:50:06Z</time>
</trkpt>
<trkpt lat="46.5153757" lon="6.2128456">
<ele>1433.79</ele>
<time>2021-09-02T10:50:15Z</time>
</trkpt>
<trkpt lat="46.5152663" lon="6.2126173">
<ele>1431.35</ele>
<time>2021-09-02T10:50:21Z</time>
</trkpt>
<trkpt lat="46.5151493" lon="6.2123800">
<ele>1429.12</ele>
<time>2021-09-02T10:50:26Z</time>
</trkpt>
<trkpt lat="46.5150329" lon="6.2121521">
<ele>1423.20</ele>
<time>2021-09-02T10:50:34Z</time>
</trkpt>
<trkpt lat="46.5147957" lon="6.2118234">
<ele>1422.00</ele>
<time>2021-09-02T10:50:36Z</time>
</trkpt>
<trkpt lat="46.5146406" lon="6.2115872">
<ele>1418.10</ele>
<time>2021-09-02T10:50:40Z</time>
</trkpt>
<trkpt lat="46.5144675" lon="6.2114073">
<ele>1416.04</ele>
<time>2021-09-02T10:50:43Z</time>
</trkpt>
<trkpt lat="46.5143040" lon="6.2112379">
<ele>1413.49</ele>
<time>2021-09-02T10:50:46Z</time>
</trkpt>
<trkpt lat="46.5141375" lon="6.2110937">
<ele>1423.89</ele>
<time>2021-09-02T10:52:42Z</time>
</trkpt>
<trkpt lat="46.5139492" lon="6.2110176">
<ele>1423.33</ele>
<time>2021-09-02T10:52:49Z</time>
</trkpt>
<trkpt lat="46.5137531" lon="6.2109333">
<ele>1422.46</ele>
<time>2021-09-02T10:52:57Z</time>
</trkpt>
<trkpt lat="46.5135825" lon="6.2108137">
<ele>1424.92</ele>
<time>2021-09-02T10:53:13Z</time>
</trkpt>
<trkpt lat="46.5134009" lon="6.2106937">
<ele>1423.77</ele>
<time>2021-09-02T10:53:20Z</time>
</trkpt>
<trkpt lat="46.5132192" lon="6.2105142">
<ele>1423.20</ele>
<time>2021-09-02T10:53:25Z</time>
</trkpt>
<trkpt lat="46.5130501" lon="6.2103385">
<ele>1420.85</ele>
<time>2021-09-02T10:53:29Z</time>
</trkpt>
<trkpt lat="46.5128797" lon="6.2101588">
<ele>1418.97</ele>
<time>2021-09-02T10:53:33Z</time>
</trkpt>
<trkpt lat="46.5127440" lon="6.2099832">
<ele>1418.29</ele>
<time>2021-09-02T10:53:37Z</time>
</trkpt>
<trkpt lat="46.5125620" lon="6.2098466">
<ele>1416.62</ele>
<time>2021-09-02T10:53:43Z</time>
</trkpt>
<trkpt lat="46.5123830" lon="6.2097128">
<ele>1416.14</ele>
<time>2021-09-02T10:53:50Z</time>
</trkpt>
<trkpt lat="46.5122132" lon="6.2095930">
<ele>1416.89</ele>
<time>2021-09-02T10:54:00Z</time>
</trkpt>
<trkpt lat="46.5120264" lon="6.2095999">
<ele>1419.38</ele>
<time>2021-09-02T10:54:12Z</time>
</trkpt>
<trkpt lat="46.5118346" lon="6.2095868">
<ele>1414.31</ele>
<time>2021-09-02T10:54:24Z</time>
</trkpt>
<trkpt lat="46.5116497" lon="6.2094965">
<ele>1414.71</ele>
<time>2021-09-02T10:54:35Z</time>
</trkpt>
<trkpt lat="46.5115807" lon="6.2092539">
<ele>1415.05</ele>
<time>2021-09-02T10:54:46Z</time>
</trkpt>
<trkpt lat="46.5114112" lon="6.2091356">
<ele>1417.25</ele>
<time>2021-09-02T10:54:59Z</time>
</trkpt>
<trkpt lat="46.5112310" lon="6.2090512">
<ele>1415.05</ele>
<time>2021-09-02T10:55:12Z</time>
</trkpt>
<trkpt lat="46.5111995" lon="6.2087924">
<ele>1420.31</ele>
<time>2021-09-02T10:55:25Z</time>
</trkpt>
<trkpt lat="46.5111328" lon="6.2085444">
<ele>1419.97</ele>
<time>2021-09-02T11:00:48Z</time>
</trkpt>
<trkpt lat="46.5112537" lon="6.2083437">
<ele>1417.68</ele>
<time>2021-09-02T11:01:24Z</time>
</trkpt>
<trkpt lat="46.5111678" lon="6.2080766">
<ele>1413.39</ele>
<time>2021-09-02T11:01:33Z</time>
</trkpt>
<trkpt lat="46.5110557" lon="6.2078565">
<ele>1411.94</ele>
<time>2021-09-02T11:01:44Z</time>
</trkpt>
<trkpt lat="46.5109720" lon="6.2076196">
<ele>1408.41</ele>
<time>2021-09-02T11:01:52Z</time>
</trkpt>
<trkpt lat="46.5108549" lon="6.2074044">
<ele>1406.63</ele>
<time>2021-09-02T11:01:59Z</time>
</trkpt>
<trkpt lat="46.5107661" lon="6.2071680">
<ele>1405.71</ele>
<time>2021-09-02T11:02:07Z</time>
</trkpt>
<trkpt lat="46.5107604" lon="6.2069010">
<ele>1403.35</ele>
<time>2021-09-02T11:02:41Z</time>
</trkpt>
<trkpt lat="46.5106797" lon="6.2066208">
<ele>1397.78</ele>
<time>2021-09-02T11:02:48Z</time>
</trkpt>
<trkpt lat="46.5105801" lon="6.2063258">
<ele>1393.65</ele>
<time>2021-09-02T11:02:53Z</time>
</trkpt>
<trkpt lat="46.5104450" lon="6.2060565">
<ele>1391.59</ele>
<time>2021-09-02T11:02:57Z</time>
</trkpt>
<trkpt lat="46.5102793" lon="6.2058764">
<ele>1389.52</ele>
<time>2021-09-02T11:03:01Z</time>
</trkpt>
<trkpt lat="46.5102668" lon="6.2055798">
<ele>1385.16</ele>
<time>2021-09-02T11:03:05Z</time>
</trkpt>
<trkpt lat="46.5102824" lon="6.2052715">
<ele>1381.55</ele>
<time>2021-09-02T11:03:10Z</time>
</trkpt>
<trkpt lat="46.5101671" lon="6.2050552">
<ele>1381.32</ele>
<time>2021-09-02T11:03:20Z</time>
</trkpt>
<trkpt lat="46.5099720" lon="6.2049953">
<ele>1381.02</ele>
<time>2021-09-02T11:03:27Z</time>
</trkpt>
<trkpt lat="46.5098855" lon="6.2047390">
<ele>1383.47</ele>
<time>2021-09-02T11:03:34Z</time>
</trkpt>
<trkpt lat="46.5097639" lon="6.2045410">
<ele>1381.21</ele>
<time>2021-09-02T11:03:42Z</time>
</trkpt>
<trkpt lat="46.5095802" lon="6.2045126">
<ele>1384.15</ele>
<time>2021-09-02T11:03:50Z</time>
</trkpt>
<trkpt lat="46.5094121" lon="6.2046104">
<ele>1384.62</ele>
<time>2021-09-02T11:03:57Z</time>
</trkpt>
<trkpt lat="46.5092296" lon="6.2046297">
<ele>1384.41</ele>
<time>2021-09-02T11:04:04Z</time>
</trkpt>
<trkpt lat="46.5090404" lon="6.2046521">
<ele>1384.79</ele>
<time>2021-09-02T11:04:11Z</time>
</trkpt>
<trkpt lat="46.5088562" lon="6.2046813">
<ele>1385.64</ele>
<time>2021-09-02T11:04:17Z</time>
</trkpt>
<trkpt lat="46.5086657" lon="6.2046992">
<ele>1385.24</ele>
<time>2021-09-02T11:04:23Z</time>
</trkpt>
<trkpt lat="46.5084448" lon="6.2046769">
<ele>1383.61</ele>
<time>2021-09-02T11:04:28Z</time>
</trkpt>
<trkpt lat="46.5082616" lon="6.2044943">
<ele>1382.42</ele>
<time>2021-09-02T11:04:32Z</time>
</trkpt>
<trkpt lat="46.5080424" lon="6.2043904">
<ele>1380.89</ele>
<time>2021-09-02T11:04:36Z</time>
</trkpt>
<trkpt lat="46.5078541" lon="6.2043563">
<ele>1379.67</ele>
<time>2021-09-02T11:04:39Z</time>
</trkpt>
<trkpt lat="46.5076642" lon="6.2043859">
<ele>1377.98</ele>
<time>2021-09-02T11:04:42Z</time>
</trkpt>
<trkpt lat="46.5074727" lon="6.2043250">
<ele>1376.25</ele>
<time>2021-09-02T11:04:45Z</time>
</trkpt>
<trkpt lat="46.5072894" lon="6.2042414">
<ele>1376.73</ele>
<time>2021-09-02T11:04:48Z</time>
</trkpt>
<trkpt lat="46.5071037" lon="6.2040929">
<ele>1377.00</ele>
<time>2021-09-02T11:04:52Z</time>
</trkpt>
<trkpt lat="46.5069252" lon="6.2039228">
<ele>1375.93</ele>
<time>2021-09-02T11:04:56Z</time>
</trkpt>
<trkpt lat="46.5067765" lon="6.2036790">
<ele>1374.81</ele>
<time>2021-09-02T11:05:00Z</time>
</trkpt>
<trkpt lat="46.5066157" lon="6.2034164">
<ele>1374.71</ele>
<time>2021-09-02T11:05:04Z</time>
</trkpt>
<trkpt lat="46.5065000" lon="6.2031935">
<ele>1373.72</ele>
<time>2021-09-02T11:05:08Z</time>
</trkpt>
<trkpt lat="46.5063860" lon="6.2029706">
<ele>1373.07</ele>
<time>2021-09-02T11:05:14Z</time>
</trkpt>
<trkpt lat="46.5062514" lon="6.2027840">
<ele>1374.34</ele>
<time>2021-09-02T11:06:20Z</time>
</trkpt>
<trkpt lat="46.5060851" lon="6.2026841">
<ele>1374.63</ele>
<time>2021-09-02T11:06:26Z</time>
</trkpt>
<trkpt lat="46.5059057" lon="6.2027372">
<ele>1375.22</ele>
<time>2021-09-02T11:06:31Z</time>
</trkpt>
<trkpt lat="46.5057174" lon="6.2027666">
<ele>1375.31</ele>
<time>2021-09-02T11:06:36Z</time>
</trkpt>
<trkpt lat="46.5055153" lon="6.2028047">
<ele>1376.13</ele>
<time>2021-09-02T11:06:41Z</time>
</trkpt>
<trkpt lat="46.5053108" lon="6.2028449">
<ele>1376.28</ele>
<time>2021-09-02T11:06:46Z</time>
</trkpt>
<trkpt lat="46.5051086" lon="6.2028943">
<ele>1376.43</ele>
<time>2021-09-02T11:06:51Z</time>
</trkpt>
<trkpt lat="46.5049064" lon="6.2029519">
<ele>1376.22</ele>
<time>2021-09-02T11:06:56Z</time>
</trkpt>
<trkpt lat="46.5046976" lon="6.2030130">
<ele>1376.78</ele>
<time>2021-09-02T11:07:01Z</time>
</trkpt>
<trkpt lat="46.5045024" lon="6.2030602">
<ele>1378.04</ele>
<time>2021-09-02T11:07:06Z</time>
</trkpt>
<trkpt lat="46.5042972" lon="6.2030587">
<ele>1378.52</ele>
<time>2021-09-02T11:07:11Z</time>
</trkpt>
<trkpt lat="46.5040929" lon="6.2029890">
<ele>1378.46</ele>
<time>2021-09-02T11:07:16Z</time>
</trkpt>
<trkpt lat="46.5039014" lon="6.2028699">
<ele>1378.80</ele>
<time>2021-09-02T11:07:21Z</time>
</trkpt>
<trkpt lat="46.5037188" lon="6.2027322">
<ele>1379.23</ele>
<time>2021-09-02T11:07:26Z</time>
</trkpt>
<trkpt lat="46.5035301" lon="6.2025906">
<ele>1378.92</ele>
<time>2021-09-02T11:07:31Z</time>
</trkpt>
<trkpt lat="46.5033481" lon="6.2024611">
<ele>1379.04</ele>
<time>2021-09-02T11:07:36Z</time>
</trkpt>
<trkpt lat="46.5031717" lon="6.2023325">
<ele>1379.79</ele>
<time>2021-09-02T11:07:41Z</time>
</trkpt>
<trkpt lat="46.5029624" lon="6.2022923">
<ele>1379.85</ele>
<time>2021-09-02T11:07:46Z</time>
</trkpt>
<trkpt lat="46.5027615" lon="6.2024089">
<ele>1379.66</ele>
<time>2021-09-02T11:07:51Z</time>
</trkpt>
<trkpt lat="46.5025904" lon="6.2025166">
<ele>1378.78</ele>
<time>2021-09-02T11:07:55Z</time>
</trkpt>
<trkpt lat="46.5024236" lon="6.2027034">
<ele>1377.70</ele>
<time>2021-09-02T11:07:59Z</time>
</trkpt>
<trkpt lat="46.5022620" lon="6.2029248">
<ele>1377.77</ele>
<time>2021-09-02T11:08:03Z</time>
</trkpt>
<trkpt lat="46.5020866" lon="6.2030012">
<ele>1375.96</ele>
<time>2021-09-02T11:08:06Z</time>
</trkpt>
<trkpt lat="46.5018807" lon="6.2029583">
<ele>1374.01</ele>
<time>2021-09-02T11:08:09Z</time>
</trkpt>
<trkpt lat="46.5017041" lon="6.2029001">
<ele>1372.47</ele>
<time>2021-09-02T11:08:12Z</time>
</trkpt>
<trkpt lat="46.5015018" lon="6.2029111">
<ele>1372.55</ele>
<time>2021-09-02T11:08:17Z</time>
</trkpt>
<trkpt lat="46.5013117" lon="6.2030548">
<ele>1373.17</ele>
<time>2021-09-02T11:08:22Z</time>
</trkpt>
<trkpt lat="46.5011625" lon="6.2032453">
<ele>1372.91</ele>
<time>2021-09-02T11:08:26Z</time>
</trkpt>
<trkpt lat="46.5009572" lon="6.2031628">
<ele>1370.87</ele>
<time>2021-09-02T11:08:31Z</time>
</trkpt>
<trkpt lat="46.5008213" lon="6.2029756">
<ele>1371.22</ele>
<time>2021-09-02T11:08:35Z</time>
</trkpt>
<trkpt lat="46.5007070" lon="6.2027367">
<ele>1370.59</ele>
<time>2021-09-02T11:08:40Z</time>
</trkpt>
<trkpt lat="46.5005916" lon="6.2025101">
<ele>1372.81</ele>
<time>2021-09-02T11:08:46Z</time>
</trkpt>
<trkpt lat="46.5004629" lon="6.2023221">
<ele>1374.18</ele>
<time>2021-09-02T11:08:53Z</time>
</trkpt>
<trkpt lat="46.5002915" lon="6.2021657">
<ele>1374.32</ele>
<time>2021-09-02T11:08:59Z</time>
</trkpt>
<trkpt lat="46.5001149" lon="6.2020335">
<ele>1376.95</ele>
<time>2021-09-02T11:09:05Z</time>
</trkpt>
<trkpt lat="46.4999552" lon="6.2019052">
<ele>1377.43</ele>
<time>2021-09-02T11:09:12Z</time>
</trkpt>
<trkpt lat="46.4997894" lon="6.2017952">
<ele>1379.87</ele>
<time>2021-09-02T11:09:22Z</time>
</trkpt>
<trkpt lat="46.4996257" lon="6.2016657">
<ele>1379.82</ele>
<time>2021-09-02T11:12:57Z</time>
</trkpt>
<trkpt lat="46.4994851" lon="6.2015024">
<ele>1380.41</ele>
<time>2021-09-02T11:13:07Z</time>
</trkpt>
<trkpt lat="46.4993239" lon="6.2012921">
<ele>1379.47</ele>
<time>2021-09-02T11:13:13Z</time>
</trkpt>
<trkpt lat="46.4991733" lon="6.2011395">
<ele>1379.21</ele>
<time>2021-09-02T11:13:19Z</time>
</trkpt>
<trkpt lat="46.4990368" lon="6.2009571">
<ele>1377.58</ele>
<time>2021-09-02T11:13:25Z</time>
</trkpt>
<trkpt lat="46.4988827" lon="6.2007614">
<ele>1370.77</ele>
<time>2021-09-02T11:13:46Z</time>
</trkpt>
<trkpt lat="46.4987155" lon="6.2006013">
<ele>1366.57</ele>
<time>2021-09-02T11:13:53Z</time>
</trkpt>
<trkpt lat="46.4985719" lon="6.2004268">
<ele>1366.81</ele>
<time>2021-09-02T11:13:57Z</time>
</trkpt>
<trkpt lat="46.4984218" lon="6.2002311">
<ele>1366.02</ele>
<time>2021-09-02T11:14:01Z</time>
</trkpt>
<trkpt lat="46.4982080" lon="6.2000287">
<ele>1364.03</ele>
<time>2021-09-02T11:14:05Z</time>
</trkpt>
<trkpt lat="46.4980090" lon="6.1998930">
<ele>1363.37</ele>
<time>2021-09-02T11:14:08Z</time>
</trkpt>
<trkpt lat="46.4978501" lon="6.1997389">
<ele>1362.86</ele>
<time>2021-09-02T11:14:11Z</time>
</trkpt>
<trkpt lat="46.4976815" lon="6.1996056">
<ele>1359.83</ele>
<time>2021-09-02T11:14:14Z</time>
</trkpt>
<trkpt lat="46.4974661" lon="6.1995303">
<ele>1359.08</ele>
<time>2021-09-02T11:14:18Z</time>
</trkpt>
<trkpt lat="46.4972779" lon="6.1994868">
<ele>1359.70</ele>
<time>2021-09-02T11:14:26Z</time>
</trkpt>
<trkpt lat="46.4971138" lon="6.1993676">
<ele>1358.78</ele>
<time>2021-09-02T11:15:10Z</time>
</trkpt>
<trkpt lat="46.4969396" lon="6.1992859">
<ele>1358.54</ele>
<time>2021-09-02T11:15:28Z</time>
</trkpt>
<trkpt lat="46.4967554" lon="6.1992652">
<ele>1359.34</ele>
<time>2021-09-02T11:15:50Z</time>
</trkpt>
<trkpt lat="46.4965649" lon="6.1991786">
<ele>1360.73</ele>
<time>2021-09-02T11:16:48Z</time>
</trkpt>
<trkpt lat="46.4964046" lon="6.1990313">
<ele>1359.86</ele>
<time>2021-09-02T11:16:54Z</time>
</trkpt>
<trkpt lat="46.4962032" lon="6.1989257">
<ele>1359.66</ele>
<time>2021-09-02T11:17:00Z</time>
</trkpt>
<trkpt lat="46.4960191" lon="6.1987979">
<ele>1359.83</ele>
<time>2021-09-02T11:17:06Z</time>
</trkpt>
<trkpt lat="46.4958217" lon="6.1987069">
<ele>1360.14</ele>
<time>2021-09-02T11:17:13Z</time>
</trkpt>
<trkpt lat="46.4956380" lon="6.1986414">
<ele>1361.13</ele>
<time>2021-09-02T11:17:20Z</time>
</trkpt>
<trkpt lat="46.4954866" lon="6.1984750">
<ele>1361.31</ele>
<time>2021-09-02T11:17:27Z</time>
</trkpt>
<trkpt lat="46.4953135" lon="6.1982785">
<ele>1360.72</ele>
<time>2021-09-02T11:17:33Z</time>
</trkpt>
<trkpt lat="46.4951583" lon="6.1981286">
<ele>1361.17</ele>
<time>2021-09-02T11:17:38Z</time>
</trkpt>
<trkpt lat="46.4949799" lon="6.1979996">
<ele>1360.82</ele>
<time>2021-09-02T11:17:43Z</time>
</trkpt>
<trkpt lat="46.4947882" lon="6.1979301">
<ele>1360.54</ele>
<time>2021-09-02T11:17:48Z</time>
</trkpt>
<trkpt lat="46.4946106" lon="6.1978447">
<ele>1358.76</ele>
<time>2021-09-02T11:17:52Z</time>
</trkpt>
<trkpt lat="46.4944386" lon="6.1977530">
<ele>1359.72</ele>
<time>2021-09-02T11:17:57Z</time>
</trkpt>
<trkpt lat="46.4942640" lon="6.1976199">
<ele>1359.35</ele>
<time>2021-09-02T11:18:02Z</time>
</trkpt>
<trkpt lat="46.4940910" lon="6.1975158">
<ele>1359.68</ele>
<time>2021-09-02T11:18:09Z</time>
</trkpt>
<trkpt lat="46.4938952" lon="6.1975007">
<ele>1358.64</ele>
<time>2021-09-02T11:18:17Z</time>
</trkpt>
<trkpt lat="46.4936808" lon="6.1975435">
<ele>1356.11</ele>
<time>2021-09-02T11:18:22Z</time>
</trkpt>
<trkpt lat="46.4935037" lon="6.1975936">
<ele>1352.67</ele>
<time>2021-09-02T11:18:28Z</time>
</trkpt>
<trkpt lat="46.4933263" lon="6.1976448">
<ele>1353.87</ele>
<time>2021-09-02T11:18:55Z</time>
</trkpt>
<trkpt lat="46.4931373" lon="6.1976918">
<ele>1352.58</ele>
<time>2021-09-02T11:19:03Z</time>
</trkpt>
<trkpt lat="46.4929736" lon="6.1979131">
<ele>1345.26</ele>
<time>2021-09-02T11:19:07Z</time>
</trkpt>
<trkpt lat="46.4928394" lon="6.1980997">
<ele>1342.58</ele>
<time>2021-09-02T11:19:10Z</time>
</trkpt>
<trkpt lat="46.4926676" lon="6.1981805">
<ele>1332.65</ele>
<time>2021-09-02T11:23:55Z</time>
</trkpt>
<trkpt lat="46.4924671" lon="6.1981962">
<ele>1332.94</ele>
<time>2021-09-02T11:24:08Z</time>
</trkpt>
<trkpt lat="46.4922811" lon="6.1981450">
<ele>1330.85</ele>
<time>2021-09-02T11:24:16Z</time>
</trkpt>
<trkpt lat="46.4921017" lon="6.1980933">
<ele>1327.64</ele>
<time>2021-09-02T11:24:25Z</time>
</trkpt>
<trkpt lat="46.4919777" lon="6.1978977">
<ele>1324.87</ele>
<time>2021-09-02T11:25:42Z</time>
</trkpt>
<trkpt lat="46.4917987" lon="6.1977939">
<ele>1322.03</ele>
<time>2021-09-02T11:25:59Z</time>
</trkpt>
<trkpt lat="46.4916707" lon="6.1975887">
<ele>1319.44</ele>
<time>2021-09-02T11:26:06Z</time>
</trkpt>
<trkpt lat="46.4915569" lon="6.1973794">
<ele>1316.87</ele>
<time>2021-09-02T11:26:12Z</time>
</trkpt>
<trkpt lat="46.4914268" lon="6.1971732">
<ele>1308.12</ele>
<time>2021-09-02T11:26:28Z</time>
</trkpt>
<trkpt lat="46.4913930" lon="6.1969114">
<ele>1302.13</ele>
<time>2021-09-02T11:27:18Z</time>
</trkpt>
<trkpt lat="46.4912779" lon="6.1967049">
<ele>1299.02</ele>
<time>2021-09-02T11:27:29Z</time>
</trkpt>
<trkpt lat="46.4911946" lon="6.1964618">
<ele>1293.32</ele>
<time>2021-09-02T11:27:40Z</time>
</trkpt>
<trkpt lat="46.4911011" lon="6.1962347">
<ele>1291.95</ele>
<time>2021-09-02T11:27:57Z</time>
</trkpt>
<trkpt lat="46.4910807" lon="6.1959618">
<ele>1287.40</ele>
<time>2021-09-02T11:28:08Z</time>
</trkpt>
<trkpt lat="46.4910375" lon="6.1957064">
<ele>1281.37</ele>
<time>2021-09-02T11:28:16Z</time>
</trkpt>
<trkpt lat="46.4910823" lon="6.1954386">
<ele>1276.34</ele>
<time>2021-09-02T11:28:42Z</time>
</trkpt>
<trkpt lat="46.4911545" lon="6.1951805">
<ele>1272.95</ele>
<time>2021-09-02T11:28:49Z</time>
</trkpt>
<trkpt lat="46.4910715" lon="6.1949269">
<ele>1271.96</ele>
<time>2021-09-02T11:29:09Z</time>
</trkpt>
<trkpt lat="46.4909232" lon="6.1947684">
<ele>1270.19</ele>
<time>2021-09-02T11:29:15Z</time>
</trkpt>
<trkpt lat="46.4908064" lon="6.1945629">
<ele>1267.42</ele>
<time>2021-09-02T11:29:22Z</time>
</trkpt>
<trkpt lat="46.4906647" lon="6.1943442">
<ele>1266.96</ele>
<time>2021-09-02T11:29:27Z</time>
</trkpt>
<trkpt lat="46.4905101" lon="6.1941918">
<ele>1260.53</ele>
<time>2021-09-02T11:29:35Z</time>
</trkpt>
<trkpt lat="46.4903978" lon="6.1939748">
<ele>1251.96</ele>
<time>2021-09-02T11:29:42Z</time>
</trkpt>
<trkpt lat="46.4903499" lon="6.1937199">
<ele>1245.28</ele>
<time>2021-09-02T11:30:02Z</time>
</trkpt>
<trkpt lat="46.4903124" lon="6.1934450">
<ele>1241.28</ele>
<time>2021-09-02T11:30:23Z</time>
</trkpt>
<trkpt lat="46.4903345" lon="6.1931791">
<ele>1239.06</ele>
<time>2021-09-02T11:30:57Z</time>
</trkpt>
<trkpt lat="46.4904092" lon="6.1929011">
<ele>1233.13</ele>
<time>2021-09-02T11:31:45Z</time>
</trkpt>
<trkpt lat="46.4902610" lon="6.1930533">
<ele>1225.69</ele>
<time>2021-09-02T11:32:04Z</time>
</trkpt>
<trkpt lat="46.4900402" lon="6.1930679">
<ele>1217.68</ele>
<time>2021-09-02T11:32:09Z</time>
</trkpt>
<trkpt lat="46.4898519" lon="6.1929734">
<ele>1211.33</ele>
<time>2021-09-02T11:32:12Z</time>
</trkpt>
<trkpt lat="46.4896954" lon="6.1927243">
<ele>1212.53</ele>
<time>2021-09-02T11:32:16Z</time>
</trkpt>
<trkpt lat="46.4894734" lon="6.1927307">
<ele>1207.13</ele>
<time>2021-09-02T11:32:20Z</time>
</trkpt>
<trkpt lat="46.4892867" lon="6.1927130">
<ele>1205.28</ele>
<time>2021-09-02T11:32:25Z</time>
</trkpt>
<trkpt lat="46.4891278" lon="6.1925885">
<ele>1204.75</ele>
<time>2021-09-02T11:32:32Z</time>
</trkpt>
<trkpt lat="46.4890725" lon="6.1922833">
<ele>1200.04</ele>
<time>2021-09-02T11:33:15Z</time>
</trkpt>
<trkpt lat="46.4889928" lon="6.1920254">
<ele>1198.89</ele>
<time>2021-09-02T11:33:20Z</time>
</trkpt>
<trkpt lat="46.4889475" lon="6.1917687">
<ele>1197.64</ele>
<time>2021-09-02T11:33:25Z</time>
</trkpt>
<trkpt lat="46.4889103" lon="6.1914911">
<ele>1195.94</ele>
<time>2021-09-02T11:33:30Z</time>
</trkpt>
<trkpt lat="46.4887548" lon="6.1913374">
<ele>1191.22</ele>
<time>2021-09-02T11:33:36Z</time>
</trkpt>
<trkpt lat="46.4885816" lon="6.1912384">
<ele>1187.28</ele>
<time>2021-09-02T11:33:42Z</time>
</trkpt>
<trkpt lat="46.4884101" lon="6.1911258">
<ele>1185.23</ele>
<time>2021-09-02T11:33:53Z</time>
</trkpt>
<trkpt lat="46.4882954" lon="6.1908628">
<ele>1178.39</ele>
<time>2021-09-02T11:34:04Z</time>
</trkpt>
<trkpt lat="46.4881258" lon="6.1905900">
<ele>1176.01</ele>
<time>2021-09-02T11:34:07Z</time>
</trkpt>
<trkpt lat="46.4880049" lon="6.1902679">
<ele>1170.23</ele>
<time>2021-09-02T11:34:10Z</time>
</trkpt>
<trkpt lat="46.4878526" lon="6.1900647">
<ele>1165.77</ele>
<time>2021-09-02T11:34:13Z</time>
</trkpt>
<trkpt lat="46.4876891" lon="6.1898747">
<ele>1161.84</ele>
<time>2021-09-02T11:34:16Z</time>
</trkpt>
<trkpt lat="46.4875071" lon="6.1897076">
<ele>1161.61</ele>
<time>2021-09-02T11:34:20Z</time>
</trkpt>
<trkpt lat="46.4873256" lon="6.1896040">
<ele>1158.07</ele>
<time>2021-09-02T11:34:24Z</time>
</trkpt>
<trkpt lat="46.4871490" lon="6.1894891">
<ele>1155.18</ele>
<time>2021-09-02T11:34:28Z</time>
</trkpt>
<trkpt lat="46.4869420" lon="6.1894019">
<ele>1154.64</ele>
<time>2021-09-02T11:34:33Z</time>
</trkpt>
<trkpt lat="46.4867595" lon="6.1892753">
<ele>1153.73</ele>
<time>2021-09-02T11:34:39Z</time>
</trkpt>
<trkpt lat="46.4866642" lon="6.1890522">
<ele>1151.84</ele>
<time>2021-09-02T11:34:44Z</time>
</trkpt>
<trkpt lat="46.4866377" lon="6.1887808">
<ele>1150.34</ele>
<time>2021-09-02T11:34:48Z</time>
</trkpt>
<trkpt lat="46.4867093" lon="6.1885209">
<ele>1148.71</ele>
<time>2021-09-02T11:34:52Z</time>
</trkpt>
<trkpt lat="46.4868550" lon="6.1883219">
<ele>1152.63</ele>
<time>2021-09-02T11:34:58Z</time>
</trkpt>
<trkpt lat="46.4868862" lon="6.1880545">
<ele>1143.19</ele>
<time>2021-09-02T11:36:17Z</time>
</trkpt>
<trkpt lat="46.4868650" lon="6.1877935">
<ele>1142.91</ele>
<time>2021-09-02T11:36:22Z</time>
</trkpt>
<trkpt lat="46.4867125" lon="6.1876263">
<ele>1144.93</ele>
<time>2021-09-02T11:36:28Z</time>
</trkpt>
<trkpt lat="46.4865195" lon="6.1875319">
<ele>1146.67</ele>
<time>2021-09-02T11:36:35Z</time>
</trkpt>
<trkpt lat="46.4863378" lon="6.1873342">
<ele>1143.67</ele>
<time>2021-09-02T11:36:40Z</time>
</trkpt>
<trkpt lat="46.4861981" lon="6.1871537">
<ele>1145.08</ele>
<time>2021-09-02T11:36:44Z</time>
</trkpt>
<trkpt lat="46.4860256" lon="6.1869930">
<ele>1146.30</ele>
<time>2021-09-02T11:36:50Z</time>
</trkpt>
<trkpt lat="46.4858512" lon="6.1868506">
<ele>1147.38</ele>
<time>2021-09-02T11:36:57Z</time>
</trkpt>
<trkpt lat="46.4856765" lon="6.1867156">
<ele>1147.46</ele>
<time>2021-09-02T11:37:05Z</time>
</trkpt>
<trkpt lat="46.4854970" lon="6.1866095">
<ele>1148.13</ele>
<time>2021-09-02T11:37:14Z</time>
</trkpt>
<trkpt lat="46.4853383" lon="6.1864401">
<ele>1150.60</ele>
<time>2021-09-02T11:37:24Z</time>
</trkpt>
<trkpt lat="46.4851512" lon="6.1863514">
<ele>1150.35</ele>
<time>2021-09-02T11:37:37Z</time>
</trkpt>
<trkpt lat="46.4850271" lon="6.1861552">
<ele>1148.95</ele>
<time>2021-09-02T11:37:43Z</time>
</trkpt>
<trkpt lat="46.4848366" lon="6.1859781">
<ele>1147.68</ele>
<time>2021-09-02T11:37:47Z</time>
</trkpt>
<trkpt lat="46.4846372" lon="6.1858502">
<ele>1147.14</ele>
<time>2021-09-02T11:37:51Z</time>
</trkpt>
<trkpt lat="46.4844608" lon="6.1856166">
<ele>1146.53</ele>
<time>2021-09-02T11:37:55Z</time>
</trkpt>
<trkpt lat="46.4842976" lon="6.1854390">
<ele>1145.38</ele>
<time>2021-09-02T11:37:58Z</time>
</trkpt>
<trkpt lat="46.4841400" lon="6.1853057">
<ele>1143.32</ele>
<time>2021-09-02T11:38:01Z</time>
</trkpt>
<trkpt lat="46.4839536" lon="6.1852238">
<ele>1139.75</ele>
<time>2021-09-02T11:38:05Z</time>
</trkpt>
<trkpt lat="46.4839505" lon="6.1849612">
<ele>1139.87</ele>
<time>2021-09-02T11:39:28Z</time>
</trkpt>
<trkpt lat="46.4840583" lon="6.1847447">
<ele>1139.76</ele>
<time>2021-09-02T11:39:46Z</time>
</trkpt>
<trkpt lat="46.4841551" lon="6.1845132">
<ele>1140.01</ele>
<time>2021-09-02T11:39:55Z</time>
</trkpt>
<trkpt lat="46.4842506" lon="6.1842873">
<ele>1142.38</ele>
<time>2021-09-02T11:42:20Z</time>
</trkpt>
<trkpt lat="46.4843340" lon="6.1840352">
<ele>1143.17</ele>
<time>2021-09-02T11:42:41Z</time>
</trkpt>
<trkpt lat="46.4844252" lon="6.1837949">
<ele>1141.99</ele>
<time>2021-09-02T11:42:51Z</time>
</trkpt>
<trkpt lat="46.4845461" lon="6.1835803">
<ele>1143.21</ele>
<time>2021-09-02T11:43:02Z</time>
</trkpt>
<trkpt lat="46.4846330" lon="6.1833427">
<ele>1147.61</ele>
<time>2021-09-02T11:43:13Z</time>
</trkpt>
<trkpt lat="46.4846975" lon="6.1830751">
<ele>1152.09</ele>
<time>2021-09-02T11:43:23Z</time>
</trkpt>
<trkpt lat="46.4846917" lon="6.1827878">
<ele>1156.26</ele>
<time>2021-09-02T11:43:32Z</time>
</trkpt>
<trkpt lat="46.4846607" lon="6.1825194">
<ele>1151.70</ele>
<time>2021-09-02T11:43:43Z</time>
</trkpt>
<trkpt lat="46.4846747" lon="6.1822516">
<ele>1149.82</ele>
<time>2021-09-02T11:43:54Z</time>
</trkpt>
<trkpt lat="46.4847705" lon="6.1820071">
<ele>1152.92</ele>
<time>2021-09-02T11:44:07Z</time>
</trkpt>
<trkpt lat="46.4849189" lon="6.1818586">
<ele>1156.44</ele>
<time>2021-09-02T11:44:15Z</time>
</trkpt>
<trkpt lat="46.4851016" lon="6.1818697">
<ele>1155.49</ele>
<time>2021-09-02T11:44:20Z</time>
</trkpt>
<trkpt lat="46.4852846" lon="6.1819548">
<ele>1155.10</ele>
<time>2021-09-02T11:44:25Z</time>
</trkpt>
<trkpt lat="46.4854446" lon="6.1821044">
<ele>1154.57</ele>
<time>2021-09-02T11:44:31Z</time>
</trkpt>
<trkpt lat="46.4855688" lon="6.1823112">
<ele>1153.82</ele>
<time>2021-09-02T11:44:37Z</time>
</trkpt>
<trkpt lat="46.4857087" lon="6.1825130">
<ele>1154.92</ele>
<time>2021-09-02T11:44:45Z</time>
</trkpt>
<trkpt lat="46.4858602" lon="6.1826717">
<ele>1155.21</ele>
<time>2021-09-02T11:44:53Z</time>
</trkpt>
<trkpt lat="46.4860210" lon="6.1828265">
<ele>1156.43</ele>
<time>2021-09-02T11:45:01Z</time>
</trkpt>
<trkpt lat="46.4861810" lon="6.1829989">
<ele>1157.80</ele>
<time>2021-09-02T11:45:10Z</time>
</trkpt>
<trkpt lat="46.4863330" lon="6.1831522">
<ele>1160.21</ele>
<time>2021-09-02T11:45:19Z</time>
</trkpt>
<trkpt lat="46.4864893" lon="6.1833145">
<ele>1162.39</ele>
<time>2021-09-02T11:45:29Z</time>
</trkpt>
<trkpt lat="46.4866357" lon="6.1834896">
<ele>1164.59</ele>
<time>2021-09-02T11:46:23Z</time>
</trkpt>
<trkpt lat="46.4867832" lon="6.1836595">
<ele>1165.15</ele>
<time>2021-09-02T11:46:35Z</time>
</trkpt>
<trkpt lat="46.4869432" lon="6.1837805">
<ele>1165.23</ele>
<time>2021-09-02T11:46:44Z</time>
</trkpt>
<trkpt lat="46.4871113" lon="6.1839236">
<ele>1165.72</ele>
<time>2021-09-02T11:46:55Z</time>
</trkpt>
<trkpt lat="46.4872771" lon="6.1840764">
<ele>1167.51</ele>
<time>2021-09-02T11:47:05Z</time>
</trkpt>
<trkpt lat="46.4874240" lon="6.1842385">
<ele>1169.45</ele>
<time>2021-09-02T11:47:15Z</time>
</trkpt>
<trkpt lat="46.4875763" lon="6.1843987">
<ele>1169.80</ele>
<time>2021-09-02T11:47:26Z</time>
</trkpt>
<trkpt lat="46.4877241" lon="6.1845611">
<ele>1168.76</ele>
<time>2021-09-02T11:47:37Z</time>
</trkpt>
<trkpt lat="46.4878812" lon="6.1847188">
<ele>1172.42</ele>
<time>2021-09-02T11:47:47Z</time>
</trkpt>
<trkpt lat="46.4878677" lon="6.1844430">
<ele>1175.03</ele>
<time>2021-09-02T11:47:59Z</time>
</trkpt>
<trkpt lat="46.4878049" lon="6.1841916">
<ele>1178.97</ele>
<time>2021-09-02T11:48:10Z</time>
</trkpt>
<trkpt lat="46.4877940" lon="6.1839031">
<ele>1189.27</ele>
<time>2021-09-02T11:50:04Z</time>
</trkpt>
<trkpt lat="46.4878605" lon="6.1836435">
<ele>1187.98</ele>
<time>2021-09-02T11:50:16Z</time>
</trkpt>
<trkpt lat="46.4879817" lon="6.1834292">
<ele>1190.72</ele>
<time>2021-09-02T11:50:30Z</time>
</trkpt>
<trkpt lat="46.4881724" lon="6.1834738">
<ele>1198.75</ele>
<time>2021-09-02T11:50:45Z</time>
</trkpt>
<trkpt lat="46.4883163" lon="6.1836309">
<ele>1201.23</ele>
<time>2021-09-02T11:50:57Z</time>
</trkpt>
<trkpt lat="46.4884990" lon="6.1837125">
<ele>1206.61</ele>
<time>2021-09-02T11:51:08Z</time>
</trkpt>
<trkpt lat="46.4885947" lon="6.1834652">
<ele>1210.25</ele>
<time>2021-09-02T11:51:20Z</time>
</trkpt>
<trkpt lat="46.4886180" lon="6.1831984">
<ele>1211.62</ele>
<time>2021-09-02T11:51:30Z</time>
</trkpt>
<trkpt lat="46.4885319" lon="6.1829637">
<ele>1210.20</ele>
<time>2021-09-02T11:51:40Z</time>
</trkpt>
<trkpt lat="46.4884687" lon="6.1827121">
<ele>1212.50</ele>
<time>2021-09-02T11:51:54Z</time>
</trkpt>
<trkpt lat="46.4884113" lon="6.1824420">
<ele>1217.25</ele>
<time>2021-09-02T11:52:05Z</time>
</trkpt>
<trkpt lat="46.4882977" lon="6.1822370">
<ele>1226.35</ele>
<time>2021-09-02T11:52:15Z</time>
</trkpt>
<trkpt lat="46.4881449" lon="6.1820664">
<ele>1222.58</ele>
<time>2021-09-02T11:52:25Z</time>
</trkpt>
<trkpt lat="46.4880112" lon="6.1818843">
<ele>1223.35</ele>
<time>2021-09-02T11:52:36Z</time>
</trkpt>
<trkpt lat="46.4878693" lon="6.1816961">
<ele>1230.34</ele>
<time>2021-09-02T11:55:22Z</time>
</trkpt>
<trkpt lat="46.4877561" lon="6.1814731">
<ele>1230.50</ele>
<time>2021-09-02T11:55:33Z</time>
</trkpt>
<trkpt lat="46.4875958" lon="6.1813442">
<ele>1232.26</ele>
<time>2021-09-02T11:55:43Z</time>
</trkpt>
<trkpt lat="46.4874533" lon="6.1811558">
<ele>1234.95</ele>
<time>2021-09-02T11:55:52Z</time>
</trkpt>
<trkpt lat="46.4873157" lon="6.1809586">
<ele>1234.99</ele>
<time>2021-09-02T11:56:01Z</time>
</trkpt>
<trkpt lat="46.4871824" lon="6.1807597">
<ele>1236.73</ele>
<time>2021-09-02T11:56:09Z</time>
</trkpt>
<trkpt lat="46.4870428" lon="6.1805446">
<ele>1236.49</ele>
<time>2021-09-02T11:56:17Z</time>
</trkpt>
<trkpt lat="46.4869728" lon="6.1802861">
<ele>1237.91</ele>
<time>2021-09-02T11:56:27Z</time>
</trkpt>
<trkpt lat="46.4870735" lon="6.1800556">
<ele>1237.06</ele>
<time>2021-09-02T11:56:34Z</time>
</trkpt>
<trkpt lat="46.4872419" lon="6.1799105">
<ele>1237.40</ele>
<time>2021-09-02T11:56:42Z</time>
</trkpt>
<trkpt lat="46.4874328" lon="6.1798511">
<ele>1239.35</ele>
<time>2021-09-02T11:56:49Z</time>
</trkpt>
<trkpt lat="46.4876236" lon="6.1798042">
<ele>1242.35</ele>
<time>2021-09-02T11:56:57Z</time>
</trkpt>
<trkpt lat="46.4877948" lon="6.1797170">
<ele>1242.16</ele>
<time>2021-09-02T11:57:04Z</time>
</trkpt>
<trkpt lat="46.4879711" lon="6.1796418">
<ele>1244.82</ele>
<time>2021-09-02T11:57:12Z</time>
</trkpt>
<trkpt lat="46.4881477" lon="6.1795686">
<ele>1245.43</ele>
<time>2021-09-02T11:57:20Z</time>
</trkpt>
<trkpt lat="46.4882913" lon="6.1793763">
<ele>1246.40</ele>
<time>2021-09-02T11:57:29Z</time>
</trkpt>
<trkpt lat="46.4882995" lon="6.1790979">
<ele>1247.05</ele>
<time>2021-09-02T11:57:38Z</time>
</trkpt>
<trkpt lat="46.4882309" lon="6.1788506">
<ele>1247.37</ele>
<time>2021-09-02T11:57:44Z</time>
</trkpt>
<trkpt lat="46.4881607" lon="6.1786075">
<ele>1249.63</ele>
<time>2021-09-02T11:57:56Z</time>
</trkpt>
<trkpt lat="46.4880929" lon="6.1783450">
<ele>1250.09</ele>
<time>2021-09-02T11:58:49Z</time>
</trkpt>
<trkpt lat="46.4880432" lon="6.1780711">
<ele>1249.16</ele>
<time>2021-09-02T11:58:56Z</time>
</trkpt>
<trkpt lat="46.4880744" lon="6.1777753">
<ele>1249.02</ele>
<time>2021-09-02T11:59:01Z</time>
</trkpt>
<trkpt lat="46.4881943" lon="6.1775595">
<ele>1249.57</ele>
<time>2021-09-02T11:59:07Z</time>
</trkpt>
<trkpt lat="46.4883475" lon="6.1773784">
<ele>1250.06</ele>
<time>2021-09-02T11:59:15Z</time>
</trkpt>
<trkpt lat="46.4884770" lon="6.1771888">
<ele>1250.83</ele>
<time>2021-09-02T11:59:23Z</time>
</trkpt>
<trkpt lat="46.4886321" lon="6.1770495">
<ele>1293.36</ele>
<time>2021-09-02T11:59:32Z</time>
</trkpt>
<trkpt lat="46.4888074" lon="6.1769098">
<ele>1295.59</ele>
<time>2021-09-02T11:59:42Z</time>
</trkpt>
<trkpt lat="46.4889607" lon="6.1767558">
<ele>1295.86</ele>
<time>2021-09-02T11:59:52Z</time>
</trkpt>
<trkpt lat="46.4891078" lon="6.1765899">
<ele>1295.50</ele>
<time>2021-09-02T12:00:03Z</time>
</trkpt>
<trkpt lat="46.4892642" lon="6.1764319">
<ele>1297.78</ele>
<time>2021-09-02T12:00:15Z</time>
</trkpt>
<trkpt lat="46.4894210" lon="6.1762720">
<ele>1298.07</ele>
<time>2021-09-02T12:00:26Z</time>
</trkpt>
<trkpt lat="46.4895271" lon="6.1760507">
<ele>1299.53</ele>
<time>2021-09-02T12:00:36Z</time>
</trkpt>
<trkpt lat="46.4896115" lon="6.1757956">
<ele>1300.81</ele>
<time>2021-09-02T12:00:43Z</time>
</trkpt>
<trkpt lat="46.4897584" lon="6.1756052">
<ele>1301.51</ele>
<time>2021-09-02T12:00:50Z</time>
</trkpt>
<trkpt lat="46.4898949" lon="6.1754119">
<ele>1300.83</ele>
<time>2021-09-02T12:00:57Z</time>
</trkpt>
<trkpt lat="46.4900451" lon="6.1751995">
<ele>1301.54</ele>
<time>2021-09-02T12:01:03Z</time>
</trkpt>
<trkpt lat="46.4901750" lon="6.1749711">
<ele>1327.19</ele>
<time>2021-09-02T12:01:11Z</time>
</trkpt>
<trkpt lat="46.4903368" lon="6.1748290">
<ele>1260.05</ele>
<time>2021-09-02T12:01:51Z</time>
</trkpt>
<trkpt lat="46.4905295" lon="6.1747679">
<ele>1315.53</ele>
<time>2021-09-02T12:01:58Z</time>
</trkpt>
<trkpt lat="46.4907035" lon="6.1746793">
<ele>1288.47</ele>
<time>2021-09-02T12:02:04Z</time>
</trkpt>
<trkpt lat="46.4908463" lon="6.1744734">
<ele>1265.35</ele>
<time>2021-09-02T12:02:09Z</time>
</trkpt>
<trkpt lat="46.4908397" lon="6.1742005">
<ele>1262.09</ele>
<time>2021-09-02T12:02:13Z</time>
</trkpt>
<trkpt lat="46.4908484" lon="6.1738975">
<ele>1259.88</ele>
<time>2021-09-02T12:02:17Z</time>
</trkpt>
<trkpt lat="46.4908562" lon="6.1735569">
<ele>1259.40</ele>
<time>2021-09-02T12:02:21Z</time>
</trkpt>
<trkpt lat="46.4908442" lon="6.1732760">
<ele>1258.16</ele>
<time>2021-09-02T12:02:25Z</time>
</trkpt>
<trkpt lat="46.4908179" lon="6.1729925">
<ele>1258.30</ele>
<time>2021-09-02T12:02:30Z</time>
</trkpt>
<trkpt lat="46.4907848" lon="6.1727194">
<ele>1258.07</ele>
<time>2021-09-02T12:02:36Z</time>
</trkpt>
<trkpt lat="46.4907362" lon="6.1724651">
<ele>1257.72</ele>
<time>2021-09-02T12:02:42Z</time>
</trkpt>
<trkpt lat="46.4906487" lon="6.1721924">
<ele>1259.71</ele>
<time>2021-09-02T12:02:50Z</time>
</trkpt>
<trkpt lat="46.4905287" lon="6.1719563">
<ele>1259.87</ele>
<time>2021-09-02T12:02:56Z</time>
</trkpt>
<trkpt lat="46.4903974" lon="6.1717077">
<ele>1259.95</ele>
<time>2021-09-02T12:03:02Z</time>
</trkpt>
<trkpt lat="46.4903001" lon="6.1714496">
<ele>1258.58</ele>
<time>2021-09-02T12:03:08Z</time>
</trkpt>
<trkpt lat="46.4902314" lon="6.1711732">
<ele>1260.44</ele>
<time>2021-09-02T12:03:14Z</time>
</trkpt>
<trkpt lat="46.4902472" lon="6.1708917">
<ele>1260.03</ele>
<time>2021-09-02T12:03:20Z</time>
</trkpt>
<trkpt lat="46.4902385" lon="6.1706285">
<ele>1264.59</ele>
<time>2021-09-02T12:04:49Z</time>
</trkpt>
<trkpt lat="46.4901891" lon="6.1703543">
<ele>1267.38</ele>
<time>2021-09-02T12:05:02Z</time>
</trkpt>
<trkpt lat="46.4901353" lon="6.1700962">
<ele>1270.84</ele>
<time>2021-09-02T12:05:12Z</time>
</trkpt>
<trkpt lat="46.4899876" lon="6.1699137">
<ele>1274.32</ele>
<time>2021-09-02T12:05:23Z</time>
</trkpt>
<trkpt lat="46.4898626" lon="6.1696870">
<ele>1275.74</ele>
<time>2021-09-02T12:05:34Z</time>
</trkpt>
<trkpt lat="46.4897325" lon="6.1695033">
<ele>1275.95</ele>
<time>2021-09-02T12:05:44Z</time>
</trkpt>
<trkpt lat="46.4896648" lon="6.1692499">
<ele>1279.51</ele>
<time>2021-09-02T12:05:55Z</time>
</trkpt>
<trkpt lat="46.4897860" lon="6.1690534">
<ele>1283.98</ele>
<time>2021-09-02T12:07:38Z</time>
</trkpt>
<trkpt lat="46.4898632" lon="6.1688104">
<ele>1289.13</ele>
<time>2021-09-02T12:08:14Z</time>
</trkpt>
<trkpt lat="46.4899652" lon="6.1685926">
<ele>1289.25</ele>
<time>2021-09-02T12:08:24Z</time>
</trkpt>
<trkpt lat="46.4900804" lon="6.1683819">
<ele>1291.08</ele>
<time>2021-09-02T12:08:38Z</time>
</trkpt>
<trkpt lat="46.4900969" lon="6.1681157">
<ele>1292.45</ele>
<time>2021-09-02T12:08:48Z</time>
</trkpt>
<trkpt lat="46.4899602" lon="6.1679427">
<ele>1295.18</ele>
<time>2021-09-02T12:10:08Z</time>
</trkpt>
<trkpt lat="46.4897904" lon="6.1677984">
<ele>1294.85</ele>
<time>2021-09-02T12:10:20Z</time>
</trkpt>
<trkpt lat="46.4896265" lon="6.1676427">
<ele>1290.99</ele>
<time>2021-09-02T12:10:56Z</time>
</trkpt>
<trkpt lat="46.4894435" lon="6.1674243">
<ele>1288.12</ele>
<time>2021-09-02T12:11:03Z</time>
</trkpt>
<trkpt lat="46.4892199" lon="6.1671860">
<ele>1286.61</ele>
<time>2021-09-02T12:11:08Z</time>
</trkpt>
<trkpt lat="46.4890810" lon="6.1670143">
<ele>1287.66</ele>
<time>2021-09-02T12:11:12Z</time>
</trkpt>
<trkpt lat="46.4889581" lon="6.1668019">
<ele>1286.74</ele>
<time>2021-09-02T12:11:21Z</time>
</trkpt>
<trkpt lat="46.4889150" lon="6.1665347">
<ele>1288.21</ele>
<time>2021-09-02T12:11:27Z</time>
</trkpt>
<trkpt lat="46.4888403" lon="6.1662719">
<ele>1292.84</ele>
<time>2021-09-02T12:11:37Z</time>
</trkpt>
<trkpt lat="46.4887223" lon="6.1660542">
<ele>1290.48</ele>
<time>2021-09-02T12:11:43Z</time>
</trkpt>
<trkpt lat="46.4886169" lon="6.1657859">
<ele>1288.81</ele>
<time>2021-09-02T12:11:47Z</time>
</trkpt>
<trkpt lat="46.4885027" lon="6.1655475">
<ele>1289.83</ele>
<time>2021-09-02T12:11:52Z</time>
</trkpt>
<trkpt lat="46.4883810" lon="6.1652946">
<ele>1291.66</ele>
<time>2021-09-02T12:12:00Z</time>
</trkpt>
<trkpt lat="46.4882876" lon="6.1650641">
<ele>1292.79</ele>
<time>2021-09-02T12:12:06Z</time>
</trkpt>
<trkpt lat="46.4881543" lon="6.1648548">
<ele>1293.91</ele>
<time>2021-09-02T12:12:13Z</time>
</trkpt>
<trkpt lat="46.4881029" lon="6.1645927">
<ele>1295.45</ele>
<time>2021-09-02T12:12:20Z</time>
</trkpt>
<trkpt lat="46.4880032" lon="6.1643747">
<ele>1295.86</ele>
<time>2021-09-02T12:13:56Z</time>
</trkpt>
<trkpt lat="46.4879018" lon="6.1641580">
<ele>1296.34</ele>
<time>2021-09-02T12:15:49Z</time>
</trkpt>
<trkpt lat="46.4878335" lon="6.1638964">
<ele>1296.06</ele>
<time>2021-09-02T12:15:56Z</time>
</trkpt>
<trkpt lat="46.4879612" lon="6.1636619">
<ele>1292.82</ele>
<time>2021-09-02T12:16:14Z</time>
</trkpt>
<trkpt lat="46.4881299" lon="6.1635038">
<ele>1291.54</ele>
<time>2021-09-02T12:16:18Z</time>
</trkpt>
<trkpt lat="46.4883428" lon="6.1634640">
<ele>1290.99</ele>
<time>2021-09-02T12:16:22Z</time>
</trkpt>
<trkpt lat="46.4885222" lon="6.1635582">
<ele>1289.36</ele>
<time>2021-09-02T12:16:25Z</time>
</trkpt>
<trkpt lat="46.4887139" lon="6.1636490">
<ele>1287.40</ele>
<time>2021-09-02T12:16:28Z</time>
</trkpt>
<trkpt lat="46.4888565" lon="6.1634335">
<ele>1286.29</ele>
<time>2021-09-02T12:16:33Z</time>
</trkpt>
<trkpt lat="46.4887929" lon="6.1631501">
<ele>1286.05</ele>
<time>2021-09-02T12:16:37Z</time>
</trkpt>
<trkpt lat="46.4887679" lon="6.1628421">
<ele>1285.69</ele>
<time>2021-09-02T12:16:41Z</time>
</trkpt>
<trkpt lat="46.4888378" lon="6.1625489">
<ele>1284.40</ele>
<time>2021-09-02T12:16:45Z</time>
</trkpt>
<trkpt lat="46.4889648" lon="6.1623327">
<ele>1283.73</ele>
<time>2021-09-02T12:16:48Z</time>
</trkpt>
<trkpt lat="46.4891161" lon="6.1621568">
<ele>1282.73</ele>
<time>2021-09-02T12:16:51Z</time>
</trkpt>
<trkpt lat="46.4892771" lon="6.1620218">
<ele>1283.31</ele>
<time>2021-09-02T12:16:54Z</time>
</trkpt>
<trkpt lat="46.4894923" lon="6.1618992">
<ele>1282.10</ele>
<time>2021-09-02T12:16:58Z</time>
</trkpt>
<trkpt lat="46.4896537" lon="6.1617793">
<ele>1281.42</ele>
<time>2021-09-02T12:17:01Z</time>
</trkpt>
<trkpt lat="46.4897976" lon="6.1615952">
<ele>1280.29</ele>
<time>2021-09-02T12:17:04Z</time>
</trkpt>
<trkpt lat="46.4899082" lon="6.1613573">
<ele>1278.75</ele>
<time>2021-09-02T12:17:07Z</time>
</trkpt>
<trkpt lat="46.4899948" lon="6.1611163">
<ele>1277.94</ele>
<time>2021-09-02T12:17:10Z</time>
</trkpt>
<trkpt lat="46.4900556" lon="6.1608632">
<ele>1277.90</ele>
<time>2021-09-02T12:17:14Z</time>
</trkpt>
<trkpt lat="46.4901041" lon="6.1605954">
<ele>1277.61</ele>
<time>2021-09-02T12:17:19Z</time>
</trkpt>
<trkpt lat="46.4901643" lon="6.1603407">
<ele>1278.49</ele>
<time>2021-09-02T12:17:25Z</time>
</trkpt>
<trkpt lat="46.4902099" lon="6.1600384">
<ele>1278.63</ele>
<time>2021-09-02T12:17:31Z</time>
</trkpt>
<trkpt lat="46.4902596" lon="6.1597574">
<ele>1279.02</ele>
<time>2021-09-02T12:17:37Z</time>
</trkpt>
<trkpt lat="46.4903881" lon="6.1595262">
<ele>1280.35</ele>
<time>2021-09-02T12:17:44Z</time>
</trkpt>
<trkpt lat="46.4905474" lon="6.1594042">
<ele>1280.69</ele>
<time>2021-09-02T12:17:50Z</time>
</trkpt>
<trkpt lat="46.4907116" lon="6.1592937">
<ele>1281.41</ele>
<time>2021-09-02T12:17:55Z</time>
</trkpt>
<trkpt lat="46.4908866" lon="6.1591592">
<ele>1281.61</ele>
<time>2021-09-02T12:18:01Z</time>
</trkpt>
<trkpt lat="46.4910757" lon="6.1590768">
<ele>1283.14</ele>
<time>2021-09-02T12:18:07Z</time>
</trkpt>
<trkpt lat="46.4912601" lon="6.1590863">
<ele>1284.90</ele>
<time>2021-09-02T12:18:13Z</time>
</trkpt>
<trkpt lat="46.4914413" lon="6.1591444">
<ele>1285.33</ele>
<time>2021-09-02T12:18:19Z</time>
</trkpt>
<trkpt lat="46.4916301" lon="6.1591826">
<ele>1285.92</ele>
<time>2021-09-02T12:18:26Z</time>
</trkpt>
<trkpt lat="46.4918258" lon="6.1591624">
<ele>1287.63</ele>
<time>2021-09-02T12:18:33Z</time>
</trkpt>
<trkpt lat="46.4920358" lon="6.1591537">
<ele>1288.42</ele>
<time>2021-09-02T12:18:40Z</time>
</trkpt>
<trkpt lat="46.4922264" lon="6.1592303">
<ele>1289.32</ele>
<time>2021-09-02T12:18:47Z</time>
</trkpt>
<trkpt lat="46.4924232" lon="6.1593358">
<ele>1290.26</ele>
<time>2021-09-02T12:18:54Z</time>
</trkpt>
<trkpt lat="46.4926018" lon="6.1594099">
<ele>1291.24</ele>
<time>2021-09-02T12:19:00Z</time>
</trkpt>
<trkpt lat="46.4927939" lon="6.1593051">
<ele>1291.91</ele>
<time>2021-09-02T12:19:07Z</time>
</trkpt>
<trkpt lat="46.4929310" lon="6.1591284">
<ele>1294.44</ele>
<time>2021-09-02T12:19:14Z</time>
</trkpt>
<trkpt lat="46.4930855" lon="6.1589383">
<ele>1295.95</ele>
<time>2021-09-02T12:19:22Z</time>
</trkpt>
<trkpt lat="46.4932360" lon="6.1587700">
<ele>1297.80</ele>
<time>2021-09-02T12:19:29Z</time>
</trkpt>
<trkpt lat="46.4933946" lon="6.1586021">
<ele>1297.96</ele>
<time>2021-09-02T12:19:35Z</time>
</trkpt>
<trkpt lat="46.4935579" lon="6.1584322">
<ele>1296.50</ele>
<time>2021-09-02T12:19:41Z</time>
</trkpt>
<trkpt lat="46.4937669" lon="6.1584284">
<ele>1295.89</ele>
<time>2021-09-02T12:19:48Z</time>
</trkpt>
<trkpt lat="46.4939650" lon="6.1583169">
<ele>1295.79</ele>
<time>2021-09-02T12:19:54Z</time>
</trkpt>
<trkpt lat="46.4941543" lon="6.1582747">
<ele>1294.34</ele>
<time>2021-09-02T12:19:58Z</time>
</trkpt>
<trkpt lat="46.4943194" lon="6.1584731">
<ele>1293.65</ele>
<time>2021-09-02T12:20:03Z</time>
</trkpt>
<trkpt lat="46.4944673" lon="6.1586467">
<ele>1291.22</ele>
<time>2021-09-02T12:20:08Z</time>
</trkpt>
<trkpt lat="46.4945970" lon="6.1588590">
<ele>1288.08</ele>
<time>2021-09-02T12:20:14Z</time>
</trkpt>
<trkpt lat="46.4946670" lon="6.1591149">
<ele>1285.36</ele>
<time>2021-09-02T12:20:18Z</time>
</trkpt>
<trkpt lat="46.4947347" lon="6.1593722">
<ele>1285.13</ele>
<time>2021-09-02T12:20:28Z</time>
</trkpt>
<trkpt lat="46.4947595" lon="6.1596766">
<ele>1286.67</ele>
<time>2021-09-02T12:21:02Z</time>
</trkpt>
<trkpt lat="46.4948207" lon="6.1599589">
<ele>1285.28</ele>
<time>2021-09-02T12:21:07Z</time>
</trkpt>
<trkpt lat="46.4948611" lon="6.1602151">
<ele>1283.44</ele>
<time>2021-09-02T12:21:11Z</time>
</trkpt>
<trkpt lat="46.4948971" lon="6.1605342">
<ele>1281.98</ele>
<time>2021-09-02T12:21:15Z</time>
</trkpt>
<trkpt lat="46.4949391" lon="6.1608816">
<ele>1279.77</ele>
<time>2021-09-02T12:21:19Z</time>
</trkpt>
<trkpt lat="46.4950016" lon="6.1611457">
<ele>1278.54</ele>
<time>2021-09-02T12:21:22Z</time>
</trkpt>
<trkpt lat="46.4950785" lon="6.1614505">
<ele>1277.56</ele>
<time>2021-09-02T12:21:26Z</time>
</trkpt>
<trkpt lat="46.4951291" lon="6.1617630">
<ele>1276.82</ele>
<time>2021-09-02T12:21:30Z</time>
</trkpt>
<trkpt lat="46.4951581" lon="6.1620986">
<ele>1275.47</ele>
<time>2021-09-02T12:21:34Z</time>
</trkpt>
<trkpt lat="46.4952123" lon="6.1624198">
<ele>1273.98</ele>
<time>2021-09-02T12:21:38Z</time>
</trkpt>
<trkpt lat="46.4953058" lon="6.1626980">
<ele>1273.33</ele>
<time>2021-09-02T12:21:42Z</time>
</trkpt>
<trkpt lat="46.4953787" lon="6.1629848">
<ele>1273.74</ele>
<time>2021-09-02T12:21:47Z</time>
</trkpt>
<trkpt lat="46.4954715" lon="6.1632389">
<ele>1273.57</ele>
<time>2021-09-02T12:21:52Z</time>
</trkpt>
<trkpt lat="46.4955503" lon="6.1634915">
<ele>1273.88</ele>
<time>2021-09-02T12:21:58Z</time>
</trkpt>
<trkpt lat="46.4956446" lon="6.1637617">
<ele>1272.91</ele>
<time>2021-09-02T12:22:04Z</time>
</trkpt>
<trkpt lat="46.4957207" lon="6.1640070">
<ele>1273.30</ele>
<time>2021-09-02T12:22:09Z</time>
</trkpt>
<trkpt lat="46.4958070" lon="6.1642412">
<ele>1272.64</ele>
<time>2021-09-02T12:22:14Z</time>
</trkpt>
<trkpt lat="46.4959135" lon="6.1644999">
<ele>1274.55</ele>
<time>2021-09-02T12:22:20Z</time>
</trkpt>
<trkpt lat="46.4960682" lon="6.1646871">
<ele>1275.46</ele>
<time>2021-09-02T12:22:26Z</time>
</trkpt>
<trkpt lat="46.4962176" lon="6.1648332">
<ele>1276.48</ele>
<time>2021-09-02T12:22:31Z</time>
</trkpt>
<trkpt lat="46.4963715" lon="6.1650089">
<ele>1275.84</ele>
<time>2021-09-02T12:22:36Z</time>
</trkpt>
<trkpt lat="46.4965172" lon="6.1652212">
<ele>1275.44</ele>
<time>2021-09-02T12:22:41Z</time>
</trkpt>
<trkpt lat="46.4966458" lon="6.1654240">
<ele>1275.17</ele>
<time>2021-09-02T12:22:45Z</time>
</trkpt>
<trkpt lat="46.4968076" lon="6.1655759">
<ele>1274.87</ele>
<time>2021-09-02T12:22:49Z</time>
</trkpt>
<trkpt lat="46.4970016" lon="6.1656566">
<ele>1274.23</ele>
<time>2021-09-02T12:22:53Z</time>
</trkpt>
<trkpt lat="46.4971862" lon="6.1658134">
<ele>1272.59</ele>
<time>2021-09-02T12:22:57Z</time>
</trkpt>
<trkpt lat="46.4972582" lon="6.1661141">
<ele>1271.62</ele>
<time>2021-09-02T12:23:01Z</time>
</trkpt>
<trkpt lat="46.4972644" lon="6.1664621">
<ele>1269.95</ele>
<time>2021-09-02T12:23:05Z</time>
</trkpt>
<trkpt lat="46.4973092" lon="6.1667711">
<ele>1267.27</ele>
<time>2021-09-02T12:23:08Z</time>
</trkpt>
<trkpt lat="46.4973833" lon="6.1670575">
<ele>1266.91</ele>
<time>2021-09-02T12:23:11Z</time>
</trkpt>
<trkpt lat="46.4974508" lon="6.1673429">
<ele>1266.82</ele>
<time>2021-09-02T12:23:14Z</time>
</trkpt>
<trkpt lat="46.4975163" lon="6.1675886">
<ele>1266.50</ele>
<time>2021-09-02T12:23:17Z</time>
</trkpt>
<trkpt lat="46.4976017" lon="6.1678957">
<ele>1265.46</ele>
<time>2021-09-02T12:23:21Z</time>
</trkpt>
<trkpt lat="46.4976894" lon="6.1681573">
<ele>1264.94</ele>
<time>2021-09-02T12:23:25Z</time>
</trkpt>
<trkpt lat="46.4978014" lon="6.1683969">
<ele>1264.72</ele>
<time>2021-09-02T12:23:30Z</time>
</trkpt>
<trkpt lat="46.4979688" lon="6.1682968">
<ele>1267.37</ele>
<time>2021-09-02T12:25:17Z</time>
</trkpt>
<trkpt lat="46.4980599" lon="6.1680674">
<ele>1271.53</ele>
<time>2021-09-02T12:25:37Z</time>
</trkpt>
<trkpt lat="46.4979746" lon="6.1683136">
<ele>1272.11</ele>
<time>2021-09-02T12:39:08Z</time>
</trkpt>
<trkpt lat="46.4979181" lon="6.1685698">
<ele>1266.38</ele>
<time>2021-09-02T12:40:05Z</time>
</trkpt>
<trkpt lat="46.4980002" lon="6.1688255">
<ele>1264.03</ele>
<time>2021-09-02T12:40:16Z</time>
</trkpt>
<trkpt lat="46.4980968" lon="6.1690491">
<ele>1263.45</ele>
<time>2021-09-02T12:40:20Z</time>
</trkpt>
<trkpt lat="46.4982116" lon="6.1693159">
<ele>1263.76</ele>
<time>2021-09-02T12:40:27Z</time>
</trkpt>
<trkpt lat="46.4983271" lon="6.1695508">
<ele>1263.73</ele>
<time>2021-09-02T12:40:33Z</time>
</trkpt>
<trkpt lat="46.4984347" lon="6.1697929">
<ele>1262.58</ele>
<time>2021-09-02T12:40:38Z</time>
</trkpt>
<trkpt lat="46.4985396" lon="6.1700359">
<ele>1262.74</ele>
<time>2021-09-02T12:40:43Z</time>
</trkpt>
<trkpt lat="46.4986335" lon="6.1702789">
<ele>1263.59</ele>
<time>2021-09-02T12:40:48Z</time>
</trkpt>
<trkpt lat="46.4986862" lon="6.1705573">
<ele>1263.74</ele>
<time>2021-09-02T12:40:53Z</time>
</trkpt>
<trkpt lat="46.4987099" lon="6.1708333">
<ele>1264.51</ele>
<time>2021-09-02T12:40:58Z</time>
</trkpt>
<trkpt lat="46.4986939" lon="6.1710936">
<ele>1265.59</ele>
<time>2021-09-02T12:41:03Z</time>
</trkpt>
<trkpt lat="46.4986369" lon="6.1713733">
<ele>1266.98</ele>
<time>2021-09-02T12:41:08Z</time>
</trkpt>
<trkpt lat="46.4985763" lon="6.1716390">
<ele>1266.86</ele>
<time>2021-09-02T12:41:13Z</time>
</trkpt>
<trkpt lat="46.4985473" lon="6.1719027">
<ele>1267.13</ele>
<time>2021-09-02T12:41:18Z</time>
</trkpt>
<trkpt lat="46.4986197" lon="6.1721534">
<ele>1269.19</ele>
<time>2021-09-02T12:41:23Z</time>
</trkpt>
<trkpt lat="46.4987678" lon="6.1723236">
<ele>1268.63</ele>
<time>2021-09-02T12:41:28Z</time>
</trkpt>
<trkpt lat="46.4989545" lon="6.1724585">
<ele>1269.85</ele>
<time>2021-09-02T12:41:33Z</time>
</trkpt>
<trkpt lat="46.4991342" lon="6.1725683">
<ele>1270.88</ele>
<time>2021-09-02T12:41:38Z</time>
</trkpt>
<trkpt lat="46.4993081" lon="6.1726870">
<ele>1270.38</ele>
<time>2021-09-02T12:41:43Z</time>
</trkpt>
<trkpt lat="46.4994937" lon="6.1727928">
<ele>1270.21</ele>
<time>2021-09-02T12:41:48Z</time>
</trkpt>
<trkpt lat="46.4996749" lon="6.1729149">
<ele>1269.92</ele>
<time>2021-09-02T12:41:53Z</time>
</trkpt>
<trkpt lat="46.4998696" lon="6.1730126">
<ele>1269.82</ele>
<time>2021-09-02T12:41:58Z</time>
</trkpt>
<trkpt lat="46.5000579" lon="6.1731280">
<ele>1271.44</ele>
<time>2021-09-02T12:42:03Z</time>
</trkpt>
<trkpt lat="46.5002203" lon="6.1733015">
<ele>1271.10</ele>
<time>2021-09-02T12:42:08Z</time>
</trkpt>
<trkpt lat="46.5003436" lon="6.1735334">
<ele>1270.51</ele>
<time>2021-09-02T12:42:13Z</time>
</trkpt>
<trkpt lat="46.5003340" lon="6.1737971">
<ele>1270.94</ele>
<time>2021-09-02T12:42:17Z</time>
</trkpt>
<trkpt lat="46.5002710" lon="6.1740445">
<ele>1271.80</ele>
<time>2021-09-02T12:42:22Z</time>
</trkpt>
<trkpt lat="46.5002101" lon="6.1742970">
<ele>1272.84</ele>
<time>2021-09-02T12:42:27Z</time>
</trkpt>
<trkpt lat="46.5001686" lon="6.1745704">
<ele>1271.28</ele>
<time>2021-09-02T12:42:32Z</time>
</trkpt>
<trkpt lat="46.5001567" lon="6.1748412">
<ele>1272.30</ele>
<time>2021-09-02T12:42:37Z</time>
</trkpt>
<trkpt lat="46.5002251" lon="6.1751521">
<ele>1270.71</ele>
<time>2021-09-02T12:42:42Z</time>
</trkpt>
<trkpt lat="46.5003125" lon="6.1754396">
<ele>1270.00</ele>
<time>2021-09-02T12:42:46Z</time>
</trkpt>
<trkpt lat="46.5004305" lon="6.1757085">
<ele>1269.79</ele>
<time>2021-09-02T12:42:50Z</time>
</trkpt>
<trkpt lat="46.5005461" lon="6.1759688">
<ele>1270.14</ele>
<time>2021-09-02T12:42:54Z</time>
</trkpt>
<trkpt lat="46.5006952" lon="6.1761627">
<ele>1269.11</ele>
<time>2021-09-02T12:42:58Z</time>
</trkpt>
<trkpt lat="46.5008744" lon="6.1763653">
<ele>1268.90</ele>
<time>2021-09-02T12:43:02Z</time>
</trkpt>
<trkpt lat="46.5010636" lon="6.1765760">
<ele>1269.56</ele>
<time>2021-09-02T12:43:06Z</time>
</trkpt>
<trkpt lat="46.5012028" lon="6.1767442">
<ele>1268.33</ele>
<time>2021-09-02T12:43:09Z</time>
</trkpt>
<trkpt lat="46.5013655" lon="6.1769392">
<ele>1266.85</ele>
<time>2021-09-02T12:43:13Z</time>
</trkpt>
<trkpt lat="46.5014939" lon="6.1771238">
<ele>1265.87</ele>
<time>2021-09-02T12:43:17Z</time>
</trkpt>
<trkpt lat="46.5014151" lon="6.1768813">
<ele>1262.51</ele>
<time>2021-09-02T12:47:11Z</time>
</trkpt>
<trkpt lat="46.5015189" lon="6.1771182">
<ele>1264.92</ele>
<time>2021-09-02T13:11:47Z</time>
</trkpt>
<trkpt lat="46.5015900" lon="6.1773925">
<ele>1263.85</ele>
<time>2021-09-02T13:11:52Z</time>
</trkpt>
<trkpt lat="46.5015309" lon="6.1776400">
<ele>1261.61</ele>
<time>2021-09-02T13:12:06Z</time>
</trkpt>
<trkpt lat="46.5016195" lon="6.1773750">
<ele>1262.96</ele>
<time>2021-09-02T13:12:29Z</time>
</trkpt>
<trkpt lat="46.5015347" lon="6.1771114">
<ele>1262.39</ele>
<time>2021-09-02T13:12:35Z</time>
</trkpt>
<trkpt lat="46.5013970" lon="6.1769373">
<ele>1263.17</ele>
<time>2021-09-02T13:12:40Z</time>
</trkpt>
<trkpt lat="46.5012358" lon="6.1767471">
<ele>1264.84</ele>
<time>2021-09-02T13:12:47Z</time>
</trkpt>
<trkpt lat="46.5010924" lon="6.1765889">
<ele>1264.94</ele>
<time>2021-09-02T13:12:53Z</time>
</trkpt>
<trkpt lat="46.5009406" lon="6.1764004">
<ele>1265.39</ele>
<time>2021-09-02T13:13:00Z</time>
</trkpt>
<trkpt lat="46.5007825" lon="6.1762120">
<ele>1266.86</ele>
<time>2021-09-02T13:13:07Z</time>
</trkpt>
<trkpt lat="46.5006281" lon="6.1760318">
<ele>1265.62</ele>
<time>2021-09-02T13:13:14Z</time>
</trkpt>
<trkpt lat="46.5004938" lon="6.1758124">
<ele>1267.00</ele>
<time>2021-09-02T13:13:21Z</time>
</trkpt>
<trkpt lat="46.5003906" lon="6.1755831">
<ele>1269.11</ele>
<time>2021-09-02T13:13:27Z</time>
</trkpt>
<trkpt lat="46.5003045" lon="6.1753231">
<ele>1270.35</ele>
<time>2021-09-02T13:13:34Z</time>
</trkpt>
<trkpt lat="46.5002348" lon="6.1750789">
<ele>1272.44</ele>
<time>2021-09-02T13:13:40Z</time>
</trkpt>
<trkpt lat="46.5001866" lon="6.1747940">
<ele>1272.87</ele>
<time>2021-09-02T13:13:48Z</time>
</trkpt>
<trkpt lat="46.5001983" lon="6.1745315">
<ele>1272.23</ele>
<time>2021-09-02T13:13:54Z</time>
</trkpt>
<trkpt lat="46.5002438" lon="6.1742533">
<ele>1271.55</ele>
<time>2021-09-02T13:14:00Z</time>
</trkpt>
<trkpt lat="46.5003044" lon="6.1739918">
<ele>1270.77</ele>
<time>2021-09-02T13:14:05Z</time>
</trkpt>
<trkpt lat="46.5003502" lon="6.1736878">
<ele>1268.20</ele>
<time>2021-09-02T13:14:10Z</time>
</trkpt>
<trkpt lat="46.5002796" lon="6.1734111">
<ele>1268.28</ele>
<time>2021-09-02T13:14:14Z</time>
</trkpt>
<trkpt lat="46.5001321" lon="6.1732351">
<ele>1267.54</ele>
<time>2021-09-02T13:14:18Z</time>
</trkpt>
<trkpt lat="46.4999744" lon="6.1731040">
<ele>1267.66</ele>
<time>2021-09-02T13:14:22Z</time>
</trkpt>
<trkpt lat="46.4997989" lon="6.1729264">
<ele>1266.69</ele>
<time>2021-09-02T13:14:27Z</time>
</trkpt>
<trkpt lat="46.4996259" lon="6.1728101">
<ele>1265.19</ele>
<time>2021-09-02T13:14:31Z</time>
</trkpt>
<trkpt lat="46.4994450" lon="6.1726988">
<ele>1265.75</ele>
<time>2021-09-02T13:14:35Z</time>
</trkpt>
<trkpt lat="46.4992395" lon="6.1725589">
<ele>1266.00</ele>
<time>2021-09-02T13:14:40Z</time>
</trkpt>
<trkpt lat="46.4990460" lon="6.1724507">
<ele>1266.55</ele>
<time>2021-09-02T13:14:44Z</time>
</trkpt>
<trkpt lat="46.4988381" lon="6.1723124">
<ele>1265.97</ele>
<time>2021-09-02T13:14:48Z</time>
</trkpt>
<trkpt lat="46.4986392" lon="6.1721521">
<ele>1265.27</ele>
<time>2021-09-02T13:14:52Z</time>
</trkpt>
<trkpt lat="46.4985695" lon="6.1718644">
<ele>1264.41</ele>
<time>2021-09-02T13:14:56Z</time>
</trkpt>
<trkpt lat="46.4986146" lon="6.1715688">
<ele>1266.41</ele>
<time>2021-09-02T13:15:00Z</time>
</trkpt>
<trkpt lat="46.4986825" lon="6.1712794">
<ele>1267.03</ele>
<time>2021-09-02T13:15:04Z</time>
</trkpt>
<trkpt lat="46.4987800" lon="6.1710229">
<ele>1266.15</ele>
<time>2021-09-02T13:15:08Z</time>
</trkpt>
<trkpt lat="46.4989070" lon="6.1707968">
<ele>1266.83</ele>
<time>2021-09-02T13:15:13Z</time>
</trkpt>
<trkpt lat="46.4990924" lon="6.1706699">
<ele>1268.28</ele>
<time>2021-09-02T13:15:19Z</time>
</trkpt>
<trkpt lat="46.4992881" lon="6.1706094">
<ele>1267.07</ele>
<time>2021-09-02T13:15:24Z</time>
</trkpt>
<trkpt lat="46.4994703" lon="6.1705664">
<ele>1267.27</ele>
<time>2021-09-02T13:15:29Z</time>
</trkpt>
<trkpt lat="46.4996482" lon="6.1704917">
<ele>1267.39</ele>
<time>2021-09-02T13:15:34Z</time>
</trkpt>
<trkpt lat="46.4998355" lon="6.1704441">
<ele>1268.39</ele>
<time>2021-09-02T13:15:40Z</time>
</trkpt>
<trkpt lat="46.5000237" lon="6.1704488">
<ele>1270.58</ele>
<time>2021-09-02T13:15:49Z</time>
</trkpt>
<trkpt lat="46.5002095" lon="6.1704803">
<ele>1273.59</ele>
<time>2021-09-02T13:16:17Z</time>
</trkpt>
<trkpt lat="46.5003891" lon="6.1705455">
<ele>1274.81</ele>
<time>2021-09-02T13:16:22Z</time>
</trkpt>
<trkpt lat="46.5005893" lon="6.1706719">
<ele>1274.11</ele>
<time>2021-09-02T13:16:27Z</time>
</trkpt>
<trkpt lat="46.5007533" lon="6.1707876">
<ele>1276.98</ele>
<time>2021-09-02T13:16:34Z</time>
</trkpt>
<trkpt lat="46.5009057" lon="6.1709464">
<ele>1278.49</ele>
<time>2021-09-02T13:16:41Z</time>
</trkpt>
<trkpt lat="46.5009842" lon="6.1711859">
<ele>1280.06</ele>
<time>2021-09-02T13:16:48Z</time>
</trkpt>
<trkpt lat="46.5009763" lon="6.1714744">
<ele>1280.48</ele>
<time>2021-09-02T13:16:58Z</time>
</trkpt>
<trkpt lat="46.5009872" lon="6.1717379">
<ele>1284.02</ele>
<time>2021-09-02T13:17:08Z</time>
</trkpt>
<trkpt lat="46.5010884" lon="6.1719691">
<ele>1280.04</ele>
<time>2021-09-02T13:17:19Z</time>
</trkpt>
<trkpt lat="46.5012268" lon="6.1721616">
<ele>1279.53</ele>
<time>2021-09-02T13:17:29Z</time>
</trkpt>
<trkpt lat="46.5013721" lon="6.1723241">
<ele>1281.23</ele>
<time>2021-09-02T13:17:38Z</time>
</trkpt>
<trkpt lat="46.5015359" lon="6.1724708">
<ele>1281.42</ele>
<time>2021-09-02T13:17:48Z</time>
</trkpt>
<trkpt lat="46.5016745" lon="6.1726479">
<ele>1284.31</ele>
<time>2021-09-02T13:17:56Z</time>
</trkpt>
<trkpt lat="46.5017756" lon="6.1728863">
<ele>1286.98</ele>
<time>2021-09-02T13:18:05Z</time>
</trkpt>
<trkpt lat="46.5019221" lon="6.1730452">
<ele>1290.49</ele>
<time>2021-09-02T13:18:14Z</time>
</trkpt>
<trkpt lat="46.5021087" lon="6.1731202">
<ele>1292.85</ele>
<time>2021-09-02T13:18:20Z</time>
</trkpt>
<trkpt lat="46.5022947" lon="6.1730108">
<ele>1296.21</ele>
<time>2021-09-02T13:18:28Z</time>
</trkpt>
<trkpt lat="46.5024452" lon="6.1727921">
<ele>1295.89</ele>
<time>2021-09-02T13:18:35Z</time>
</trkpt>
<trkpt lat="46.5026056" lon="6.1726339">
<ele>1294.53</ele>
<time>2021-09-02T13:18:41Z</time>
</trkpt>
<trkpt lat="46.5027721" lon="6.1724754">
<ele>1292.46</ele>
<time>2021-09-02T13:18:47Z</time>
</trkpt>
<trkpt lat="46.5029361" lon="6.1723108">
<ele>1290.38</ele>
<time>2021-09-02T13:18:52Z</time>
</trkpt>
<trkpt lat="46.5031314" lon="6.1722012">
<ele>1289.45</ele>
<time>2021-09-02T13:18:57Z</time>
</trkpt>
<trkpt lat="46.5033217" lon="6.1722002">
<ele>1290.08</ele>
<time>2021-09-02T13:19:02Z</time>
</trkpt>
<trkpt lat="46.5035301" lon="6.1721779">
<ele>1291.11</ele>
<time>2021-09-02T13:19:07Z</time>
</trkpt>
<trkpt lat="46.5037385" lon="6.1722441">
<ele>1292.10</ele>
<time>2021-09-02T13:19:12Z</time>
</trkpt>
<trkpt lat="46.5039244" lon="6.1722602">
<ele>1292.92</ele>
<time>2021-09-02T13:19:17Z</time>
</trkpt>
<trkpt lat="46.5040948" lon="6.1723472">
<ele>1292.71</ele>
<time>2021-09-02T13:19:23Z</time>
</trkpt>
<trkpt lat="46.5042805" lon="6.1724395">
<ele>1294.02</ele>
<time>2021-09-02T13:19:27Z</time>
</trkpt>
<trkpt lat="46.5044419" lon="6.1726251">
<ele>1292.36</ele>
<time>2021-09-02T13:19:32Z</time>
</trkpt>
<trkpt lat="46.5046001" lon="6.1728096">
<ele>1293.59</ele>
<time>2021-09-02T13:19:37Z</time>
</trkpt>
<trkpt lat="46.5047263" lon="6.1730183">
<ele>1292.96</ele>
<time>2021-09-02T13:19:41Z</time>
</trkpt>
<trkpt lat="46.5048382" lon="6.1733891">
<ele>1293.90</ele>
<time>2021-09-02T13:19:46Z</time>
</trkpt>
<trkpt lat="46.5048090" lon="6.1736938">
<ele>1292.95</ele>
<time>2021-09-02T13:19:51Z</time>
</trkpt>
<trkpt lat="46.5046920" lon="6.1738988">
<ele>1292.60</ele>
<time>2021-09-02T13:19:55Z</time>
</trkpt>
<trkpt lat="46.5046406" lon="6.1741548">
<ele>1290.94</ele>
<time>2021-09-02T13:19:59Z</time>
</trkpt>
<trkpt lat="46.5045773" lon="6.1744617">
<ele>1290.88</ele>
<time>2021-09-02T13:20:04Z</time>
</trkpt>
<trkpt lat="46.5044814" lon="6.1747347">
<ele>1293.28</ele>
<time>2021-09-02T13:20:08Z</time>
</trkpt>
<trkpt lat="46.5044406" lon="6.1750158">
<ele>1293.29</ele>
<time>2021-09-02T13:20:12Z</time>
</trkpt>
<trkpt lat="46.5044663" lon="6.1752883">
<ele>1291.66</ele>
<time>2021-09-02T13:20:16Z</time>
</trkpt>
<trkpt lat="46.5045845" lon="6.1755807">
<ele>1290.92</ele>
<time>2021-09-02T13:20:20Z</time>
</trkpt>
<trkpt lat="46.5047453" lon="6.1757946">
<ele>1292.84</ele>
<time>2021-09-02T13:20:25Z</time>
</trkpt>
<trkpt lat="46.5049036" lon="6.1759602">
<ele>1296.02</ele>
<time>2021-09-02T13:20:29Z</time>
</trkpt>
<trkpt lat="46.5050863" lon="6.1761384">
<ele>1301.97</ele>
<time>2021-09-02T13:20:35Z</time>
</trkpt>
<trkpt lat="46.5052666" lon="6.1761646">
<ele>1301.26</ele>
<time>2021-09-02T13:20:41Z</time>
</trkpt>
<trkpt lat="46.5054624" lon="6.1759312">
<ele>1299.92</ele>
<time>2021-09-02T13:20:47Z</time>
</trkpt>
<trkpt lat="46.5055724" lon="6.1757058">
<ele>1301.29</ele>
<time>2021-09-02T13:20:52Z</time>
</trkpt>
<trkpt lat="46.5057506" lon="6.1754495">
<ele>1301.57</ele>
<time>2021-09-02T13:20:59Z</time>
</trkpt>
<trkpt lat="46.5058765" lon="6.1752117">
<ele>1302.18</ele>
<time>2021-09-02T13:21:06Z</time>
</trkpt>
<trkpt lat="46.5060420" lon="6.1750461">
<ele>1304.38</ele>
<time>2021-09-02T13:21:11Z</time>
</trkpt>
<trkpt lat="46.5061938" lon="6.1748687">
<ele>1305.06</ele>
<time>2021-09-02T13:21:20Z</time>
</trkpt>
<trkpt lat="46.5061692" lon="6.1745892">
<ele>1305.13</ele>
<time>2021-09-02T13:21:28Z</time>
</trkpt>
<trkpt lat="46.5061952" lon="6.1743194">
<ele>1303.62</ele>
<time>2021-09-02T13:21:35Z</time>
</trkpt>
<trkpt lat="46.5062602" lon="6.1740648">
<ele>1305.10</ele>
<time>2021-09-02T13:21:41Z</time>
</trkpt>
<trkpt lat="46.5063022" lon="6.1737989">
<ele>1307.06</ele>
<time>2021-09-02T13:21:46Z</time>
</trkpt>
<trkpt lat="46.5063459" lon="6.1734713">
<ele>1309.73</ele>
<time>2021-09-02T13:21:53Z</time>
</trkpt>
<trkpt lat="46.5064073" lon="6.1732025">
<ele>1308.68</ele>
<time>2021-09-02T13:21:58Z</time>
</trkpt>
<trkpt lat="46.5065102" lon="6.1729878">
<ele>1311.27</ele>
<time>2021-09-02T13:22:04Z</time>
</trkpt>
<trkpt lat="46.5066578" lon="6.1728029">
<ele>1314.97</ele>
<time>2021-09-02T13:22:14Z</time>
</trkpt>
<trkpt lat="46.5068058" lon="6.1726308">
<ele>1319.33</ele>
<time>2021-09-02T13:22:24Z</time>
</trkpt>
<trkpt lat="46.5069137" lon="6.1724212">
<ele>1317.72</ele>
<time>2021-09-02T13:22:32Z</time>
</trkpt>
<trkpt lat="46.5070300" lon="6.1721920">
<ele>1319.03</ele>
<time>2021-09-02T13:22:40Z</time>
</trkpt>
<trkpt lat="46.5071658" lon="6.1720187">
<ele>1321.06</ele>
<time>2021-09-02T13:22:47Z</time>
</trkpt>
<trkpt lat="46.5073725" lon="6.1720062">
<ele>1324.22</ele>
<time>2021-09-02T13:22:52Z</time>
</trkpt>
<trkpt lat="46.5075771" lon="6.1720874">
<ele>1323.45</ele>
<time>2021-09-02T13:22:57Z</time>
</trkpt>
<trkpt lat="46.5077648" lon="6.1721421">
<ele>1321.14</ele>
<time>2021-09-02T13:23:02Z</time>
</trkpt>
<trkpt lat="46.5079464" lon="6.1721472">
<ele>1320.53</ele>
<time>2021-09-02T13:23:09Z</time>
</trkpt>
<trkpt lat="46.5081035" lon="6.1719669">
<ele>1324.70</ele>
<time>2021-09-02T13:23:21Z</time>
</trkpt>
<trkpt lat="46.5082673" lon="6.1718458">
<ele>1330.30</ele>
<time>2021-09-02T13:23:34Z</time>
</trkpt>
<trkpt lat="46.5084547" lon="6.1718791">
<ele>1334.42</ele>
<time>2021-09-02T13:23:45Z</time>
</trkpt>
<trkpt lat="46.5086498" lon="6.1718548">
<ele>1337.51</ele>
<time>2021-09-02T13:23:58Z</time>
</trkpt>
<trkpt lat="46.5088383" lon="6.1717942">
<ele>1342.92</ele>
<time>2021-09-02T13:24:10Z</time>
</trkpt>
<trkpt lat="46.5089868" lon="6.1716423">
<ele>1343.51</ele>
<time>2021-09-02T13:24:20Z</time>
</trkpt>
<trkpt lat="46.5091525" lon="6.1715278">
<ele>1347.33</ele>
<time>2021-09-02T13:24:30Z</time>
</trkpt>
<trkpt lat="46.5093458" lon="6.1714675">
<ele>1348.76</ele>
<time>2021-09-02T13:24:43Z</time>
</trkpt>
<trkpt lat="46.5095275" lon="6.1715684">
<ele>1348.50</ele>
<time>2021-09-02T13:24:57Z</time>
</trkpt>
<trkpt lat="46.5096999" lon="6.1714393">
<ele>1353.08</ele>
<time>2021-09-02T13:25:09Z</time>
</trkpt>
<trkpt lat="46.5096911" lon="6.1711757">
<ele>1355.33</ele>
<time>2021-09-02T13:25:20Z</time>
</trkpt>
<trkpt lat="46.5096180" lon="6.1709323">
<ele>1356.85</ele>
<time>2021-09-02T13:25:29Z</time>
</trkpt>
<trkpt lat="46.5094585" lon="6.1707925">
<ele>1362.39</ele>
<time>2021-09-02T13:27:06Z</time>
</trkpt>
<trkpt lat="46.5093373" lon="6.1705840">
<ele>1363.75</ele>
<time>2021-09-02T13:27:20Z</time>
</trkpt>
<trkpt lat="46.5092442" lon="6.1703419">
<ele>1364.37</ele>
<time>2021-09-02T13:27:32Z</time>
</trkpt>
<trkpt lat="46.5091128" lon="6.1701571">
<ele>1364.95</ele>
<time>2021-09-02T13:27:42Z</time>
</trkpt>
<trkpt lat="46.5091661" lon="6.1699029">
<ele>1367.80</ele>
<time>2021-09-02T13:28:01Z</time>
</trkpt>
<trkpt lat="46.5093161" lon="6.1700722">
<ele>1375.77</ele>
<time>2021-09-02T13:28:16Z</time>
</trkpt>
<trkpt lat="46.5094845" lon="6.1701663">
<ele>1378.80</ele>
<time>2021-09-02T13:28:29Z</time>
</trkpt>
<trkpt lat="46.5096713" lon="6.1701486">
<ele>1380.68</ele>
<time>2021-09-02T13:28:41Z</time>
</trkpt>
<trkpt lat="46.5098450" lon="6.1700793">
<ele>1387.86</ele>
<time>2021-09-02T13:28:55Z</time>
</trkpt>
<trkpt lat="46.5099952" lon="6.1699172">
<ele>1396.09</ele>
<time>2021-09-02T13:29:08Z</time>
</trkpt>
<trkpt lat="46.5101333" lon="6.1697465">
<ele>1398.65</ele>
<time>2021-09-02T13:29:19Z</time>
</trkpt>
<trkpt lat="46.5102806" lon="6.1695623">
<ele>1399.78</ele>
<time>2021-09-02T13:29:30Z</time>
</trkpt>
<trkpt lat="46.5104428" lon="6.1694135">
<ele>1404.36</ele>
<time>2021-09-02T13:29:37Z</time>
</trkpt>
<trkpt lat="46.5105401" lon="6.1691906">
<ele>1409.34</ele>
<time>2021-09-02T13:29:54Z</time>
</trkpt>
<trkpt lat="46.5106797" lon="6.1690241">
<ele>1411.02</ele>
<time>2021-09-02T13:30:12Z</time>
</trkpt>
<trkpt lat="46.5106880" lon="6.1687583">
<ele>1408.97</ele>
<time>2021-09-02T13:30:34Z</time>
</trkpt>
<trkpt lat="46.5106337" lon="6.1685014">
<ele>1410.02</ele>
<time>2021-09-02T13:30:43Z</time>
</trkpt>
<trkpt lat="46.5106817" lon="6.1682268">
<ele>1410.52</ele>
<time>2021-09-02T13:30:53Z</time>
</trkpt>
<trkpt lat="46.5108016" lon="6.1680097">
<ele>1410.97</ele>
<time>2021-09-02T13:31:45Z</time>
</trkpt>
<trkpt lat="46.5108941" lon="6.1677765">
<ele>1410.85</ele>
<time>2021-09-02T13:31:56Z</time>
</trkpt>
<trkpt lat="46.5110304" lon="6.1676022">
<ele>1407.88</ele>
<time>2021-09-02T13:32:07Z</time>
</trkpt>
<trkpt lat="46.5111999" lon="6.1673541">
<ele>1412.33</ele>
<time>2021-09-02T13:32:41Z</time>
</trkpt>
<trkpt lat="46.5112736" lon="6.1670999">
<ele>1410.87</ele>
<time>2021-09-02T13:34:39Z</time>
</trkpt>
<trkpt lat="46.5112667" lon="6.1668230">
<ele>1410.57</ele>
<time>2021-09-02T13:34:46Z</time>
</trkpt>
<trkpt lat="46.5112661" lon="6.1665350">
<ele>1410.11</ele>
<time>2021-09-02T13:34:49Z</time>
</trkpt>
<trkpt lat="46.5112614" lon="6.1662646">
<ele>1412.48</ele>
<time>2021-09-02T13:35:08Z</time>
</trkpt>
<trkpt lat="46.5112598" lon="6.1659953">
<ele>1413.16</ele>
<time>2021-09-02T13:35:15Z</time>
</trkpt>
<trkpt lat="46.5112256" lon="6.1657142">
<ele>1413.10</ele>
<time>2021-09-02T13:35:23Z</time>
</trkpt>
<trkpt lat="46.5111690" lon="6.1654557">
<ele>1413.50</ele>
<time>2021-09-02T13:35:29Z</time>
</trkpt>
<trkpt lat="46.5110830" lon="6.1652071">
<ele>1413.89</ele>
<time>2021-09-02T13:35:36Z</time>
</trkpt>
<trkpt lat="46.5109651" lon="6.1649992">
<ele>1414.31</ele>
<time>2021-09-02T13:35:44Z</time>
</trkpt>
<trkpt lat="46.5108411" lon="6.1648094">
<ele>1415.83</ele>
<time>2021-09-02T13:35:53Z</time>
</trkpt>
<trkpt lat="46.5107122" lon="6.1646107">
<ele>1421.21</ele>
<time>2021-09-02T13:36:32Z</time>
</trkpt>
<trkpt lat="46.5105634" lon="6.1644499">
<ele>1425.87</ele>
<time>2021-09-02T13:38:30Z</time>
</trkpt>
<trkpt lat="46.5104123" lon="6.1642812">
<ele>1429.75</ele>
<time>2021-09-02T13:38:40Z</time>
</trkpt>
<trkpt lat="46.5102371" lon="6.1642204">
<ele>1431.88</ele>
<time>2021-09-02T13:38:50Z</time>
</trkpt>
<trkpt lat="46.5101661" lon="6.1639773">
<ele>1433.11</ele>
<time>2021-09-02T13:39:01Z</time>
</trkpt>
<trkpt lat="46.5100675" lon="6.1637446">
<ele>1431.71</ele>
<time>2021-09-02T13:39:13Z</time>
</trkpt>
<trkpt lat="46.5099592" lon="6.1635057">
<ele>1433.48</ele>
<time>2021-09-02T13:39:24Z</time>
</trkpt>
<trkpt lat="46.5098734" lon="6.1632491">
<ele>1435.34</ele>
<time>2021-09-02T13:39:35Z</time>
</trkpt>
<trkpt lat="46.5097542" lon="6.1630483">
<ele>1438.77</ele>
<time>2021-09-02T13:39:48Z</time>
</trkpt>
<trkpt lat="46.5096064" lon="6.1628713">
<ele>1440.30</ele>
<time>2021-09-02T13:39:57Z</time>
</trkpt>
<trkpt lat="46.5095036" lon="6.1626497">
<ele>1441.79</ele>
<time>2021-09-02T13:40:08Z</time>
</trkpt>
<trkpt lat="46.5093850" lon="6.1624007">
<ele>1443.77</ele>
<time>2021-09-02T13:40:17Z</time>
</trkpt>
<trkpt lat="46.5092723" lon="6.1621776">
<ele>1444.07</ele>
<time>2021-09-02T13:40:24Z</time>
</trkpt>
<trkpt lat="46.5092284" lon="6.1618930">
<ele>1445.17</ele>
<time>2021-09-02T13:40:32Z</time>
</trkpt>
<trkpt lat="46.5093176" lon="6.1616537">
<ele>1444.49</ele>
<time>2021-09-02T13:40:42Z</time>
</trkpt>
<trkpt lat="46.5095591" lon="6.1615009">
<ele>1445.03</ele>
<time>2021-09-02T13:40:48Z</time>
</trkpt>
<trkpt lat="46.5097313" lon="6.1613390">
<ele>1446.40</ele>
<time>2021-09-02T13:40:54Z</time>
</trkpt>
<trkpt lat="46.5099233" lon="6.1612914">
<ele>1447.60</ele>
<time>2021-09-02T13:41:00Z</time>
</trkpt>
<trkpt lat="46.5101001" lon="6.1613417">
<ele>1447.71</ele>
<time>2021-09-02T13:41:06Z</time>
</trkpt>
<trkpt lat="46.5102570" lon="6.1615060">
<ele>1451.71</ele>
<time>2021-09-02T13:41:11Z</time>
</trkpt>
<trkpt lat="46.5104118" lon="6.1616809">
<ele>1455.35</ele>
<time>2021-09-02T13:41:17Z</time>
</trkpt>
<trkpt lat="46.5105543" lon="6.1618604">
<ele>1454.45</ele>
<time>2021-09-02T13:41:23Z</time>
</trkpt>
<trkpt lat="46.5107249" lon="6.1619731">
<ele>1454.94</ele>
<time>2021-09-02T13:42:48Z</time>
</trkpt>
<trkpt lat="46.5109045" lon="6.1620759">
<ele>1455.42</ele>
<time>2021-09-02T13:42:56Z</time>
</trkpt>
<trkpt lat="46.5110824" lon="6.1621951">
<ele>1454.16</ele>
<time>2021-09-02T13:43:03Z</time>
</trkpt>
<trkpt lat="46.5112518" lon="6.1623234">
<ele>1455.45</ele>
<time>2021-09-02T13:43:09Z</time>
</trkpt>
<trkpt lat="46.5114253" lon="6.1624346">
<ele>1456.29</ele>
<time>2021-09-02T13:43:15Z</time>
</trkpt>
<trkpt lat="46.5116150" lon="6.1625831">
<ele>1455.94</ele>
<time>2021-09-02T13:43:21Z</time>
</trkpt>
<trkpt lat="46.5117984" lon="6.1626649">
<ele>1455.86</ele>
<time>2021-09-02T13:43:26Z</time>
</trkpt>
<trkpt lat="46.5119708" lon="6.1627481">
<ele>1455.57</ele>
<time>2021-09-02T13:43:31Z</time>
</trkpt>
<trkpt lat="46.5121572" lon="6.1628725">
<ele>1456.03</ele>
<time>2021-09-02T13:43:38Z</time>
</trkpt>
<trkpt lat="46.5123476" lon="6.1629801">
<ele>1456.09</ele>
<time>2021-09-02T13:43:45Z</time>
</trkpt>
<trkpt lat="46.5125253" lon="6.1631175">
<ele>1457.07</ele>
<time>2021-09-02T13:44:31Z</time>
</trkpt>
<trkpt lat="46.5127014" lon="6.1631920">
<ele>1462.22</ele>
<time>2021-09-02T13:44:36Z</time>
</trkpt>
<trkpt lat="46.5128702" lon="6.1633312">
<ele>1457.09</ele>
<time>2021-09-02T13:44:41Z</time>
</trkpt>
<trkpt lat="46.5130693" lon="6.1634629">
<ele>1463.68</ele>
<time>2021-09-02T13:44:47Z</time>
</trkpt>
<trkpt lat="46.5132510" lon="6.1636153">
<ele>1455.35</ele>
<time>2021-09-02T13:44:52Z</time>
</trkpt>
<trkpt lat="46.5134120" lon="6.1638006">
<ele>1456.27</ele>
<time>2021-09-02T13:44:57Z</time>
</trkpt>
<trkpt lat="46.5135527" lon="6.1640006">
<ele>1461.80</ele>
<time>2021-09-02T13:45:02Z</time>
</trkpt>
<trkpt lat="46.5136968" lon="6.1641700">
<ele>1463.42</ele>
<time>2021-09-02T13:45:07Z</time>
</trkpt>
<trkpt lat="46.5138533" lon="6.1643312">
<ele>1458.78</ele>
<time>2021-09-02T13:45:12Z</time>
</trkpt>
<trkpt lat="46.5140349" lon="6.1644931">
<ele>1457.95</ele>
<time>2021-09-02T13:45:17Z</time>
</trkpt>
<trkpt lat="46.5142033" lon="6.1647003">
<ele>1457.86</ele>
<time>2021-09-02T13:45:22Z</time>
</trkpt>
<trkpt lat="46.5143433" lon="6.1648836">
<ele>1461.43</ele>
<time>2021-09-02T13:45:26Z</time>
</trkpt>
<trkpt lat="46.5144886" lon="6.1650606">
<ele>1456.11</ele>
<time>2021-09-02T13:45:30Z</time>
</trkpt>
<trkpt lat="46.5146499" lon="6.1652716">
<ele>1454.87</ele>
<time>2021-09-02T13:45:35Z</time>
</trkpt>
<trkpt lat="46.5148155" lon="6.1654614">
<ele>1459.98</ele>
<time>2021-09-02T13:45:41Z</time>
</trkpt>
<trkpt lat="46.5149596" lon="6.1656202">
<ele>1460.14</ele>
<time>2021-09-02T13:47:00Z</time>
</trkpt>
<trkpt lat="46.5151184" lon="6.1658051">
<ele>1459.01</ele>
<time>2021-09-02T13:47:06Z</time>
</trkpt>
<trkpt lat="46.5153014" lon="6.1660029">
<ele>1459.19</ele>
<time>2021-09-02T13:47:13Z</time>
</trkpt>
<trkpt lat="46.5154444" lon="6.1662084">
<ele>1459.23</ele>
<time>2021-09-02T13:47:17Z</time>
</trkpt>
<trkpt lat="46.5155293" lon="6.1665416">
<ele>1458.91</ele>
<time>2021-09-02T13:47:22Z</time>
</trkpt>
<trkpt lat="46.5155470" lon="6.1668262">
<ele>1454.84</ele>
<time>2021-09-02T13:47:26Z</time>
</trkpt>
<trkpt lat="46.5155468" lon="6.1671313">
<ele>1458.15</ele>
<time>2021-09-02T13:47:31Z</time>
</trkpt>
<trkpt lat="46.5155990" lon="6.1674019">
<ele>1459.76</ele>
<time>2021-09-02T13:47:35Z</time>
</trkpt>
<trkpt lat="46.5156841" lon="6.1676488">
<ele>1451.95</ele>
<time>2021-09-02T13:47:39Z</time>
</trkpt>
<trkpt lat="46.5158235" lon="6.1678402">
<ele>1457.63</ele>
<time>2021-09-02T13:47:43Z</time>
</trkpt>
<trkpt lat="46.5159725" lon="6.1680590">
<ele>1458.40</ele>
<time>2021-09-02T13:47:47Z</time>
</trkpt>
<trkpt lat="46.5161356" lon="6.1682476">
<ele>1458.30</ele>
<time>2021-09-02T13:47:51Z</time>
</trkpt>
<trkpt lat="46.5162941" lon="6.1684434">
<ele>1458.94</ele>
<time>2021-09-02T13:47:55Z</time>
</trkpt>
<trkpt lat="46.5164207" lon="6.1686632">
<ele>1458.95</ele>
<time>2021-09-02T13:47:59Z</time>
</trkpt>
<trkpt lat="46.5165721" lon="6.1688778">
<ele>1458.83</ele>
<time>2021-09-02T13:48:04Z</time>
</trkpt>
<trkpt lat="46.5167165" lon="6.1690410">
<ele>1459.26</ele>
<time>2021-09-02T13:48:10Z</time>
</trkpt>
<trkpt lat="46.5168778" lon="6.1692362">
<ele>1459.46</ele>
<time>2021-09-02T13:48:15Z</time>
</trkpt>
<trkpt lat="46.5170269" lon="6.1694508">
<ele>1460.82</ele>
<time>2021-09-02T13:48:21Z</time>
</trkpt>
<trkpt lat="46.5171915" lon="6.1696520">
<ele>1461.93</ele>
<time>2021-09-02T13:48:27Z</time>
</trkpt>
<trkpt lat="46.5173550" lon="6.1698483">
<ele>1462.20</ele>
<time>2021-09-02T13:48:33Z</time>
</trkpt>
<trkpt lat="46.5174811" lon="6.1700390">
<ele>1462.57</ele>
<time>2021-09-02T13:48:38Z</time>
</trkpt>
<trkpt lat="46.5176316" lon="6.1702507">
<ele>1463.11</ele>
<time>2021-09-02T13:48:44Z</time>
</trkpt>
<trkpt lat="46.5177701" lon="6.1704683">
<ele>1463.22</ele>
<time>2021-09-02T13:48:50Z</time>
</trkpt>
<trkpt lat="46.5179275" lon="6.1706886">
<ele>1463.42</ele>
<time>2021-09-02T13:48:56Z</time>
</trkpt>
<trkpt lat="46.5180594" lon="6.1708848">
<ele>1463.66</ele>
<time>2021-09-02T13:49:01Z</time>
</trkpt>
<trkpt lat="46.5182127" lon="6.1710785">
<ele>1463.87</ele>
<time>2021-09-02T13:49:07Z</time>
</trkpt>
<trkpt lat="46.5184188" lon="6.1711408">
<ele>1464.48</ele>
<time>2021-09-02T13:49:13Z</time>
</trkpt>
<trkpt lat="46.5186083" lon="6.1712386">
<ele>1463.75</ele>
<time>2021-09-02T13:49:19Z</time>
</trkpt>
<trkpt lat="46.5187695" lon="6.1714383">
<ele>1466.06</ele>
<time>2021-09-02T13:49:22Z</time>
</trkpt>
<trkpt lat="46.5188396" lon="6.1717150">
<ele>1463.78</ele>
<time>2021-09-02T13:49:26Z</time>
</trkpt>
<trkpt lat="46.5189375" lon="6.1719954">
<ele>1464.91</ele>
<time>2021-09-02T13:49:30Z</time>
</trkpt>
<trkpt lat="46.5190709" lon="6.1722822">
<ele>1464.40</ele>
<time>2021-09-02T13:49:34Z</time>
</trkpt>
<trkpt lat="46.5191835" lon="6.1725010">
<ele>1463.73</ele>
<time>2021-09-02T13:49:37Z</time>
</trkpt>
<trkpt lat="46.5192938" lon="6.1727147">
<ele>1463.66</ele>
<time>2021-09-02T13:49:40Z</time>
</trkpt>
<trkpt lat="46.5194232" lon="6.1729921">
<ele>1464.30</ele>
<time>2021-09-02T13:49:44Z</time>
</trkpt>
<trkpt lat="46.5195434" lon="6.1732184">
<ele>1462.55</ele>
<time>2021-09-02T13:49:48Z</time>
</trkpt>
<trkpt lat="46.5196413" lon="6.1734490">
<ele>1463.59</ele>
<time>2021-09-02T13:49:53Z</time>
</trkpt>
<trkpt lat="46.5196621" lon="6.1737300">
<ele>1465.94</ele>
<time>2021-09-02T13:49:59Z</time>
</trkpt>
<trkpt lat="46.5196476" lon="6.1740128">
<ele>1466.58</ele>
<time>2021-09-02T13:52:58Z</time>
</trkpt>
<trkpt lat="46.5196704" lon="6.1743176">
<ele>1466.01</ele>
<time>2021-09-02T13:53:03Z</time>
</trkpt>
<trkpt lat="46.5196773" lon="6.1746065">
<ele>1465.16</ele>
<time>2021-09-02T13:53:07Z</time>
</trkpt>
<trkpt lat="46.5197222" lon="6.1748837">
<ele>1462.54</ele>
<time>2021-09-02T13:53:11Z</time>
</trkpt>
<trkpt lat="46.5198076" lon="6.1751596">
<ele>1452.78</ele>
<time>2021-09-02T13:53:15Z</time>
</trkpt>
<trkpt lat="46.5199335" lon="6.1754152">
<ele>1456.37</ele>
<time>2021-09-02T13:53:18Z</time>
</trkpt>
<trkpt lat="46.5200726" lon="6.1756665">
<ele>1456.89</ele>
<time>2021-09-02T13:53:21Z</time>
</trkpt>
<trkpt lat="46.5202161" lon="6.1759148">
<ele>1455.65</ele>
<time>2021-09-02T13:53:24Z</time>
</trkpt>
<trkpt lat="46.5203467" lon="6.1761757">
<ele>1454.83</ele>
<time>2021-09-02T13:53:27Z</time>
</trkpt>
<trkpt lat="46.5204514" lon="6.1764534">
<ele>1455.15</ele>
<time>2021-09-02T13:53:30Z</time>
</trkpt>
<trkpt lat="46.5205758" lon="6.1767056">
<ele>1455.01</ele>
<time>2021-09-02T13:53:33Z</time>
</trkpt>
<trkpt lat="46.5207386" lon="6.1768899">
<ele>1453.89</ele>
<time>2021-09-02T13:53:36Z</time>
</trkpt>
<trkpt lat="46.5208987" lon="6.1770561">
<ele>1453.33</ele>
<time>2021-09-02T13:53:39Z</time>
</trkpt>
<trkpt lat="46.5210539" lon="6.1772570">
<ele>1453.24</ele>
<time>2021-09-02T13:53:58Z</time>
</trkpt>
<trkpt lat="46.5211562" lon="6.1774758">
<ele>1451.69</ele>
<time>2021-09-02T13:54:02Z</time>
</trkpt>
<trkpt lat="46.5212426" lon="6.1777434">
<ele>1452.21</ele>
<time>2021-09-02T13:54:06Z</time>
</trkpt>
<trkpt lat="46.5213862" lon="6.1779906">
<ele>1450.21</ele>
<time>2021-09-02T13:54:10Z</time>
</trkpt>
<trkpt lat="46.5215754" lon="6.1782177">
<ele>1448.29</ele>
<time>2021-09-02T13:54:14Z</time>
</trkpt>
<trkpt lat="46.5217471" lon="6.1783914">
<ele>1447.63</ele>
<time>2021-09-02T13:54:17Z</time>
</trkpt>
<trkpt lat="46.5219402" lon="6.1785680">
<ele>1445.66</ele>
<time>2021-09-02T13:54:20Z</time>
</trkpt>
<trkpt lat="46.5221579" lon="6.1787735">
<ele>1443.65</ele>
<time>2021-09-02T13:54:23Z</time>
</trkpt>
<trkpt lat="46.5223129" lon="6.1789224">
<ele>1442.46</ele>
<time>2021-09-02T13:54:25Z</time>
</trkpt>
<trkpt lat="46.5224711" lon="6.1790733">
<ele>1441.53</ele>
<time>2021-09-02T13:54:27Z</time>
</trkpt>
<trkpt lat="46.5226805" lon="6.1793149">
<ele>1440.23</ele>
<time>2021-09-02T13:54:30Z</time>
</trkpt>
<trkpt lat="46.5228851" lon="6.1795545">
<ele>1440.06</ele>
<time>2021-09-02T13:54:33Z</time>
</trkpt>
<trkpt lat="46.5230704" lon="6.1797823">
<ele>1438.20</ele>
<time>2021-09-02T13:54:36Z</time>
</trkpt>
<trkpt lat="46.5232168" lon="6.1799590">
<ele>1435.91</ele>
<time>2021-09-02T13:54:39Z</time>
</trkpt>
<trkpt lat="46.5233271" lon="6.1801735">
<ele>1436.44</ele>
<time>2021-09-02T13:56:45Z</time>
</trkpt>
<trkpt lat="46.5235242" lon="6.1803360">
<ele>1435.92</ele>
<time>2021-09-02T13:59:12Z</time>
</trkpt>
<trkpt lat="46.5237093" lon="6.1805333">
<ele>1432.59</ele>
<time>2021-09-02T13:59:16Z</time>
</trkpt>
<trkpt lat="46.5238754" lon="6.1807130">
<ele>1430.67</ele>
<time>2021-09-02T13:59:19Z</time>
</trkpt>
<trkpt lat="46.5240518" lon="6.1809112">
<ele>1428.76</ele>
<time>2021-09-02T13:59:22Z</time>
</trkpt>
<trkpt lat="46.5242483" lon="6.1811213">
<ele>1426.54</ele>
<time>2021-09-02T13:59:25Z</time>
</trkpt>
<trkpt lat="46.5244565" lon="6.1813499">
<ele>1425.30</ele>
<time>2021-09-02T13:59:28Z</time>
</trkpt>
<trkpt lat="46.5246676" lon="6.1815708">
<ele>1423.00</ele>
<time>2021-09-02T13:59:31Z</time>
</trkpt>
<trkpt lat="46.5248094" lon="6.1817573">
<ele>1421.69</ele>
<time>2021-09-02T13:59:33Z</time>
</trkpt>
<trkpt lat="46.5249466" lon="6.1819318">
<ele>1421.05</ele>
<time>2021-09-02T13:59:35Z</time>
</trkpt>
<trkpt lat="46.5251219" lon="6.1821856">
<ele>1419.33</ele>
<time>2021-09-02T13:59:38Z</time>
</trkpt>
<trkpt lat="46.5253000" lon="6.1824465">
<ele>1418.06</ele>
<time>2021-09-02T13:59:41Z</time>
</trkpt>
<trkpt lat="46.5254352" lon="6.1827241">
<ele>1417.28</ele>
<time>2021-09-02T13:59:44Z</time>
</trkpt>
<trkpt lat="46.5255670" lon="6.1830099">
<ele>1416.21</ele>
<time>2021-09-02T13:59:47Z</time>
</trkpt>
<trkpt lat="46.5256986" lon="6.1832915">
<ele>1414.25</ele>
<time>2021-09-02T13:59:50Z</time>
</trkpt>
<trkpt lat="46.5258295" lon="6.1835812">
<ele>1412.67</ele>
<time>2021-09-02T13:59:53Z</time>
</trkpt>
<trkpt lat="46.5259641" lon="6.1838521">
<ele>1411.43</ele>
<time>2021-09-02T13:59:56Z</time>
</trkpt>
<trkpt lat="46.5261351" lon="6.1840456">
<ele>1411.14</ele>
<time>2021-09-02T13:59:59Z</time>
</trkpt>
<trkpt lat="46.5263209" lon="6.1840914">
<ele>1411.33</ele>
<time>2021-09-02T14:00:02Z</time>
</trkpt>
<trkpt lat="46.5265077" lon="6.1841426">
<ele>1413.32</ele>
<time>2021-09-02T14:00:06Z</time>
</trkpt>
<trkpt lat="46.5266941" lon="6.1842267">
<ele>1415.39</ele>
<time>2021-09-02T14:00:11Z</time>
</trkpt>
<trkpt lat="46.5269048" lon="6.1843324">
<ele>1416.17</ele>
<time>2021-09-02T14:00:16Z</time>
</trkpt>
<trkpt lat="46.5270747" lon="6.1844217">
<ele>1416.85</ele>
<time>2021-09-02T14:00:20Z</time>
</trkpt>
<trkpt lat="46.5272844" lon="6.1845057">
<ele>1417.63</ele>
<time>2021-09-02T14:00:25Z</time>
</trkpt>
<trkpt lat="46.5274917" lon="6.1845698">
<ele>1418.71</ele>
<time>2021-09-02T14:00:30Z</time>
</trkpt>
<trkpt lat="46.5276809" lon="6.1846515">
<ele>1417.13</ele>
<time>2021-09-02T14:00:36Z</time>
</trkpt>
<trkpt lat="46.5278503" lon="6.1847749">
<ele>1417.91</ele>
<time>2021-09-02T14:00:43Z</time>
</trkpt>
<trkpt lat="46.5279910" lon="6.1849653">
<ele>1418.92</ele>
<time>2021-09-02T14:00:51Z</time>
</trkpt>
<trkpt lat="46.5281604" lon="6.1851203">
<ele>1421.32</ele>
<time>2021-09-02T14:00:59Z</time>
</trkpt>
<trkpt lat="46.5283140" lon="6.1852820">
<ele>1424.35</ele>
<time>2021-09-02T14:01:07Z</time>
</trkpt>
<trkpt lat="46.5284742" lon="6.1854554">
<ele>1424.31</ele>
<time>2021-09-02T14:01:15Z</time>
</trkpt>
<trkpt lat="46.5286427" lon="6.1855930">
<ele>1422.83</ele>
<time>2021-09-02T14:01:23Z</time>
</trkpt>
<trkpt lat="46.5287930" lon="6.1857516">
<ele>1425.36</ele>
<time>2021-09-02T14:01:31Z</time>
</trkpt>
<trkpt lat="46.5289733" lon="6.1858442">
<ele>1429.46</ele>
<time>2021-09-02T14:01:40Z</time>
</trkpt>
<trkpt lat="46.5291279" lon="6.1856953">
<ele>1432.79</ele>
<time>2021-09-02T14:01:49Z</time>
</trkpt>
<trkpt lat="46.5292765" lon="6.1855010">
<ele>1435.96</ele>
<time>2021-09-02T14:02:00Z</time>
</trkpt>
<trkpt lat="46.5293981" lon="6.1852859">
<ele>1437.92</ele>
<time>2021-09-02T14:02:09Z</time>
</trkpt>
<trkpt lat="46.5294650" lon="6.1850193">
<ele>1440.72</ele>
<time>2021-09-02T14:02:18Z</time>
</trkpt>
<trkpt lat="46.5295418" lon="6.1847644">
<ele>1441.43</ele>
<time>2021-09-02T14:02:25Z</time>
</trkpt>
<trkpt lat="46.5296608" lon="6.1845205">
<ele>1442.83</ele>
<time>2021-09-02T14:02:32Z</time>
</trkpt>
<trkpt lat="46.5297982" lon="6.1843360">
<ele>1444.93</ele>
<time>2021-09-02T14:02:39Z</time>
</trkpt>
<trkpt lat="46.5299693" lon="6.1842004">
<ele>1447.52</ele>
<time>2021-09-02T14:02:47Z</time>
</trkpt>
<trkpt lat="46.5301345" lon="6.1840580">
<ele>1446.56</ele>
<time>2021-09-02T14:02:56Z</time>
</trkpt>
<trkpt lat="46.5302911" lon="6.1838822">
<ele>1450.62</ele>
<time>2021-09-02T14:03:06Z</time>
</trkpt>
<trkpt lat="46.5304647" lon="6.1837709">
<ele>1450.02</ele>
<time>2021-09-02T14:03:13Z</time>
</trkpt>
<trkpt lat="46.5306598" lon="6.1836699">
<ele>1449.83</ele>
<time>2021-09-02T14:03:20Z</time>
</trkpt>
<trkpt lat="46.5308499" lon="6.1835983">
<ele>1450.24</ele>
<time>2021-09-02T14:03:27Z</time>
</trkpt>
<trkpt lat="46.5309789" lon="6.1834115">
<ele>1451.32</ele>
<time>2021-09-02T14:03:35Z</time>
</trkpt>
<trkpt lat="46.5311057" lon="6.1832161">
<ele>1458.87</ele>
<time>2021-09-02T14:03:44Z</time>
</trkpt>
<trkpt lat="46.5312449" lon="6.1830480">
<ele>1467.97</ele>
<time>2021-09-02T14:03:54Z</time>
</trkpt>
<trkpt lat="46.5313312" lon="6.1827909">
<ele>1466.83</ele>
<time>2021-09-02T14:04:04Z</time>
</trkpt>
<trkpt lat="46.5313402" lon="6.1824915">
<ele>1465.80</ele>
<time>2021-09-02T14:04:12Z</time>
</trkpt>
<trkpt lat="46.5313983" lon="6.1822160">
<ele>1466.12</ele>
<time>2021-09-02T14:04:20Z</time>
</trkpt>
<trkpt lat="46.5314686" lon="6.1819530">
<ele>1471.34</ele>
<time>2021-09-02T14:04:29Z</time>
</trkpt>
<trkpt lat="46.5315640" lon="6.1817268">
<ele>1471.13</ele>
<time>2021-09-02T14:04:36Z</time>
</trkpt>
<trkpt lat="46.5317076" lon="6.1815454">
<ele>1470.27</ele>
<time>2021-09-02T14:04:43Z</time>
</trkpt>
<trkpt lat="46.5317717" lon="6.1812457">
<ele>1469.09</ele>
<time>2021-09-02T14:04:49Z</time>
</trkpt>
<trkpt lat="46.5318876" lon="6.1810317">
<ele>1467.20</ele>
<time>2021-09-02T14:04:55Z</time>
</trkpt>
<trkpt lat="46.5320743" lon="6.1809820">
<ele>1466.88</ele>
<time>2021-09-02T14:05:01Z</time>
</trkpt>
<trkpt lat="46.5322566" lon="6.1810065">
<ele>1466.06</ele>
<time>2021-09-02T14:05:07Z</time>
</trkpt>
<trkpt lat="46.5324373" lon="6.1811089">
<ele>1464.52</ele>
<time>2021-09-02T14:05:15Z</time>
</trkpt>
<trkpt lat="46.5325223" lon="6.1813563">
<ele>1467.03</ele>
<time>2021-09-02T14:05:28Z</time>
</trkpt>
<trkpt lat="46.5326202" lon="6.1815961">
<ele>1467.58</ele>
<time>2021-09-02T14:05:41Z</time>
</trkpt>
<trkpt lat="46.5327191" lon="6.1818191">
<ele>1466.48</ele>
<time>2021-09-02T14:07:00Z</time>
</trkpt>
<trkpt lat="46.5327385" lon="6.1820991">
<ele>1468.84</ele>
<time>2021-09-02T14:07:12Z</time>
</trkpt>
<trkpt lat="46.5327950" lon="6.1823521">
<ele>1471.26</ele>
<time>2021-09-02T14:07:19Z</time>
</trkpt>
<trkpt lat="46.5328349" lon="6.1826126">
<ele>1471.28</ele>
<time>2021-09-02T14:07:28Z</time>
</trkpt>
<trkpt lat="46.5328822" lon="6.1828691">
<ele>1473.41</ele>
<time>2021-09-02T14:07:40Z</time>
</trkpt>
<trkpt lat="46.5329600" lon="6.1831066">
<ele>1475.58</ele>
<time>2021-09-02T14:07:50Z</time>
</trkpt>
<trkpt lat="46.5329468" lon="6.1833848">
<ele>1476.96</ele>
<time>2021-09-02T14:08:09Z</time>
</trkpt>
<trkpt lat="46.5328429" lon="6.1835996">
<ele>1477.62</ele>
<time>2021-09-02T14:08:22Z</time>
</trkpt>
<trkpt lat="46.5328611" lon="6.1838627">
<ele>1481.09</ele>
<time>2021-09-02T14:08:31Z</time>
</trkpt>
<trkpt lat="46.5329192" lon="6.1841197">
<ele>1481.11</ele>
<time>2021-09-02T14:08:40Z</time>
</trkpt>
<trkpt lat="46.5330935" lon="6.1841963">
<ele>1488.68</ele>
<time>2021-09-02T14:08:52Z</time>
</trkpt>
<trkpt lat="46.5329148" lon="6.1841577">
<ele>1485.05</ele>
<time>2021-09-02T14:09:43Z</time>
</trkpt>
<trkpt lat="46.5328927" lon="6.1844209">
<ele>1486.90</ele>
<time>2021-09-02T14:10:09Z</time>
</trkpt>
<trkpt lat="46.5328370" lon="6.1846782">
<ele>1487.00</ele>
<time>2021-09-02T14:10:32Z</time>
</trkpt>
<trkpt lat="46.5329005" lon="6.1849479">
<ele>1487.00</ele>
<time>2021-09-02T14:11:10Z</time>
</trkpt>
<trkpt lat="46.5330327" lon="6.1851330">
<ele>1491.24</ele>
<time>2021-09-02T14:11:38Z</time>
</trkpt>
<trkpt lat="46.5332327" lon="6.1850624">
<ele>1489.64</ele>
<time>2021-09-02T14:11:46Z</time>
</trkpt>
<trkpt lat="46.5334174" lon="6.1851923">
<ele>1489.25</ele>
<time>2021-09-02T14:11:55Z</time>
</trkpt>
<trkpt lat="46.5335846" lon="6.1853309">
<ele>1488.63</ele>
<time>2021-09-02T14:12:03Z</time>
</trkpt>
<trkpt lat="46.5337648" lon="6.1854316">
<ele>1485.59</ele>
<time>2021-09-02T14:12:12Z</time>
</trkpt>
<trkpt lat="46.5339411" lon="6.1855612">
<ele>1482.33</ele>
<time>2021-09-02T14:12:21Z</time>
</trkpt>
<trkpt lat="46.5341494" lon="6.1855351">
<ele>1478.84</ele>
<time>2021-09-02T14:12:28Z</time>
</trkpt>
<trkpt lat="46.5343384" lon="6.1855665">
<ele>1479.41</ele>
<time>2021-09-02T14:12:35Z</time>
</trkpt>
<trkpt lat="46.5343073" lon="6.1858247">
<ele>1474.95</ele>
<time>2021-09-02T14:12:58Z</time>
</trkpt>
<trkpt lat="46.5342919" lon="6.1860865">
<ele>1478.50</ele>
<time>2021-09-02T14:13:25Z</time>
</trkpt>
<trkpt lat="46.5342630" lon="6.1863521">
<ele>1479.24</ele>
<time>2021-09-02T14:14:02Z</time>
</trkpt>
<trkpt lat="46.5343036" lon="6.1866079">
<ele>1486.41</ele>
<time>2021-09-02T14:14:47Z</time>
</trkpt>
<trkpt lat="46.5344159" lon="6.1868450">
<ele>1479.38</ele>
<time>2021-09-02T14:14:56Z</time>
</trkpt>
<trkpt lat="46.5345201" lon="6.1870767">
<ele>1476.06</ele>
<time>2021-09-02T14:15:04Z</time>
</trkpt>
<trkpt lat="46.5346203" lon="6.1873260">
<ele>1478.09</ele>
<time>2021-09-02T14:15:13Z</time>
</trkpt>
<trkpt lat="46.5346533" lon="6.1875902">
<ele>1480.01</ele>
<time>2021-09-02T14:15:18Z</time>
</trkpt>
<trkpt lat="46.5348232" lon="6.1877246">
<ele>1478.85</ele>
<time>2021-09-02T14:15:25Z</time>
</trkpt>
<trkpt lat="46.5350114" lon="6.1877215">
<ele>1482.88</ele>
<time>2021-09-02T14:15:31Z</time>
</trkpt>
<trkpt lat="46.5352055" lon="6.1878145">
<ele>1475.95</ele>
<time>2021-09-02T14:15:42Z</time>
</trkpt>
<trkpt lat="46.5354029" lon="6.1879529">
<ele>1475.01</ele>
<time>2021-09-02T14:15:47Z</time>
</trkpt>
<trkpt lat="46.5355769" lon="6.1880531">
<ele>1475.50</ele>
<time>2021-09-02T14:15:51Z</time>
</trkpt>
<trkpt lat="46.5356969" lon="6.1882708">
<ele>1473.37</ele>
<time>2021-09-02T14:16:03Z</time>
</trkpt>
<trkpt lat="46.5358402" lon="6.1884492">
<ele>1471.17</ele>
<time>2021-09-02T14:16:10Z</time>
</trkpt>
<trkpt lat="46.5360005" lon="6.1886055">
<ele>1469.43</ele>
<time>2021-09-02T14:16:16Z</time>
</trkpt>
<trkpt lat="46.5361856" lon="6.1887467">
<ele>1466.71</ele>
<time>2021-09-02T14:16:20Z</time>
</trkpt>
<trkpt lat="46.5363236" lon="6.1889215">
<ele>1463.83</ele>
<time>2021-09-02T14:16:26Z</time>
</trkpt>
<trkpt lat="46.5365073" lon="6.1890545">
<ele>1461.43</ele>
<time>2021-09-02T14:16:30Z</time>
</trkpt>
<trkpt lat="46.5366565" lon="6.1892246">
<ele>1460.97</ele>
<time>2021-09-02T14:16:35Z</time>
</trkpt>
<trkpt lat="46.5367751" lon="6.1894907">
<ele>1459.59</ele>
<time>2021-09-02T14:16:39Z</time>
</trkpt>
<trkpt lat="46.5368679" lon="6.1897630">
<ele>1459.55</ele>
<time>2021-09-02T14:16:48Z</time>
</trkpt>
<trkpt lat="46.5369265" lon="6.1900519">
<ele>1458.97</ele>
<time>2021-09-02T14:16:55Z</time>
</trkpt>
<trkpt lat="46.5370490" lon="6.1902671">
<ele>1456.03</ele>
<time>2021-09-02T14:17:02Z</time>
</trkpt>
<trkpt lat="46.5371202" lon="6.1905171">
<ele>1456.44</ele>
<time>2021-09-02T14:17:10Z</time>
</trkpt>
<trkpt lat="46.5371957" lon="6.1907804">
<ele>1456.85</ele>
<time>2021-09-02T14:17:16Z</time>
</trkpt>
<trkpt lat="46.5372592" lon="6.1910664">
<ele>1457.61</ele>
<time>2021-09-02T14:17:24Z</time>
</trkpt>
<trkpt lat="46.5372583" lon="6.1913392">
<ele>1457.69</ele>
<time>2021-09-02T14:17:31Z</time>
</trkpt>
<trkpt lat="46.5372998" lon="6.1916426">
<ele>1458.64</ele>
<time>2021-09-02T14:17:38Z</time>
</trkpt>
<trkpt lat="46.5373465" lon="6.1919282">
<ele>1459.30</ele>
<time>2021-09-02T14:17:45Z</time>
</trkpt>
<trkpt lat="46.5373810" lon="6.1922107">
<ele>1461.12</ele>
<time>2021-09-02T14:17:53Z</time>
</trkpt>
<trkpt lat="46.5374110" lon="6.1924875">
<ele>1461.19</ele>
<time>2021-09-02T14:18:01Z</time>
</trkpt>
<trkpt lat="46.5374007" lon="6.1927489">
<ele>1461.78</ele>
<time>2021-09-02T14:18:09Z</time>
</trkpt>
<trkpt lat="46.5373916" lon="6.1930242">
<ele>1462.17</ele>
<time>2021-09-02T14:18:26Z</time>
</trkpt>
<trkpt lat="46.5375480" lon="6.1931706">
<ele>1461.80</ele>
<time>2021-09-02T14:18:36Z</time>
</trkpt>
<trkpt lat="46.5377421" lon="6.1931547">
<ele>1460.23</ele>
<time>2021-09-02T14:18:45Z</time>
</trkpt>
<trkpt lat="46.5379247" lon="6.1932220">
<ele>1456.73</ele>
<time>2021-09-02T14:18:50Z</time>
</trkpt>
<trkpt lat="46.5380902" lon="6.1933566">
<ele>1452.13</ele>
<time>2021-09-02T14:18:54Z</time>
</trkpt>
<trkpt lat="46.5382548" lon="6.1934756">
<ele>1450.01</ele>
<time>2021-09-02T14:18:58Z</time>
</trkpt>
<trkpt lat="46.5384565" lon="6.1936031">
<ele>1446.72</ele>
<time>2021-09-02T14:19:02Z</time>
</trkpt>
<trkpt lat="46.5386244" lon="6.1937154">
<ele>1443.33</ele>
<time>2021-09-02T14:19:07Z</time>
</trkpt>
<trkpt lat="46.5387619" lon="6.1938978">
<ele>1442.71</ele>
<time>2021-09-02T14:19:14Z</time>
</trkpt>
<trkpt lat="46.5389321" lon="6.1940223">
<ele>1441.05</ele>
<time>2021-09-02T14:19:23Z</time>
</trkpt>
<trkpt lat="46.5391058" lon="6.1941862">
<ele>1439.38</ele>
<time>2021-09-02T14:19:29Z</time>
</trkpt>
<trkpt lat="46.5392542" lon="6.1943829">
<ele>1437.86</ele>
<time>2021-09-02T14:19:34Z</time>
</trkpt>
<trkpt lat="46.5393688" lon="6.1946103">
<ele>1437.17</ele>
<time>2021-09-02T14:19:38Z</time>
</trkpt>
<trkpt lat="46.5395129" lon="6.1947933">
<ele>1436.19</ele>
<time>2021-09-02T14:19:43Z</time>
</trkpt>
<trkpt lat="46.5396459" lon="6.1950627">
<ele>1433.38</ele>
<time>2021-09-02T14:19:48Z</time>
</trkpt>
<trkpt lat="46.5397343" lon="6.1953379">
<ele>1432.69</ele>
<time>2021-09-02T14:19:52Z</time>
</trkpt>
<trkpt lat="46.5398355" lon="6.1955763">
<ele>1433.87</ele>
<time>2021-09-02T14:19:57Z</time>
</trkpt>
<trkpt lat="46.5399606" lon="6.1958447">
<ele>1431.98</ele>
<time>2021-09-02T14:20:02Z</time>
</trkpt>
<trkpt lat="46.5400287" lon="6.1961285">
<ele>1429.95</ele>
<time>2021-09-02T14:20:06Z</time>
</trkpt>
<trkpt lat="46.5401130" lon="6.1964220">
<ele>1427.64</ele>
<time>2021-09-02T14:20:09Z</time>
</trkpt>
<trkpt lat="46.5401346" lon="6.1966912">
<ele>1428.69</ele>
<time>2021-09-02T14:20:12Z</time>
</trkpt>
<trkpt lat="46.5402004" lon="6.1969397">
<ele>1426.09</ele>
<time>2021-09-02T14:20:17Z</time>
</trkpt>
<trkpt lat="46.5402406" lon="6.1972440">
<ele>1423.35</ele>
<time>2021-09-02T14:20:22Z</time>
</trkpt>
<trkpt lat="46.5403284" lon="6.1975071">
<ele>1422.15</ele>
<time>2021-09-02T14:20:48Z</time>
</trkpt>
<trkpt lat="46.5403518" lon="6.1978002">
<ele>1420.88</ele>
<time>2021-09-02T14:24:18Z</time>
</trkpt>
<trkpt lat="46.5403631" lon="6.1981251">
<ele>1419.18</ele>
<time>2021-09-02T14:24:22Z</time>
</trkpt>
<trkpt lat="46.5404279" lon="6.1983730">
<ele>1418.23</ele>
<time>2021-09-02T14:24:26Z</time>
</trkpt>
<trkpt lat="46.5405387" lon="6.1986566">
<ele>1415.12</ele>
<time>2021-09-02T14:24:31Z</time>
</trkpt>
<trkpt lat="46.5406892" lon="6.1988444">
<ele>1414.66</ele>
<time>2021-09-02T14:24:38Z</time>
</trkpt>
<trkpt lat="46.5409022" lon="6.1989840">
<ele>1412.88</ele>
<time>2021-09-02T14:24:43Z</time>
</trkpt>
<trkpt lat="46.5410648" lon="6.1991078">
<ele>1408.84</ele>
<time>2021-09-02T14:24:46Z</time>
</trkpt>
<trkpt lat="46.5412383" lon="6.1992826">
<ele>1407.12</ele>
<time>2021-09-02T14:24:49Z</time>
</trkpt>
<trkpt lat="46.5414037" lon="6.1994982">
<ele>1404.68</ele>
<time>2021-09-02T14:24:52Z</time>
</trkpt>
<trkpt lat="46.5416032" lon="6.1996740">
<ele>1402.79</ele>
<time>2021-09-02T14:24:55Z</time>
</trkpt>
<trkpt lat="46.5418244" lon="6.1998185">
<ele>1399.28</ele>
<time>2021-09-02T14:24:58Z</time>
</trkpt>
<trkpt lat="46.5420197" lon="6.2000138">
<ele>1397.97</ele>
<time>2021-09-02T14:25:01Z</time>
</trkpt>
<trkpt lat="46.5421518" lon="6.2002471">
<ele>1396.11</ele>
<time>2021-09-02T14:25:04Z</time>
</trkpt>
<trkpt lat="46.5422877" lon="6.2005461">
<ele>1394.01</ele>
<time>2021-09-02T14:25:08Z</time>
</trkpt>
<trkpt lat="46.5424506" lon="6.2007530">
<ele>1393.55</ele>
<time>2021-09-02T14:25:12Z</time>
</trkpt>
<trkpt lat="46.5426595" lon="6.2009465">
<ele>1391.09</ele>
<time>2021-09-02T14:25:16Z</time>
</trkpt>
<trkpt lat="46.5427520" lon="6.2011942">
<ele>1392.26</ele>
<time>2021-09-02T14:25:20Z</time>
</trkpt>
<trkpt lat="46.5429147" lon="6.2013889">
<ele>1391.35</ele>
<time>2021-09-02T14:25:25Z</time>
</trkpt>
<trkpt lat="46.5431193" lon="6.2015320">
<ele>1390.25</ele>
<time>2021-09-02T14:25:29Z</time>
</trkpt>
<trkpt lat="46.5433060" lon="6.2016205">
<ele>1390.96</ele>
<time>2021-09-02T14:25:33Z</time>
</trkpt>
<trkpt lat="46.5434795" lon="6.2017567">
<ele>1389.95</ele>
<time>2021-09-02T14:25:38Z</time>
</trkpt>
<trkpt lat="46.5436232" lon="6.2019266">
<ele>1389.79</ele>
<time>2021-09-02T14:25:43Z</time>
</trkpt>
<trkpt lat="46.5437364" lon="6.2021599">
<ele>1389.12</ele>
<time>2021-09-02T14:25:50Z</time>
</trkpt>
<trkpt lat="46.5438410" lon="6.2024183">
<ele>1388.31</ele>
<time>2021-09-02T14:25:58Z</time>
</trkpt>
<trkpt lat="46.5439621" lon="6.2026260">
<ele>1385.84</ele>
<time>2021-09-02T14:26:04Z</time>
</trkpt>
<trkpt lat="46.5440804" lon="6.2028528">
<ele>1385.95</ele>
<time>2021-09-02T14:26:10Z</time>
</trkpt>
<trkpt lat="46.5441929" lon="6.2030898">
<ele>1385.48</ele>
<time>2021-09-02T14:26:15Z</time>
</trkpt>
<trkpt lat="46.5442560" lon="6.2033530">
<ele>1385.77</ele>
<time>2021-09-02T14:26:21Z</time>
</trkpt>
<trkpt lat="46.5443468" lon="6.2035914">
<ele>1383.41</ele>
<time>2021-09-02T14:26:28Z</time>
</trkpt>
<trkpt lat="46.5444836" lon="6.2038320">
<ele>1379.53</ele>
<time>2021-09-02T14:26:33Z</time>
</trkpt>
<trkpt lat="46.5446088" lon="6.2040553">
<ele>1378.96</ele>
<time>2021-09-02T14:26:38Z</time>
</trkpt>
<trkpt lat="46.5447374" lon="6.2042435">
<ele>1379.25</ele>
<time>2021-09-02T14:26:41Z</time>
</trkpt>
<trkpt lat="46.5448848" lon="6.2044038">
<ele>1378.96</ele>
<time>2021-09-02T14:26:46Z</time>
</trkpt>
<trkpt lat="46.5449777" lon="6.2046310">
<ele>1377.52</ele>
<time>2021-09-02T14:26:50Z</time>
</trkpt>
<trkpt lat="46.5451325" lon="6.2048395">
<ele>1376.46</ele>
<time>2021-09-02T14:26:55Z</time>
</trkpt>
<trkpt lat="46.5452352" lon="6.2050634">
<ele>1378.15</ele>
<time>2021-09-02T14:27:01Z</time>
</trkpt>
<trkpt lat="46.5452890" lon="6.2053573">
<ele>1376.20</ele>
<time>2021-09-02T14:27:06Z</time>
</trkpt>
<trkpt lat="46.5453267" lon="6.2056143">
<ele>1377.02</ele>
<time>2021-09-02T14:27:12Z</time>
</trkpt>
<trkpt lat="46.5453878" lon="6.2058729">
<ele>1380.23</ele>
<time>2021-09-02T14:28:14Z</time>
</trkpt>
<trkpt lat="46.5454375" lon="6.2061425">
<ele>1378.87</ele>
<time>2021-09-02T14:28:23Z</time>
</trkpt>
<trkpt lat="46.5455184" lon="6.2064149">
<ele>1378.20</ele>
<time>2021-09-02T14:28:25Z</time>
</trkpt>
<trkpt lat="46.5456042" lon="6.2066745">
<ele>1379.18</ele>
<time>2021-09-02T14:28:32Z</time>
</trkpt>
<trkpt lat="46.5456188" lon="6.2069520">
<ele>1377.72</ele>
<time>2021-09-02T14:28:36Z</time>
</trkpt>
<trkpt lat="46.5456947" lon="6.2071908">
<ele>1373.91</ele>
<time>2021-09-02T14:28:43Z</time>
</trkpt>
<trkpt lat="46.5457445" lon="6.2074588">
<ele>1371.76</ele>
<time>2021-09-02T14:28:47Z</time>
</trkpt>
<trkpt lat="46.5458761" lon="6.2076779">
<ele>1369.05</ele>
<time>2021-09-02T14:28:54Z</time>
</trkpt>
<trkpt lat="46.5460566" lon="6.2077870">
<ele>1367.35</ele>
<time>2021-09-02T14:29:00Z</time>
</trkpt>
<trkpt lat="46.5461733" lon="6.2079903">
<ele>1365.97</ele>
<time>2021-09-02T14:29:04Z</time>
</trkpt>
<trkpt lat="46.5463339" lon="6.2081622">
<ele>1363.23</ele>
<time>2021-09-02T14:29:11Z</time>
</trkpt>
<trkpt lat="46.5465187" lon="6.2082655">
<ele>1362.68</ele>
<time>2021-09-02T14:29:17Z</time>
</trkpt>
<trkpt lat="46.5466874" lon="6.2083691">
<ele>1362.47</ele>
<time>2021-09-02T14:29:20Z</time>
</trkpt>
<trkpt lat="46.5467825" lon="6.2085950">
<ele>1361.44</ele>
<time>2021-09-02T14:29:25Z</time>
</trkpt>
<trkpt lat="46.5469163" lon="6.2088552">
<ele>1359.67</ele>
<time>2021-09-02T14:29:31Z</time>
</trkpt>
<trkpt lat="46.5470011" lon="6.2090928">
<ele>1354.06</ele>
<time>2021-09-02T14:29:38Z</time>
</trkpt>
<trkpt lat="46.5471831" lon="6.2092021">
<ele>1349.96</ele>
<time>2021-09-02T14:31:47Z</time>
</trkpt>
<trkpt lat="46.5473114" lon="6.2093918">
<ele>1347.98</ele>
<time>2021-09-02T14:31:53Z</time>
</trkpt>
<trkpt lat="46.5474669" lon="6.2096314">
<ele>1344.10</ele>
<time>2021-09-02T14:31:59Z</time>
</trkpt>
<trkpt lat="46.5476016" lon="6.2098445">
<ele>1344.13</ele>
<time>2021-09-02T14:32:03Z</time>
</trkpt>
<trkpt lat="46.5477666" lon="6.2099982">
<ele>1344.34</ele>
<time>2021-09-02T14:32:07Z</time>
</trkpt>
<trkpt lat="46.5479462" lon="6.2101875">
<ele>1344.89</ele>
<time>2021-09-02T14:32:11Z</time>
</trkpt>
<trkpt lat="46.5481080" lon="6.2103267">
<ele>1345.06</ele>
<time>2021-09-02T14:32:15Z</time>
</trkpt>
<trkpt lat="46.5482998" lon="6.2103030">
<ele>1343.17</ele>
<time>2021-09-02T14:32:22Z</time>
</trkpt>
<trkpt lat="46.5484852" lon="6.2103451">
<ele>1344.96</ele>
<time>2021-09-02T14:32:32Z</time>
</trkpt>
<trkpt lat="46.5486732" lon="6.2103957">
<ele>1343.59</ele>
<time>2021-09-02T14:32:38Z</time>
</trkpt>
<trkpt lat="46.5488758" lon="6.2103849">
<ele>1343.41</ele>
<time>2021-09-02T14:32:43Z</time>
</trkpt>
<trkpt lat="46.5490998" lon="6.2104441">
<ele>1342.26</ele>
<time>2021-09-02T14:32:47Z</time>
</trkpt>
<trkpt lat="46.5492794" lon="6.2105559">
<ele>1340.75</ele>
<time>2021-09-02T14:32:50Z</time>
</trkpt>
<trkpt lat="46.5494317" lon="6.2107070">
<ele>1340.38</ele>
<time>2021-09-02T14:32:53Z</time>
</trkpt>
<trkpt lat="46.5496326" lon="6.2108359">
<ele>1340.31</ele>
<time>2021-09-02T14:32:57Z</time>
</trkpt>
<trkpt lat="46.5498194" lon="6.2108015">
<ele>1341.29</ele>
<time>2021-09-02T14:33:04Z</time>
</trkpt>
<trkpt lat="46.5500072" lon="6.2107766">
<ele>1349.01</ele>
<time>2021-09-02T14:34:49Z</time>
</trkpt>
<trkpt lat="46.5502252" lon="6.2108545">
<ele>1348.29</ele>
<time>2021-09-02T14:34:56Z</time>
</trkpt>
<trkpt lat="46.5504243" lon="6.2109182">
<ele>1348.75</ele>
<time>2021-09-02T14:35:01Z</time>
</trkpt>
<trkpt lat="46.5505996" lon="6.2108268">
<ele>1349.94</ele>
<time>2021-09-02T14:35:06Z</time>
</trkpt>
<trkpt lat="46.5507799" lon="6.2108277">
<ele>1349.65</ele>
<time>2021-09-02T14:35:11Z</time>
</trkpt>
<trkpt lat="46.5509715" lon="6.2107996">
<ele>1349.04</ele>
<time>2021-09-02T14:35:17Z</time>
</trkpt>
<trkpt lat="46.5511537" lon="6.2107698">
<ele>1350.12</ele>
<time>2021-09-02T14:35:25Z</time>
</trkpt>
<trkpt lat="46.5513439" lon="6.2108298">
<ele>1354.54</ele>
<time>2021-09-02T14:35:35Z</time>
</trkpt>
<trkpt lat="46.5515270" lon="6.2108452">
<ele>1355.12</ele>
<time>2021-09-02T14:35:40Z</time>
</trkpt>
<trkpt lat="46.5517060" lon="6.2109041">
<ele>1355.67</ele>
<time>2021-09-02T14:35:45Z</time>
</trkpt>
<trkpt lat="46.5518873" lon="6.2109673">
<ele>1354.35</ele>
<time>2021-09-02T14:35:51Z</time>
</trkpt>
<trkpt lat="46.5520967" lon="6.2108931">
<ele>1355.00</ele>
<time>2021-09-02T14:35:57Z</time>
</trkpt>
<trkpt lat="46.5522752" lon="6.2110400">
<ele>1352.15</ele>
<time>2021-09-02T14:36:02Z</time>
</trkpt>
<trkpt lat="46.5522481" lon="6.2113248">
<ele>1348.02</ele>
<time>2021-09-02T14:36:11Z</time>
</trkpt>
<trkpt lat="46.5522500" lon="6.2116112">
<ele>1346.89</ele>
<time>2021-09-02T14:36:18Z</time>
</trkpt>
<trkpt lat="46.5522649" lon="6.2119123">
<ele>1347.15</ele>
<time>2021-09-02T14:36:24Z</time>
</trkpt>
<trkpt lat="46.5524004" lon="6.2120940">
<ele>1350.08</ele>
<time>2021-09-02T14:36:29Z</time>
</trkpt>
<trkpt lat="46.5524951" lon="6.2123212">
<ele>1351.31</ele>
<time>2021-09-02T14:36:36Z</time>
</trkpt>
<trkpt lat="46.5525500" lon="6.2125767">
<ele>1351.39</ele>
<time>2021-09-02T14:36:44Z</time>
</trkpt>
<trkpt lat="46.5525070" lon="6.2128577">
<ele>1355.80</ele>
<time>2021-09-02T14:36:52Z</time>
</trkpt>
<trkpt lat="46.5525269" lon="6.2131226">
<ele>1356.00</ele>
<time>2021-09-02T14:36:59Z</time>
</trkpt>
<trkpt lat="46.5526141" lon="6.2133856">
<ele>1354.84</ele>
<time>2021-09-02T14:37:05Z</time>
</trkpt>
<trkpt lat="46.5527440" lon="6.2135755">
<ele>1355.54</ele>
<time>2021-09-02T14:37:12Z</time>
</trkpt>
<trkpt lat="46.5528568" lon="6.2137957">
<ele>1352.21</ele>
<time>2021-09-02T14:37:20Z</time>
</trkpt>
<trkpt lat="46.5529397" lon="6.2140490">
<ele>1354.37</ele>
<time>2021-09-02T14:37:30Z</time>
</trkpt>
<trkpt lat="46.5529835" lon="6.2143086">
<ele>1357.00</ele>
<time>2021-09-02T14:37:37Z</time>
</trkpt>
<trkpt lat="46.5531058" lon="6.2145356">
<ele>1359.80</ele>
<time>2021-09-02T14:37:44Z</time>
</trkpt>
<trkpt lat="46.5532143" lon="6.2147532">
<ele>1360.93</ele>
<time>2021-09-02T14:37:50Z</time>
</trkpt>
<trkpt lat="46.5533294" lon="6.2149952">
<ele>1355.38</ele>
<time>2021-09-02T14:37:57Z</time>
</trkpt>
<trkpt lat="46.5534226" lon="6.2152563">
<ele>1358.26</ele>
<time>2021-09-02T14:38:04Z</time>
</trkpt>
<trkpt lat="46.5535762" lon="6.2154365">
<ele>1362.38</ele>
<time>2021-09-02T14:38:11Z</time>
</trkpt>
<trkpt lat="46.5537958" lon="6.2155449">
<ele>1362.58</ele>
<time>2021-09-02T14:38:16Z</time>
</trkpt>
<trkpt lat="46.5539774" lon="6.2157145">
<ele>1360.31</ele>
<time>2021-09-02T14:38:21Z</time>
</trkpt>
<trkpt lat="46.5541439" lon="6.2158759">
<ele>1359.46</ele>
<time>2021-09-02T14:38:26Z</time>
</trkpt>
<trkpt lat="46.5543251" lon="6.2159254">
<ele>1360.96</ele>
<time>2021-09-02T14:38:32Z</time>
</trkpt>
<trkpt lat="46.5545082" lon="6.2159989">
<ele>1360.80</ele>
<time>2021-09-02T14:38:40Z</time>
</trkpt>
<trkpt lat="46.5546799" lon="6.2160859">
<ele>1361.92</ele>
<time>2021-09-02T14:38:45Z</time>
</trkpt>
<trkpt lat="46.5548522" lon="6.2162094">
<ele>1359.11</ele>
<time>2021-09-02T14:38:50Z</time>
</trkpt>
<trkpt lat="46.5550337" lon="6.2162809">
<ele>1356.61</ele>
<time>2021-09-02T14:38:56Z</time>
</trkpt>
<trkpt lat="46.5552004" lon="6.2164193">
<ele>1357.16</ele>
<time>2021-09-02T14:39:01Z</time>
</trkpt>
<trkpt lat="46.5553580" lon="6.2166213">
<ele>1353.53</ele>
<time>2021-09-02T14:39:09Z</time>
</trkpt>
<trkpt lat="46.5554705" lon="6.2168273">
<ele>1351.78</ele>
<time>2021-09-02T14:39:12Z</time>
</trkpt>
<trkpt lat="46.5556017" lon="6.2170422">
<ele>1348.11</ele>
<time>2021-09-02T14:39:16Z</time>
</trkpt>
<trkpt lat="46.5557867" lon="6.2170807">
<ele>1348.11</ele>
<time>2021-09-02T14:39:22Z</time>
</trkpt>
<trkpt lat="46.5559912" lon="6.2169876">
<ele>1349.73</ele>
<time>2021-09-02T14:39:28Z</time>
</trkpt>
<trkpt lat="46.5561885" lon="6.2170157">
<ele>1351.32</ele>
<time>2021-09-02T14:39:34Z</time>
</trkpt>
<trkpt lat="46.5563514" lon="6.2171959">
<ele>1348.41</ele>
<time>2021-09-02T14:39:41Z</time>
</trkpt>
<trkpt lat="46.5564799" lon="6.2174032">
<ele>1346.86</ele>
<time>2021-09-02T14:39:47Z</time>
</trkpt>
<trkpt lat="46.5566633" lon="6.2175023">
<ele>1346.70</ele>
<time>2021-09-02T14:39:55Z</time>
</trkpt>
<trkpt lat="46.5568430" lon="6.2176270">
<ele>1345.03</ele>
<time>2021-09-02T14:40:01Z</time>
</trkpt>
<trkpt lat="46.5569968" lon="6.2177718">
<ele>1344.93</ele>
<time>2021-09-02T14:40:06Z</time>
</trkpt>
<trkpt lat="46.5571397" lon="6.2179862">
<ele>1343.15</ele>
<time>2021-09-02T14:40:12Z</time>
</trkpt>
<trkpt lat="46.5572928" lon="6.2181620">
<ele>1340.83</ele>
<time>2021-09-02T14:40:17Z</time>
</trkpt>
<trkpt lat="46.5574451" lon="6.2183613">
<ele>1338.56</ele>
<time>2021-09-02T14:40:22Z</time>
</trkpt>
<trkpt lat="46.5576299" lon="6.2185791">
<ele>1340.40</ele>
<time>2021-09-02T14:40:26Z</time>
</trkpt>
<trkpt lat="46.5577729" lon="6.2187827">
<ele>1340.86</ele>
<time>2021-09-02T14:40:31Z</time>
</trkpt>
<trkpt lat="46.5579900" lon="6.2188761">
<ele>1340.77</ele>
<time>2021-09-02T14:40:37Z</time>
</trkpt>
<trkpt lat="46.5581868" lon="6.2188630">
<ele>1336.49</ele>
<time>2021-09-02T14:40:44Z</time>
</trkpt>
<trkpt lat="46.5583666" lon="6.2188220">
<ele>1337.95</ele>
<time>2021-09-02T14:40:50Z</time>
</trkpt>
<trkpt lat="46.5585407" lon="6.2187506">
<ele>1336.06</ele>
<time>2021-09-02T14:40:54Z</time>
</trkpt>
<trkpt lat="46.5586817" lon="6.2185448">
<ele>1337.16</ele>
<time>2021-09-02T14:40:59Z</time>
</trkpt>
<trkpt lat="46.5587781" lon="6.2182950">
<ele>1333.19</ele>
<time>2021-09-02T14:41:04Z</time>
</trkpt>
<trkpt lat="46.5589079" lon="6.2184782">
<ele>1332.11</ele>
<time>2021-09-02T14:41:13Z</time>
</trkpt>
<trkpt lat="46.5590310" lon="6.2186939">
<ele>1330.97</ele>
<time>2021-09-02T14:41:21Z</time>
</trkpt>
<trkpt lat="46.5590991" lon="6.2189512">
<ele>1333.27</ele>
<time>2021-09-02T14:41:30Z</time>
</trkpt>
<trkpt lat="46.5591860" lon="6.2191803">
<ele>1330.92</ele>
<time>2021-09-02T14:41:39Z</time>
</trkpt>
<trkpt lat="46.5593073" lon="6.2194011">
<ele>1334.08</ele>
<time>2021-09-02T14:41:47Z</time>
</trkpt>
<trkpt lat="46.5594276" lon="6.2196025">
<ele>1340.33</ele>
<time>2021-09-02T14:41:57Z</time>
</trkpt>
<trkpt lat="46.5594999" lon="6.2198531">
<ele>1340.65</ele>
<time>2021-09-02T14:42:08Z</time>
</trkpt>
<trkpt lat="46.5596168" lon="6.2200903">
<ele>1339.88</ele>
<time>2021-09-02T14:42:17Z</time>
</trkpt>
<trkpt lat="46.5597553" lon="6.2202621">
<ele>1341.48</ele>
<time>2021-09-02T14:42:23Z</time>
</trkpt>
<trkpt lat="46.5598636" lon="6.2204843">
<ele>1338.38</ele>
<time>2021-09-02T14:42:29Z</time>
</trkpt>
<trkpt lat="46.5599043" lon="6.2207545">
<ele>1343.94</ele>
<time>2021-09-02T14:42:41Z</time>
</trkpt>
<trkpt lat="46.5599970" lon="6.2209830">
<ele>1348.63</ele>
<time>2021-09-02T14:42:48Z</time>
</trkpt>
<trkpt lat="46.5601310" lon="6.2211952">
<ele>1351.01</ele>
<time>2021-09-02T14:42:57Z</time>
</trkpt>
<trkpt lat="46.5603161" lon="6.2213360">
<ele>1352.15</ele>
<time>2021-09-02T14:43:07Z</time>
</trkpt>
<trkpt lat="46.5604629" lon="6.2214982">
<ele>1352.25</ele>
<time>2021-09-02T14:43:15Z</time>
</trkpt>
<trkpt lat="46.5606334" lon="6.2213394">
<ele>1349.63</ele>
<time>2021-09-02T14:43:27Z</time>
</trkpt>
<trkpt lat="46.5607629" lon="6.2211460">
<ele>1352.77</ele>
<time>2021-09-02T14:43:35Z</time>
</trkpt>
<trkpt lat="46.5609281" lon="6.2210316">
<ele>1353.29</ele>
<time>2021-09-02T14:43:42Z</time>
</trkpt>
<trkpt lat="46.5611366" lon="6.2210694">
<ele>1351.77</ele>
<time>2021-09-02T14:43:48Z</time>
</trkpt>
<trkpt lat="46.5613265" lon="6.2210699">
<ele>1354.87</ele>
<time>2021-09-02T14:43:54Z</time>
</trkpt>
<trkpt lat="46.5614785" lon="6.2212249">
<ele>1352.49</ele>
<time>2021-09-02T14:44:00Z</time>
</trkpt>
<trkpt lat="46.5616479" lon="6.2214194">
<ele>1353.50</ele>
<time>2021-09-02T14:44:05Z</time>
</trkpt>
<trkpt lat="46.5618322" lon="6.2215624">
<ele>1354.44</ele>
<time>2021-09-02T14:44:09Z</time>
</trkpt>
<trkpt lat="46.5620075" lon="6.2216784">
<ele>1353.76</ele>
<time>2021-09-02T14:44:18Z</time>
</trkpt>
<trkpt lat="46.5621783" lon="6.2218023">
<ele>1355.23</ele>
<time>2021-09-02T14:44:25Z</time>
</trkpt>
<trkpt lat="46.5623150" lon="6.2216149">
<ele>1353.95</ele>
<time>2021-09-02T14:44:32Z</time>
</trkpt>
<trkpt lat="46.5624733" lon="6.2214206">
<ele>1353.42</ele>
<time>2021-09-02T14:44:40Z</time>
</trkpt>
<trkpt lat="46.5626400" lon="6.2213153">
<ele>1352.96</ele>
<time>2021-09-02T14:44:46Z</time>
</trkpt>
<trkpt lat="46.5628072" lon="6.2211921">
<ele>1351.39</ele>
<time>2021-09-02T14:44:50Z</time>
</trkpt>
<trkpt lat="46.5629867" lon="6.2211579">
<ele>1351.83</ele>
<time>2021-09-02T14:44:56Z</time>
</trkpt>
<trkpt lat="46.5630843" lon="6.2209251">
<ele>1350.72</ele>
<time>2021-09-02T14:45:00Z</time>
</trkpt>
<trkpt lat="46.5630361" lon="6.2206614">
<ele>1349.24</ele>
<time>2021-09-02T14:45:07Z</time>
</trkpt>
<trkpt lat="46.5630441" lon="6.2203947">
<ele>1350.23</ele>
<time>2021-09-02T14:45:11Z</time>
</trkpt>
<trkpt lat="46.5630955" lon="6.2201120">
<ele>1348.21</ele>
<time>2021-09-02T14:45:17Z</time>
</trkpt>
<trkpt lat="46.5631443" lon="6.2198573">
<ele>1345.75</ele>
<time>2021-09-02T14:45:23Z</time>
</trkpt>
<trkpt lat="46.5633063" lon="6.2196814">
<ele>1346.60</ele>
<time>2021-09-02T14:45:30Z</time>
</trkpt>
<trkpt lat="46.5634861" lon="6.2195706">
<ele>1345.10</ele>
<time>2021-09-02T14:45:37Z</time>
</trkpt>
<trkpt lat="46.5636876" lon="6.2195512">
<ele>1344.23</ele>
<time>2021-09-02T14:45:44Z</time>
</trkpt>
<trkpt lat="46.5638944" lon="6.2195842">
<ele>1339.53</ele>
<time>2021-09-02T14:45:49Z</time>
</trkpt>
<trkpt lat="46.5641301" lon="6.2196223">
<ele>1336.73</ele>
<time>2021-09-02T14:45:57Z</time>
</trkpt>
<trkpt lat="46.5643535" lon="6.2196493">
<ele>1333.45</ele>
<time>2021-09-02T14:46:01Z</time>
</trkpt>
<trkpt lat="46.5645548" lon="6.2198321">
<ele>1329.76</ele>
<time>2021-09-02T14:46:05Z</time>
</trkpt>
<trkpt lat="46.5647312" lon="6.2199401">
<ele>1328.70</ele>
<time>2021-09-02T14:46:09Z</time>
</trkpt>
<trkpt lat="46.5649105" lon="6.2198994">
<ele>1316.45</ele>
<time>2021-09-02T14:47:03Z</time>
</trkpt>
<trkpt lat="46.5651047" lon="6.2199697">
<ele>1315.61</ele>
<time>2021-09-02T14:47:10Z</time>
</trkpt>
<trkpt lat="46.5652923" lon="6.2199292">
<ele>1317.43</ele>
<time>2021-09-02T14:47:17Z</time>
</trkpt>
<trkpt lat="46.5654611" lon="6.2196073">
<ele>1316.66</ele>
<time>2021-09-02T14:47:24Z</time>
</trkpt>
<trkpt lat="46.5656128" lon="6.2194215">
<ele>1313.82</ele>
<time>2021-09-02T14:47:29Z</time>
</trkpt>
<trkpt lat="46.5657691" lon="6.2192474">
<ele>1312.79</ele>
<time>2021-09-02T14:47:33Z</time>
</trkpt>
<trkpt lat="46.5659490" lon="6.2193503">
<ele>1314.56</ele>
<time>2021-09-02T14:47:41Z</time>
</trkpt>
<trkpt lat="46.5661388" lon="6.2194237">
<ele>1312.18</ele>
<time>2021-09-02T14:47:48Z</time>
</trkpt>
<trkpt lat="46.5663240" lon="6.2194492">
<ele>1311.33</ele>
<time>2021-09-02T14:47:54Z</time>
</trkpt>
<trkpt lat="46.5664196" lon="6.2196803">
<ele>1311.92</ele>
<time>2021-09-02T14:48:04Z</time>
</trkpt>
<trkpt lat="46.5665555" lon="6.2198725">
<ele>1313.39</ele>
<time>2021-09-02T14:48:12Z</time>
</trkpt>
<trkpt lat="46.5666190" lon="6.2201321">
<ele>1314.68</ele>
<time>2021-09-02T14:48:23Z</time>
</trkpt>
<trkpt lat="46.5666425" lon="6.2204216">
<ele>1317.13</ele>
<time>2021-09-02T14:49:11Z</time>
</trkpt>
<trkpt lat="46.5666623" lon="6.2206936">
<ele>1317.28</ele>
<time>2021-09-02T14:49:20Z</time>
</trkpt>
<trkpt lat="46.5667085" lon="6.2209852">
<ele>1318.34</ele>
<time>2021-09-02T14:49:28Z</time>
</trkpt>
<trkpt lat="46.5667657" lon="6.2212395">
<ele>1319.50</ele>
<time>2021-09-02T14:49:35Z</time>
</trkpt>
<trkpt lat="46.5668790" lon="6.2214789">
<ele>1320.60</ele>
<time>2021-09-02T14:49:41Z</time>
</trkpt>
<trkpt lat="46.5669772" lon="6.2217215">
<ele>1320.79</ele>
<time>2021-09-02T14:49:48Z</time>
</trkpt>
<trkpt lat="46.5670961" lon="6.2219628">
<ele>1321.09</ele>
<time>2021-09-02T14:49:56Z</time>
</trkpt>
<trkpt lat="46.5672270" lon="6.2222135">
<ele>1319.77</ele>
<time>2021-09-02T14:50:02Z</time>
</trkpt>
<trkpt lat="46.5674044" lon="6.2224157">
<ele>1317.80</ele>
<time>2021-09-02T14:50:06Z</time>
</trkpt>
<trkpt lat="46.5675670" lon="6.2225556">
<ele>1316.12</ele>
<time>2021-09-02T14:50:09Z</time>
</trkpt>
<trkpt lat="46.5677089" lon="6.2227249">
<ele>1315.16</ele>
<time>2021-09-02T14:50:12Z</time>
</trkpt>
<trkpt lat="46.5678566" lon="6.2228828">
<ele>1313.92</ele>
<time>2021-09-02T14:50:15Z</time>
</trkpt>
<trkpt lat="46.5679749" lon="6.2231228">
<ele>1313.14</ele>
<time>2021-09-02T14:50:18Z</time>
</trkpt>
<trkpt lat="46.5681089" lon="6.2233675">
<ele>1310.96</ele>
<time>2021-09-02T14:50:21Z</time>
</trkpt>
<trkpt lat="46.5681789" lon="6.2236123">
<ele>1309.76</ele>
<time>2021-09-02T14:50:24Z</time>
</trkpt>
<trkpt lat="46.5682490" lon="6.2238838">
<ele>1309.59</ele>
<time>2021-09-02T14:50:28Z</time>
</trkpt>
<trkpt lat="46.5683050" lon="6.2241733">
<ele>1309.98</ele>
<time>2021-09-02T14:50:33Z</time>
</trkpt>
<trkpt lat="46.5683745" lon="6.2244172">
<ele>1309.50</ele>
<time>2021-09-02T14:50:38Z</time>
</trkpt>
<trkpt lat="46.5685016" lon="6.2246068">
<ele>1315.12</ele>
<time>2021-09-02T14:51:27Z</time>
</trkpt>
<trkpt lat="46.5683961" lon="6.2248435">
<ele>1312.65</ele>
<time>2021-09-02T14:52:11Z</time>
</trkpt>
<trkpt lat="46.5683526" lon="6.2251183">
<ele>1313.79</ele>
<time>2021-09-02T14:52:18Z</time>
</trkpt>
<trkpt lat="46.5683113" lon="6.2253806">
<ele>1314.30</ele>
<time>2021-09-02T14:52:25Z</time>
</trkpt>
<trkpt lat="46.5682682" lon="6.2256497">
<ele>1315.59</ele>
<time>2021-09-02T14:52:32Z</time>
</trkpt>
<trkpt lat="46.5682220" lon="6.2259204">
<ele>1316.41</ele>
<time>2021-09-02T14:52:39Z</time>
</trkpt>
<trkpt lat="46.5681813" lon="6.2261952">
<ele>1318.68</ele>
<time>2021-09-02T14:52:47Z</time>
</trkpt>
<trkpt lat="46.5681431" lon="6.2264750">
<ele>1320.49</ele>
<time>2021-09-02T14:52:56Z</time>
</trkpt>
<trkpt lat="46.5680823" lon="6.2267252">
<ele>1322.32</ele>
<time>2021-09-02T14:53:04Z</time>
</trkpt>
<trkpt lat="46.5680127" lon="6.2269991">
<ele>1323.71</ele>
<time>2021-09-02T14:53:13Z</time>
</trkpt>
<trkpt lat="46.5679082" lon="6.2272194">
<ele>1323.59</ele>
<time>2021-09-02T14:53:21Z</time>
</trkpt>
<trkpt lat="46.5678013" lon="6.2274608">
<ele>1324.56</ele>
<time>2021-09-02T14:53:30Z</time>
</trkpt>
<trkpt lat="46.5677088" lon="6.2276873">
<ele>1327.25</ele>
<time>2021-09-02T14:53:38Z</time>
</trkpt>
<trkpt lat="46.5676180" lon="6.2279244">
<ele>1328.70</ele>
<time>2021-09-02T14:53:46Z</time>
</trkpt>
<trkpt lat="46.5675300" lon="6.2281569">
<ele>1330.83</ele>
<time>2021-09-02T14:53:54Z</time>
</trkpt>
<trkpt lat="46.5674351" lon="6.2284060">
<ele>1333.21</ele>
<time>2021-09-02T14:54:03Z</time>
</trkpt>
<trkpt lat="46.5673369" lon="6.2286587">
<ele>1335.38</ele>
<time>2021-09-02T14:54:12Z</time>
</trkpt>
<trkpt lat="46.5672441" lon="6.2288942">
<ele>1337.15</ele>
<time>2021-09-02T14:54:20Z</time>
</trkpt>
<trkpt lat="46.5671432" lon="6.2291284">
<ele>1338.75</ele>
<time>2021-09-02T14:54:28Z</time>
</trkpt>
<trkpt lat="46.5670579" lon="6.2293589">
<ele>1339.19</ele>
<time>2021-09-02T14:54:36Z</time>
</trkpt>
<trkpt lat="46.5669624" lon="6.2295827">
<ele>1340.25</ele>
<time>2021-09-02T14:54:44Z</time>
</trkpt>
<trkpt lat="46.5668621" lon="6.2298352">
<ele>1342.23</ele>
<time>2021-09-02T14:54:53Z</time>
</trkpt>
<trkpt lat="46.5667855" lon="6.2301014">
<ele>1344.07</ele>
<time>2021-09-02T14:55:02Z</time>
</trkpt>
<trkpt lat="46.5667218" lon="6.2303637">
<ele>1345.29</ele>
<time>2021-09-02T14:55:10Z</time>
</trkpt>
<trkpt lat="46.5666712" lon="6.2306469">
<ele>1346.07</ele>
<time>2021-09-02T14:55:18Z</time>
</trkpt>
<trkpt lat="46.5666260" lon="6.2309207">
<ele>1347.57</ele>
<time>2021-09-02T14:55:24Z</time>
</trkpt>
<trkpt lat="46.5665844" lon="6.2312273">
<ele>1347.36</ele>
<time>2021-09-02T14:55:30Z</time>
</trkpt>
<trkpt lat="46.5665521" lon="6.2314909">
<ele>1348.46</ele>
<time>2021-09-02T14:55:35Z</time>
</trkpt>
<trkpt lat="46.5665192" lon="6.2317630">
<ele>1349.23</ele>
<time>2021-09-02T14:55:40Z</time>
</trkpt>
<trkpt lat="46.5664833" lon="6.2320597">
<ele>1350.63</ele>
<time>2021-09-02T14:55:45Z</time>
</trkpt>
<trkpt lat="46.5664449" lon="6.2323562">
<ele>1351.05</ele>
<time>2021-09-02T14:55:50Z</time>
</trkpt>
<trkpt lat="46.5664044" lon="6.2326320">
<ele>1350.73</ele>
<time>2021-09-02T14:55:55Z</time>
</trkpt>
<trkpt lat="46.5663674" lon="6.2329213">
<ele>1351.64</ele>
<time>2021-09-02T14:56:00Z</time>
</trkpt>
<trkpt lat="46.5663103" lon="6.2332341">
<ele>1352.56</ele>
<time>2021-09-02T14:56:05Z</time>
</trkpt>
<trkpt lat="46.5662623" lon="6.2335073">
<ele>1352.08</ele>
<time>2021-09-02T14:56:09Z</time>
</trkpt>
<trkpt lat="46.5662065" lon="6.2337896">
<ele>1352.40</ele>
<time>2021-09-02T14:56:13Z</time>
</trkpt>
<trkpt lat="46.5661346" lon="6.2341014">
<ele>1352.86</ele>
<time>2021-09-02T14:56:17Z</time>
</trkpt>
<trkpt lat="46.5660486" lon="6.2344313">
<ele>1352.98</ele>
<time>2021-09-02T14:56:21Z</time>
</trkpt>
<trkpt lat="46.5659842" lon="6.2347011">
<ele>1352.54</ele>
<time>2021-09-02T14:56:24Z</time>
</trkpt>
<trkpt lat="46.5659072" lon="6.2349659">
<ele>1352.04</ele>
<time>2021-09-02T14:56:27Z</time>
</trkpt>
<trkpt lat="46.5658359" lon="6.2352276">
<ele>1352.12</ele>
<time>2021-09-02T14:56:30Z</time>
</trkpt>
<trkpt lat="46.5657632" lon="6.2355068">
<ele>1352.19</ele>
<time>2021-09-02T14:56:33Z</time>
</trkpt>
<trkpt lat="46.5656866" lon="6.2357894">
<ele>1352.14</ele>
<time>2021-09-02T14:56:36Z</time>
</trkpt>
<trkpt lat="46.5656250" lon="6.2360768">
<ele>1351.56</ele>
<time>2021-09-02T14:56:39Z</time>
</trkpt>
<trkpt lat="46.5655513" lon="6.2363659">
<ele>1350.61</ele>
<time>2021-09-02T14:56:42Z</time>
</trkpt>
<trkpt lat="46.5654856" lon="6.2366704">
<ele>1349.99</ele>
<time>2021-09-02T14:56:45Z</time>
</trkpt>
<trkpt lat="46.5654141" lon="6.2369796">
<ele>1349.75</ele>
<time>2021-09-02T14:56:48Z</time>
</trkpt>
<trkpt lat="46.5653292" lon="6.2373031">
<ele>1349.09</ele>
<time>2021-09-02T14:56:51Z</time>
</trkpt>
<trkpt lat="46.5652464" lon="6.2376554">
<ele>1347.88</ele>
<time>2021-09-02T14:56:54Z</time>
</trkpt>
<trkpt lat="46.5651517" lon="6.2380313">
<ele>1347.12</ele>
<time>2021-09-02T14:56:57Z</time>
</trkpt>
<trkpt lat="46.5650674" lon="6.2384059">
<ele>1346.18</ele>
<time>2021-09-02T14:57:00Z</time>
</trkpt>
<trkpt lat="46.5649984" lon="6.2386766">
<ele>1344.06</ele>
<time>2021-09-02T14:57:02Z</time>
</trkpt>
<trkpt lat="46.5649259" lon="6.2389615">
<ele>1342.29</ele>
<time>2021-09-02T14:57:04Z</time>
</trkpt>
<trkpt lat="46.5648562" lon="6.2392578">
<ele>1340.86</ele>
<time>2021-09-02T14:57:06Z</time>
</trkpt>
<trkpt lat="46.5647819" lon="6.2395605">
<ele>1339.77</ele>
<time>2021-09-02T14:57:08Z</time>
</trkpt>
<trkpt lat="46.5646964" lon="6.2398685">
<ele>1338.73</ele>
<time>2021-09-02T14:57:10Z</time>
</trkpt>
<trkpt lat="46.5646095" lon="6.2401704">
<ele>1337.51</ele>
<time>2021-09-02T14:57:12Z</time>
</trkpt>
<trkpt lat="46.5645300" lon="6.2404782">
<ele>1336.83</ele>
<time>2021-09-02T14:57:14Z</time>
</trkpt>
<trkpt lat="46.5644601" lon="6.2407942">
<ele>1336.34</ele>
<time>2021-09-02T14:57:16Z</time>
</trkpt>
<trkpt lat="46.5643865" lon="6.2410945">
<ele>1335.56</ele>
<time>2021-09-02T14:57:18Z</time>
</trkpt>
<trkpt lat="46.5643139" lon="6.2413762">
<ele>1335.15</ele>
<time>2021-09-02T14:57:20Z</time>
</trkpt>
<trkpt lat="46.5642526" lon="6.2416524">
<ele>1334.37</ele>
<time>2021-09-02T14:57:22Z</time>
</trkpt>
<trkpt lat="46.5641904" lon="6.2419149">
<ele>1333.62</ele>
<time>2021-09-02T14:57:24Z</time>
</trkpt>
<trkpt lat="46.5640938" lon="6.2422593">
<ele>1333.92</ele>
<time>2021-09-02T14:57:27Z</time>
</trkpt>
<trkpt lat="46.5640104" lon="6.2425775">
<ele>1334.23</ele>
<time>2021-09-02T14:57:30Z</time>
</trkpt>
<trkpt lat="46.5639402" lon="6.2428708">
<ele>1334.95</ele>
<time>2021-09-02T14:57:33Z</time>
</trkpt>
<trkpt lat="46.5638700" lon="6.2431420">
<ele>1334.54</ele>
<time>2021-09-02T14:57:36Z</time>
</trkpt>
<trkpt lat="46.5638108" lon="6.2434005">
<ele>1334.80</ele>
<time>2021-09-02T14:57:39Z</time>
</trkpt>
<trkpt lat="46.5637246" lon="6.2437154">
<ele>1335.95</ele>
<time>2021-09-02T14:57:43Z</time>
</trkpt>
<trkpt lat="46.5636506" lon="6.2440278">
<ele>1337.12</ele>
<time>2021-09-02T14:57:47Z</time>
</trkpt>
<trkpt lat="46.5635651" lon="6.2443516">
<ele>1338.21</ele>
<time>2021-09-02T14:57:51Z</time>
</trkpt>
<trkpt lat="46.5634875" lon="6.2446801">
<ele>1339.65</ele>
<time>2021-09-02T14:57:55Z</time>
</trkpt>
<trkpt lat="46.5634117" lon="6.2449225">
<ele>1340.03</ele>
<time>2021-09-02T14:57:58Z</time>
</trkpt>
<trkpt lat="46.5633520" lon="6.2451808">
<ele>1340.53</ele>
<time>2021-09-02T14:58:01Z</time>
</trkpt>
<trkpt lat="46.5632751" lon="6.2455008">
<ele>1341.16</ele>
<time>2021-09-02T14:58:05Z</time>
</trkpt>
<trkpt lat="46.5631982" lon="6.2458145">
<ele>1341.35</ele>
<time>2021-09-02T14:58:09Z</time>
</trkpt>
<trkpt lat="46.5631231" lon="6.2461402">
<ele>1341.01</ele>
<time>2021-09-02T14:58:13Z</time>
</trkpt>
<trkpt lat="46.5630414" lon="6.2464551">
<ele>1340.42</ele>
<time>2021-09-02T14:58:17Z</time>
</trkpt>
<trkpt lat="46.5629700" lon="6.2467115">
<ele>1340.05</ele>
<time>2021-09-02T14:58:20Z</time>
</trkpt>
<trkpt lat="46.5628702" lon="6.2469632">
<ele>1339.43</ele>
<time>2021-09-02T14:58:23Z</time>
</trkpt>
<trkpt lat="46.5627510" lon="6.2472056">
<ele>1338.75</ele>
<time>2021-09-02T14:58:26Z</time>
</trkpt>
<trkpt lat="46.5625810" lon="6.2474018">
<ele>1338.17</ele>
<time>2021-09-02T14:58:29Z</time>
</trkpt>
<trkpt lat="46.5623854" lon="6.2475488">
<ele>1337.71</ele>
<time>2021-09-02T14:58:32Z</time>
</trkpt>
<trkpt lat="46.5621777" lon="6.2476531">
<ele>1337.92</ele>
<time>2021-09-02T14:58:35Z</time>
</trkpt>
<trkpt lat="46.5619532" lon="6.2477449">
<ele>1337.74</ele>
<time>2021-09-02T14:58:38Z</time>
</trkpt>
<trkpt lat="46.5617284" lon="6.2478330">
<ele>1337.23</ele>
<time>2021-09-02T14:58:41Z</time>
</trkpt>
<trkpt lat="46.5614941" lon="6.2479074">
<ele>1337.00</ele>
<time>2021-09-02T14:58:44Z</time>
</trkpt>
<trkpt lat="46.5612724" lon="6.2480001">
<ele>1337.18</ele>
<time>2021-09-02T14:58:47Z</time>
</trkpt>
<trkpt lat="46.5610571" lon="6.2480568">
<ele>1337.11</ele>
<time>2021-09-02T14:58:50Z</time>
</trkpt>
<trkpt lat="46.5608458" lon="6.2480717">
<ele>1337.27</ele>
<time>2021-09-02T14:58:53Z</time>
</trkpt>
<trkpt lat="46.5606446" lon="6.2480649">
<ele>1337.18</ele>
<time>2021-09-02T14:58:56Z</time>
</trkpt>
<trkpt lat="46.5604573" lon="6.2480603">
<ele>1337.51</ele>
<time>2021-09-02T14:58:59Z</time>
</trkpt>
<trkpt lat="46.5602249" lon="6.2480886">
<ele>1338.48</ele>
<time>2021-09-02T14:59:03Z</time>
</trkpt>
<trkpt lat="46.5600265" lon="6.2481373">
<ele>1338.36</ele>
<time>2021-09-02T14:59:07Z</time>
</trkpt>
<trkpt lat="46.5598519" lon="6.2482582">
<ele>1338.93</ele>
<time>2021-09-02T14:59:11Z</time>
</trkpt>
<trkpt lat="46.5596735" lon="6.2484164">
<ele>1341.10</ele>
<time>2021-09-02T14:59:17Z</time>
</trkpt>
<trkpt lat="46.5595058" lon="6.2482984">
<ele>1339.92</ele>
<time>2021-09-02T14:59:24Z</time>
</trkpt>
</trkseg>
</trk>
</gpx>
